Provisional Data: Little Chiques Creek near Mount Joy, PA


Please select a monitoring station.
Please select start date.
Please select start date.

Toggle Unit: C/F Toggle Unit: C/F
Sample Time Temperature (C) Temperature (F) Specific Conductivity (mS/cm) pH   Turbidity (NTU+) DO (mg/L)
10/22/2021 12:00:00 AM 13.85 56.93 0.415 7.85 9.86 8.96
10/22/2021 12:15:00 AM 13.83 56.894 0.414 7.84 9.85 8.93
10/22/2021 12:30:00 AM 13.81 56.858 0.415 7.84 9.68 8.88
10/22/2021 12:45:00 AM 13.8 56.84 0.415 7.83 9.82 8.86
10/22/2021 1:00:00 AM 13.8 56.84 0.415 7.83 9.76 8.84
10/22/2021 1:15:00 AM 13.81 56.858 0.415 7.83 9.7 8.81
10/22/2021 1:30:00 AM 13.81 56.858 0.415 7.83 9.65 8.77
10/22/2021 1:45:00 AM 13.82 56.876 0.415 7.83 9.75 8.76
10/22/2021 2:00:00 AM 13.83 56.894 0.415 7.82 9.81 8.75
10/22/2021 2:15:00 AM 13.84 56.912 0.415 7.82 9.67 8.72
10/22/2021 2:30:00 AM 13.84 56.912 0.415 7.82 10.46 8.7
10/22/2021 2:45:00 AM 13.84 56.912 0.415 7.81 9.56 8.7
10/22/2021 3:00:00 AM 13.84 56.912 0.415 7.81 9.83 8.68
10/22/2021 3:15:00 AM 13.84 56.912 0.415 7.81 9.8 8.65
10/22/2021 3:30:00 AM 13.83 56.894 0.415 7.81 9.96 8.64
10/22/2021 3:45:00 AM 13.83 56.894 0.415 7.81 10.04 8.62
10/22/2021 4:00:00 AM 13.82 56.876 0.416 7.81 10.24 8.61
10/22/2021 4:15:00 AM 13.81 56.858 0.415 7.81 9.63 8.6
10/22/2021 4:30:00 AM 13.79 56.822 0.416 7.8 9.7 8.6
10/22/2021 4:45:00 AM 13.78 56.804 0.416 7.8 9.9 8.57
10/22/2021 5:00:00 AM 13.76 56.768 0.416 7.8 10.11 8.57
10/22/2021 5:15:00 AM 13.74 56.732 0.416 7.8 9.98 8.58
10/22/2021 5:30:00 AM 13.72 56.696 0.416 7.8 10 8.57
10/22/2021 5:45:00 AM 13.7 56.66 0.416 7.8 10.22 8.57
10/22/2021 6:00:00 AM 13.67 56.606 0.416 7.8 10.13 8.57
10/22/2021 6:15:00 AM 13.65 56.57 0.416 7.8 10.3 8.55
10/22/2021 6:30:00 AM 13.63 56.534 0.416 7.8 10.01 8.55
10/22/2021 6:45:00 AM 13.6 56.48 0.415 7.8 10.07 8.56
10/22/2021 7:00:00 AM 13.57 56.426 0.416 7.8 10.05 8.56
10/22/2021 7:15:00 AM 13.55 56.39 0.416 7.8 10.25 8.55
10/22/2021 7:30:00 AM 13.52 56.336 0.416 7.8 10.12 8.56
10/22/2021 7:45:00 AM 13.5 56.3 0.415 7.8 9.81 8.57
10/22/2021 8:00:00 AM 13.47 56.246 0.416 7.8 9.85 8.59
10/22/2021 8:15:00 AM 13.46 56.228 0.415 7.8 9.89 8.61
10/22/2021 8:30:00 AM 13.45 56.21 0.415 7.81 9.43 8.67
10/22/2021 8:45:00 AM 13.45 56.21 0.415 7.81 9.8 8.72
10/22/2021 9:00:00 AM 13.46 56.228 0.415 7.82 9.72 8.83
10/22/2021 9:15:00 AM 13.48 56.264 0.415 7.83 9.72 8.93
10/22/2021 9:30:00 AM 13.5 56.3 0.415 7.84 9.84 9.05
10/22/2021 9:45:00 AM 13.52 56.336 0.415 7.84 56.94 9.14
10/22/2021 10:00:00 AM 13.54 56.372 0.415 7.85 50.75 9.24
10/22/2021 10:15:00 AM 13.58 56.444 0.414 7.87 49.26 9.45
10/22/2021 10:30:00 AM 13.61 56.498 0.414 7.88 14.21 9.6
10/22/2021 10:45:00 AM 13.65 56.57 0.413 7.9 48.26 9.79
10/22/2021 11:00:00 AM 13.69 56.642 0.413 7.92 48.83 9.99
10/22/2021 11:15:00 AM 13.77 56.786 0.412 7.94 47.77 10.26
10/22/2021 11:30:00 AM 13.85 56.93 0.412 7.97 49.79 10.47
10/22/2021 11:45:00 AM 13.87 56.966 0.412 7.98 48.86 10.57
10/22/2021 12:00:00 PM 13.91 57.038 0.411 8 46.21 10.69
10/22/2021 12:15:00 PM 13.97 57.146 0.411 8.01 45.33 10.81
10/22/2021 12:30:00 PM 14 57.2 0.411 8.02 46.71 10.85
10/22/2021 12:45:00 PM 14.02 57.236 0.411 8.03 45.11 10.91
10/22/2021 1:00:00 PM 14.06 57.308 0.412 8.05 45 11.07
10/22/2021 1:15:00 PM 14.08 57.344 0.412 8.06 44.53 11.09
10/22/2021 1:30:00 PM 14.11 57.398 0.411 8.07 44.69 11.14
10/22/2021 1:45:00 PM 14.12 57.416 0.411 8.07 38.53 11.16
10/22/2021 2:00:00 PM 14.12 57.416 0.412 8.07 38.35 11.11
10/22/2021 2:15:00 PM 14.11 57.398 0.412 8.06 38.49 11.04
10/22/2021 2:30:00 PM 14.09 57.362 0.412 8.05 9.33 10.93
10/22/2021 2:45:00 PM 14.09 57.362 0.412 8.05 38.44 10.89
10/22/2021 3:00:00 PM 14.07 57.326 0.412 8.04 38.44 10.8
10/22/2021 3:15:00 PM 14.09 57.362 0.412 8.04 38.13 10.85
10/22/2021 3:30:00 PM 14.12 57.416 0.412 8.04 38.08 10.86
10/22/2021 3:45:00 PM 14.13 57.434 0.412 8.05 38.34 10.86
10/22/2021 4:00:00 PM 14.18 57.524 0.412 8.06 57.56 10.98
10/22/2021 4:15:00 PM 14.21 57.578 0.412 8.07 55.19 11
10/22/2021 4:30:00 PM 14.23 57.614 0.411 8.07 52.97 11.01
10/22/2021 4:45:00 PM 14.26 57.668 0.411 8.07 53.48 11
10/22/2021 5:00:00 PM 14.28 57.704 0.411 8.07 52.82 10.98
10/22/2021 5:15:00 PM 14.3 57.74 0.411 8.07 52.95 10.91
10/22/2021 5:30:00 PM 14.28 57.704 0.411 8.05 66.72 10.75
10/22/2021 5:45:00 PM 14.26 57.668 0.412 8.04 54.31 10.65
10/22/2021 6:00:00 PM 14.23 57.614 0.412 8.03 54.36 10.52
10/22/2021 6:15:00 PM 14.21 57.578 0.412 8.01 53.62 10.35
10/22/2021 6:30:00 PM 14.18 57.524 0.412 7.99 35.74 10.2
10/22/2021 6:45:00 PM 14.15 57.47 0.412 7.98 36.43 10.03
10/22/2021 7:00:00 PM 14.13 57.434 0.412 7.96 10.02 9.9
10/22/2021 7:15:00 PM 14.11 57.398 0.412 7.95 33.89 9.79
10/22/2021 7:30:00 PM 14.09 57.362 0.412 7.93 33.69 9.69
10/22/2021 7:45:00 PM 14.08 57.344 0.412 7.92 34.01 9.62
10/22/2021 8:00:00 PM 14.06 57.308 0.412 7.91 33.96 9.55
10/22/2021 8:15:00 PM 14.05 57.29 0.412 7.91 10.51 9.5
10/22/2021 8:30:00 PM 14.03 57.254 0.412 7.91 33.99 9.47
10/22/2021 8:45:00 PM 14.01 57.218 0.412 7.9 34.4 9.42
10/22/2021 9:00:00 PM 13.99 57.182 0.412 7.9 34.48 9.42
10/22/2021 9:15:00 PM 13.97 57.146 0.413 7.9 34.62 9.38
10/22/2021 9:30:00 PM 13.95 57.11 0.413 7.89 34.52 9.34
10/22/2021 9:45:00 PM 13.93 57.074 0.413 7.89 55.13 9.33
10/22/2021 10:00:00 PM 13.91 57.038 0.413 7.88 12.71 9.29
10/22/2021 10:15:00 PM 13.89 57.002 0.172 7.88 12.85 9.26
10/22/2021 10:30:00 PM 13.88 56.984 0.413 7.88 13.06 9.24
10/22/2021 10:45:00 PM 13.85 56.93 0.413 7.87 12.71 9.19
10/22/2021 11:00:00 PM 13.83 56.894 0.413 7.87 13.67 9.16
10/22/2021 11:15:00 PM 13.8 56.84 0.413 7.86 13.53 9.11
10/22/2021 11:30:00 PM 13.77 56.786 0.414 7.86 12.74 9.07
10/22/2021 11:45:00 PM 13.74 56.732 0.414 7.85 12.9 9.03
10/23/2021 12:00:00 AM 13.71 56.678 0.413 7.85 11.9 9
10/23/2021 12:15:00 AM 13.67 56.606 0.414 7.85 11.52 8.96
10/23/2021 12:30:00 AM 13.63 56.534 0.414 7.84 13.13 8.94
10/23/2021 12:45:00 AM 13.6 56.48 0.414 7.84 11.8 8.9
10/23/2021 1:00:00 AM 13.57 56.426 0.414 7.83 12.02 8.88
10/23/2021 1:15:00 AM 13.55 56.39 0.414 7.83 11.53 8.86
10/23/2021 1:30:00 AM 13.52 56.336 0.414 7.83 12.3 8.83
10/23/2021 1:45:00 AM 13.5 56.3 0.414 7.82 11.14 8.8
10/23/2021 2:00:00 AM 13.49 56.282 0.415 7.82 11.31 8.79
10/23/2021 2:15:00 AM 13.47 56.246 0.415 7.82 11.32 8.76
10/23/2021 2:30:00 AM 13.46 56.228 0.415 7.81 10.7 8.75
10/23/2021 2:45:00 AM 13.45 56.21 0.415 7.81 11.42 8.75
10/23/2021 3:00:00 AM 13.45 56.21 0.415 7.81 11.19 8.73
10/23/2021 3:15:00 AM 13.44 56.192 0.415 7.81 11.04 8.72
10/23/2021 3:30:00 AM 13.43 56.174 0.415 7.81 10.78 8.7
10/23/2021 3:45:00 AM 13.42 56.156 0.415 7.81 11.23 8.71
10/23/2021 4:00:00 AM 13.42 56.156 0.415 7.81 10.97 8.69
10/23/2021 4:15:00 AM 13.41 56.138 0.415 7.8 10.92 8.69
10/23/2021 4:30:00 AM 13.4 56.12 0.415 7.8 11.43 8.69
10/23/2021 4:45:00 AM 13.39 56.102 0.415 7.8 11.1 8.69
10/23/2021 5:00:00 AM 13.37 56.066 0.415 7.8 11.33 8.68
10/23/2021 5:15:00 AM 13.36 56.048 0.415 7.8 11.68 8.67
10/23/2021 5:30:00 AM 13.35 56.03 0.415 7.8 11.36 8.67
10/23/2021 5:45:00 AM 13.34 56.012 0.415 7.8 12.2 8.67
10/23/2021 6:00:00 AM 13.33 55.994 0.415 7.8 11.53 8.67
10/23/2021 6:15:00 AM 13.31 55.958 0.415 7.8 10.96 8.66
10/23/2021 6:30:00 AM 13.3 55.94 0.414 7.8 11.03 8.66
10/23/2021 6:45:00 AM 13.29 55.922 0.415 7.8 11.14 8.66
10/23/2021 7:00:00 AM 13.27 55.886 0.415 7.79 10.9 8.66
10/23/2021 7:15:00 AM 13.26 55.868 0.414 7.79 11.11 8.67
10/23/2021 7:30:00 AM 13.24 55.832 0.414 7.79 11.09 8.66
10/23/2021 7:45:00 AM 13.23 55.814 0.414 7.79 11.4 8.66
10/23/2021 8:00:00 AM 13.22 55.796 0.414 7.79 11.42 8.66
10/23/2021 8:15:00 AM 13.21 55.778 0.414 7.79 11.15 8.69
10/23/2021 8:30:00 AM 13.21 55.778 0.414 7.79 11.04 8.72
10/23/2021 8:45:00 AM 13.21 55.778 0.414 7.8 10.76 8.73
10/23/2021 9:00:00 AM 13.2 55.76 0.414 7.8 10.88 8.78
10/23/2021 9:15:00 AM 13.2 55.76 0.414 7.8 10.87 8.81
10/23/2021 9:30:00 AM 13.2 55.76 0.414 7.81 11.25 8.88
10/23/2021 9:45:00 AM 13.21 55.778 0.414 7.82 10.89 8.97
10/23/2021 10:00:00 AM 13.23 55.814 0.414 7.83 10.96 9.14
10/23/2021 10:15:00 AM 13.25 55.85 0.414 7.84 10.9 9.25
10/23/2021 10:30:00 AM 13.27 55.886 0.414 7.85 10.87 9.42
10/23/2021 10:45:00 AM 13.29 55.922 0.414 7.86 10.94 9.53
10/23/2021 11:00:00 AM 13.31 55.958 0.414 7.88 10.82 9.7
10/23/2021 11:15:00 AM 13.33 55.994 0.413 7.89 10.99 9.8
10/23/2021 11:30:00 AM 13.35 56.03 0.413 7.9 10.83 9.92
10/23/2021 11:45:00 AM 13.36 56.048 0.413 7.91 10.96 9.99
10/23/2021 12:00:00 PM 13.38 56.084 0.413 7.92 10.85 10.09
10/23/2021 12:15:00 PM 13.4 56.12 0.413 7.93 11.21 10.2
10/23/2021 12:30:00 PM 13.41 56.138 0.413 7.94 10.97 10.27
10/23/2021 12:45:00 PM 13.42 56.156 0.413 7.95 11.14 10.32
10/23/2021 1:00:00 PM 13.46 56.228 0.413 7.96 11.14 10.49
10/23/2021 1:15:00 PM 13.48 56.264 0.412 7.98 11.04 10.6
10/23/2021 1:30:00 PM 13.49 56.282 0.412 7.98 11.31 10.57
10/23/2021 1:45:00 PM 13.51 56.318 0.412 7.99 11.16 10.66
10/23/2021 2:00:00 PM 13.54 56.372 0.412 8 11.08 10.79
10/23/2021 2:15:00 PM 13.58 56.444 0.412 8.02 11.19 10.89
10/23/2021 2:30:00 PM 13.6 56.48 0.411 8.02 11.27 10.95
10/23/2021 2:45:00 PM 13.62 56.516 0.411 8.03 11.1 11.02
10/23/2021 3:00:00 PM 13.62 56.516 0.411 8.03 11.01 10.93
10/23/2021 3:15:00 PM 13.64 56.552 0.411 8.03 11.06 10.96
10/23/2021 3:30:00 PM 13.65 56.57 0.411 8.04 11.08 11
10/23/2021 3:45:00 PM 13.65 56.57 0.411 8.03 11.45 10.95
10/23/2021 4:00:00 PM 13.64 56.552 0.411 8.02 12.07 10.84
10/23/2021 4:15:00 PM 13.63 56.534 0.411 8.02 11.76 10.83
10/23/2021 4:30:00 PM 13.64 56.552 0.41 8.03 12.19 10.86
10/23/2021 4:45:00 PM 13.62 56.516 0.411 8.02 11.34 10.74
10/23/2021 5:00:00 PM 13.61 56.498 0.411 8.01 11.38 10.69
10/23/2021 5:15:00 PM 13.59 56.462 0.411 8 11.53 10.6
10/23/2021 5:30:00 PM 13.58 56.444 0.411 7.99 11.87 10.51
10/23/2021 5:45:00 PM 13.56 56.408 0.411 7.98 11.77 10.42
10/23/2021 6:00:00 PM 13.54 56.372 0.411 7.97 11.5 10.3
10/23/2021 6:15:00 PM 13.51 56.318 0.411 7.96 11.52 10.19
10/23/2021 6:30:00 PM 13.5 56.3 0.411 7.95 11.71 10.07
10/23/2021 6:45:00 PM 13.48 56.264 0.412 7.94 11.81 9.97
10/23/2021 7:00:00 PM 13.45 56.21 0.411 7.93 11.54 9.88
10/23/2021 7:15:00 PM 13.43 56.174 0.411 7.92 11.49 9.8
10/23/2021 7:30:00 PM 13.41 56.138 0.411 7.91 12 9.74
10/23/2021 7:45:00 PM 13.38 56.084 0.411 7.91 12.62 9.68
10/23/2021 8:00:00 PM 13.36 56.048 0.412 7.9 11 9.63
10/23/2021 8:15:00 PM 13.33 55.994 0.412 7.9 11.38 9.61
10/23/2021 8:30:00 PM 13.31 55.958 0.412 7.89 10.26 9.58
10/23/2021 8:45:00 PM 13.29 55.922 0.412 7.89 10.63 9.56
10/23/2021 9:00:00 PM 13.27 55.886 0.412 7.89 9.95 9.54
10/23/2021 9:15:00 PM 13.26 55.868 0.412 7.89 10.31 9.51
10/23/2021 9:30:00 PM 13.26 55.868 0.412 7.89 10.65 9.49
10/23/2021 9:45:00 PM 13.24 55.832 0.412 7.88 10.36 9.46
10/23/2021 10:00:00 PM 13.22 55.796 0.412 7.88 10.26 9.43
10/23/2021 10:15:00 PM 13.19 55.742 0.412 7.88 10.03 9.39
10/23/2021 10:30:00 PM 13.15 55.67 0.411 7.87 10.37 9.36
10/23/2021 10:45:00 PM 13.12 55.616 0.412 7.87 18.8 9.32
10/23/2021 11:00:00 PM 13.07 55.526 0.412 7.87 19.15 9.29
10/23/2021 11:15:00 PM 13.02 55.436 0.412 7.87 17.21 9.26
10/23/2021 11:30:00 PM 12.96 55.328 0.412 7.86 18.4 9.23
10/23/2021 11:45:00 PM 12.91 55.238 0.412 7.86 10.83 9.2
10/24/2021 12:00:00 AM 12.85 55.13 0.412 7.85 10.52 9.19
10/24/2021 12:15:00 AM 12.79 55.022 0.412 7.85 10.21 9.16
10/24/2021 12:30:00 AM 12.73 54.914 0.412 7.85 10.02 9.14
10/24/2021 12:45:00 AM 12.67 54.806 0.412 7.84 9.68 9.13
10/24/2021 1:00:00 AM 12.62 54.716 0.412 7.84 10.12 9.11
10/24/2021 1:15:00 AM 12.57 54.626 0.412 7.84 10.02 9.1
10/24/2021 1:30:00 AM 12.53 54.554 0.412 7.84 10.03 9.09
10/24/2021 1:45:00 AM 12.48 54.464 0.412 7.83 10.14 9.08
10/24/2021 2:00:00 AM 12.43 54.374 0.412 7.83 9.97 9.08
10/24/2021 2:15:00 AM 12.38 54.284 0.412 7.83 10.24 9.07
10/24/2021 2:30:00 AM 12.34 54.212 0.412 7.83 10.31 9.07
10/24/2021 2:45:00 AM 12.3 54.14 0.412 7.83 10.1 9.05
10/24/2021 3:00:00 AM 12.25 54.05 0.413 7.83 10.69 9.06
10/24/2021 3:15:00 AM 12.22 53.996 0.413 7.82 10.65 9.05
10/24/2021 3:30:00 AM 12.18 53.924 0.412 7.82 11.43 9.05
10/24/2021 3:45:00 AM 12.15 53.87 0.413 7.82 14.17 9.05
10/24/2021 4:00:00 AM 12.12 53.816 0.412 7.82 12.94 9.07
10/24/2021 4:15:00 AM 12.1 53.78 0.413 7.82 13.63 9.06
10/24/2021 4:30:00 AM 12.08 53.744 0.412 7.82 12.45 9.07
10/24/2021 4:45:00 AM 12.06 53.708 0.412 7.82 11.61 9.06
10/24/2021 5:00:00 AM 12.05 53.69 0.412 7.82 12.86 9.07
10/24/2021 5:15:00 AM 12.04 53.672 0.412 7.82 12.17 9.07
10/24/2021 5:30:00 AM 12.03 53.654 0.412 7.82 12.58 9.06
10/24/2021 5:45:00 AM 12.01 53.618 0.412 7.82 11.64 9.07
10/24/2021 6:00:00 AM 12 53.6 0.412 7.82 11.64 9.07
10/24/2021 6:15:00 AM 11.98 53.564 0.412 7.82 11.51 9.07
10/24/2021 6:30:00 AM 11.96 53.528 0.412 7.81 11.39 9.08
10/24/2021 6:45:00 AM 11.93 53.474 0.412 7.81 11.54 9.09
10/24/2021 7:00:00 AM 11.91 53.438 0.412 7.81 11.43 9.09
10/24/2021 7:15:00 AM 11.87 53.366 0.412 7.82 11.3 9.1
10/24/2021 7:30:00 AM 11.84 53.312 0.412 7.81 11.91 9.11
10/24/2021 7:45:00 AM 11.81 53.258 0.412 7.81 10.08 9.13
10/24/2021 8:00:00 AM 11.79 53.222 0.411 7.81 10.49 9.15
10/24/2021 8:15:00 AM 11.77 53.186 0.411 7.82 10.94 9.19
10/24/2021 8:30:00 AM 11.76 53.168 0.412 7.82 12.25 9.24
10/24/2021 8:45:00 AM 11.76 53.168 0.412 7.83 21 9.35
10/24/2021 9:00:00 AM 11.77 53.186 0.412 7.83 12.09 9.42
10/24/2021 9:15:00 AM 11.79 53.222 0.412 7.84 12.35 9.57
10/24/2021 9:30:00 AM 11.8 53.24 0.411 7.85 12.52 9.63
10/24/2021 9:45:00 AM 11.82 53.276 0.411 7.86 12.18 9.71
10/24/2021 10:00:00 AM 11.86 53.348 0.411 7.87 12.93 9.89
10/24/2021 10:15:00 AM 11.88 53.384 0.411 7.88 12.1 9.94
10/24/2021 10:30:00 AM 11.89 53.402 0.411 7.88 12.18 9.98
10/24/2021 10:45:00 AM 11.91 53.438 0.41 7.88 12.22 10.03
10/24/2021 11:00:00 AM 11.93 53.474 0.41 7.89 13.9 10.12
10/24/2021 11:15:00 AM 11.94 53.492 0.41 7.89 12.25 10.13
10/24/2021 11:30:00 AM 11.95 53.51 0.411 7.9 12.06 10.18
10/24/2021 11:45:00 AM 11.99 53.582 0.41 7.92 12.27 10.39
10/24/2021 12:00:00 PM 12 53.6 0.41 7.92 12.39 10.44
10/24/2021 12:15:00 PM 12.02 53.636 0.41 7.93 12.35 10.49
10/24/2021 12:30:00 PM 12.05 53.69 0.41 7.94 12.76 10.64
10/24/2021 12:45:00 PM 12.08 53.744 0.41 7.96 12.94 10.79
10/24/2021 1:00:00 PM 12.09 53.762 0.41 7.97 14.81 10.83
10/24/2021 1:15:00 PM 12.1 53.78 0.41 7.97 17.8 10.84
10/24/2021 1:30:00 PM 12.14 53.852 0.41 7.99 17.46 11.03
10/24/2021 1:45:00 PM 12.2 53.96 0.41 8.01 17.32 11.21
10/24/2021 2:00:00 PM 12.25 54.05 0.41 8.02 17.34 11.34
10/24/2021 2:15:00 PM 12.3 54.14 0.409 8.04 17.33 11.47
10/24/2021 2:30:00 PM 12.37 54.266 0.409 8.06 17.25 11.58
10/24/2021 2:45:00 PM 12.44 54.392 0.409 8.08 17.36 11.75
10/24/2021 3:00:00 PM 12.47 54.446 0.409 8.09 17.37 11.76
10/24/2021 3:15:00 PM 12.52 54.536 0.409 8.09 17.25 11.77
10/24/2021 3:30:00 PM 12.57 54.626 0.409 8.1 16.84 11.8
10/24/2021 3:45:00 PM 12.61 54.698 0.409 8.1 16.89 11.77
10/24/2021 4:00:00 PM 12.63 54.734 0.409 8.09 16.67 11.7
10/24/2021 4:15:00 PM 12.65 54.77 0.409 8.1 16.62 11.71
10/24/2021 4:30:00 PM 12.66 54.788 0.409 8.09 15.89 11.66
10/24/2021 4:45:00 PM 12.66 54.788 0.41 8.09 15.7 11.59
10/24/2021 5:00:00 PM 12.66 54.788 0.409 8.07 15.76 11.48
10/24/2021 5:15:00 PM 12.65 54.77 0.409 8.06 15.65 11.38
10/24/2021 5:30:00 PM 12.64 54.752 0.409 8.05 15.71 11.23
10/24/2021 5:45:00 PM 12.61 54.698 0.41 8.03 15.69 11.08
10/24/2021 6:00:00 PM 12.58 54.644 0.41 8.01 15.43 10.91
10/24/2021 6:15:00 PM 12.56 54.608 0.41 7.99 15.82 10.74
10/24/2021 6:30:00 PM 12.54 54.572 0.41 7.97 18.49 10.59
10/24/2021 6:45:00 PM 12.53 54.554 0.41 7.96 8.26 10.45
10/24/2021 7:00:00 PM 12.53 54.554 0.41 7.95 14.55 10.34
10/24/2021 7:15:00 PM 12.53 54.554 0.41 7.94 14.42 10.25
10/24/2021 7:30:00 PM 12.53 54.554 0.41 7.93 14.77 10.16
10/24/2021 7:45:00 PM 12.54 54.572 0.41 7.92 13.58 10.11
10/24/2021 8:00:00 PM 12.55 54.59 0.41 7.92 13.96 10.08
10/24/2021 8:15:00 PM 12.56 54.608 0.41 7.91 13.56 10.05
10/24/2021 8:30:00 PM 12.57 54.626 0.41 7.91 13.71 10.02
10/24/2021 8:45:00 PM 12.58 54.644 0.41 7.92 14.5 10
10/24/2021 9:00:00 PM 12.6 54.68 0.41 7.91 14.5 9.97
10/24/2021 9:15:00 PM 12.61 54.698 0.409 7.91 14.29 9.95
10/24/2021 9:30:00 PM 12.63 54.734 0.41 7.91 14.08 9.91
10/24/2021 9:45:00 PM 12.64 54.752 0.41 7.91 12.6 9.88
10/24/2021 10:00:00 PM 12.65 54.77 0.409 7.91 12.82 9.83
10/24/2021 10:15:00 PM 12.66 54.788 0.41 7.9 12.58 9.78
10/24/2021 10:30:00 PM 12.67 54.806 0.41 7.9 12.56 9.73
10/24/2021 10:45:00 PM 12.67 54.806 0.41 7.89 12.55 9.68
10/24/2021 11:00:00 PM 12.68 54.824 0.41 7.89 12.34 9.63
10/24/2021 11:15:00 PM 12.68 54.824 0.41 7.89 12.44 9.59
10/24/2021 11:30:00 PM 12.68 54.824 0.41 7.88 12.53 9.53
10/24/2021 11:45:00 PM 12.68 54.824 0.41 7.87 12.39 9.48
10/25/2021 12:00:00 AM 12.68 54.824 0.41 7.87 12.53 9.44
10/25/2021 12:15:00 AM 12.68 54.824 0.411 7.86 12.82 9.39
10/25/2021 12:30:00 AM 12.68 54.824 0.411 7.86 12.85 9.36
10/25/2021 12:45:00 AM 12.67 54.806 0.411 7.86 12.72 9.32
10/25/2021 1:00:00 AM 12.67 54.806 0.411 7.85 12.56 9.29
10/25/2021 1:15:00 AM 12.66 54.788 0.411 7.85 12.8 9.25
10/25/2021 1:30:00 AM 12.66 54.788 0.411 7.84 12.81 9.22
10/25/2021 1:45:00 AM 12.66 54.788 0.411 7.84 13.11 9.19
10/25/2021 2:00:00 AM 12.65 54.77 0.412 7.84 13.09 9.16
10/25/2021 2:15:00 AM 12.65 54.77 0.412 7.83 12.76 9.14
10/25/2021 2:30:00 AM 12.66 54.788 0.411 7.83 13.35 9.12
10/25/2021 2:45:00 AM 12.66 54.788 0.412 7.82 12.91 9.09
10/25/2021 3:00:00 AM 12.66 54.788 0.412 7.82 12.9 9.08
10/25/2021 3:15:00 AM 12.66 54.788 0.411 7.82 13.46 9.07
10/25/2021 3:30:00 AM 12.65 54.77 0.412 7.82 13.86 9.04
10/25/2021 3:45:00 AM 12.65 54.77 0.412 7.82 13.24 9.03
10/25/2021 4:00:00 AM 12.65 54.77 0.412 7.81 12.76 9.02
10/25/2021 4:15:00 AM 12.65 54.77 0.412 7.82 12.85 9.01
10/25/2021 4:30:00 AM 12.65 54.77 0.412 7.81 12.81 8.99
10/25/2021 4:45:00 AM 12.64 54.752 0.412 7.81 13.14 8.98
10/25/2021 5:00:00 AM 12.64 54.752 0.412 7.81 13.73 8.98
10/25/2021 5:15:00 AM 12.63 54.734 0.412 7.81 14.54 8.96
10/25/2021 5:30:00 AM 12.63 54.734 0.412 7.81 14.3 8.95
10/25/2021 5:45:00 AM 12.63 54.734 0.412 7.81 13.96 8.94
10/25/2021 6:00:00 AM 12.63 54.734 0.412 7.81 15.58 8.93
10/25/2021 6:15:00 AM 12.62 54.716 0.412 7.8 15.69 8.92
10/25/2021 6:30:00 AM 12.61 54.698 0.412 7.8 15.7 8.91
10/25/2021 6:45:00 AM 12.6 54.68 0.412 7.8 15.34 8.91
10/25/2021 7:00:00 AM 12.58 54.644 0.412 7.8 15.44 8.89
10/25/2021 7:15:00 AM 12.57 54.626 0.411 7.8 15.3 8.89
10/25/2021 7:30:00 AM 12.55 54.59 0.412 7.8 15.43 8.89
10/25/2021 7:45:00 AM 12.54 54.572 0.411 7.8 15.17 8.9
10/25/2021 8:00:00 AM 12.53 54.554 0.412 7.8 15.37 8.92
10/25/2021 8:15:00 AM 12.53 54.554 0.412 7.8 15.3 8.95
10/25/2021 8:30:00 AM 12.53 54.554 0.411 7.81 15.18 8.99
10/25/2021 8:45:00 AM 12.55 54.59 0.412 7.81 15.16 9.08
10/25/2021 9:00:00 AM 12.58 54.644 0.411 7.82 14.97 9.2
10/25/2021 9:15:00 AM 12.61 54.698 0.411 7.83 15.2 9.34
10/25/2021 9:30:00 AM 12.66 54.788 0.411 7.84 15.07 9.49
10/25/2021 9:45:00 AM 12.71 54.878 0.411 7.85 15.05 9.62
10/25/2021 10:00:00 AM 12.77 54.986 0.411 7.86 13.44 9.75
10/25/2021 10:15:00 AM 12.82 55.076 0.411 7.87 13.46 9.86
10/25/2021 10:30:00 AM 12.88 55.184 0.411 7.89 12.73 10
10/25/2021 10:45:00 AM 12.94 55.292 0.41 7.9 13.05 10.11
10/25/2021 11:00:00 AM 13.03 55.454 0.41 7.92 13.52 10.24
10/25/2021 11:15:00 AM 13.11 55.598 0.41 7.93 7.2 10.33
10/25/2021 11:30:00 AM 13.19 55.742 0.41 7.94 12.9 10.44
10/25/2021 11:45:00 AM 13.28 55.904 0.41 7.95 13.48 10.51
10/25/2021 12:00:00 PM 13.37 56.066 0.41 7.96 12.09 10.58
10/25/2021 12:15:00 PM 13.46 56.228 0.41 7.97 12.06 10.63
10/25/2021 12:30:00 PM 13.56 56.408 0.41 7.98 11.83 10.7
10/25/2021 12:45:00 PM 13.66 56.588 0.413 7.98 90.13 10.77
10/25/2021 1:00:00 PM 13.79 56.822 0.41 8 11.54 10.86
10/25/2021 1:15:00 PM 13.91 57.038 0.409 8.01 11.16 10.94
10/25/2021 1:30:00 PM 14.02 57.236 0.409 8.02 11.27 11
10/25/2021 1:45:00 PM 14.11 57.398 0.409 8.03 10.99 11.03
10/25/2021 2:00:00 PM 14.19 57.542 0.41 8.03 11.2 11.05
10/25/2021 2:15:00 PM 14.26 57.668 0.409 8.04 10.88 11.11
10/25/2021 2:30:00 PM 14.3 57.74 0.409 8.05 11.07 11.15
10/25/2021 2:45:00 PM 14.34 57.812 0.409 8.05 11.01 11.13
10/25/2021 3:00:00 PM 14.34 57.812 0.409 8.05 11.26 11.09
10/25/2021 3:15:00 PM 14.33 57.794 0.409 8.05 11.3 11.09
10/25/2021 3:30:00 PM 14.32 57.776 0.409 8.06 11.11 11.13
10/25/2021 3:45:00 PM 14.31 57.758 0.409 8.06 10.92 11.1
10/25/2021 4:00:00 PM 14.31 57.758 0.409 8.06 11.03 11.12
10/25/2021 4:15:00 PM 14.29 57.722 0.409 8.06 11.1 11.08
10/25/2021 4:30:00 PM 14.28 57.704 0.409 8.06 11.07 11.04
10/25/2021 4:45:00 PM 14.29 57.722 0.409 8.05 11.2 10.98
10/25/2021 5:00:00 PM 14.3 57.74 0.408 8.05 11.15 10.93
10/25/2021 5:15:00 PM 14.3 57.74 0.408 8.04 11.22 10.77
10/25/2021 5:30:00 PM 14.31 57.758 0.409 8.02 11.07 10.63
10/25/2021 5:45:00 PM 14.32 57.776 0.408 8.01 11.24 10.47
10/25/2021 6:00:00 PM 14.32 57.776 0.408 7.99 10.99 10.3
10/25/2021 6:15:00 PM 14.33 57.794 0.409 7.97 8.38 10.13
10/25/2021 6:30:00 PM 14.34 57.812 0.409 7.95 23.77 9.97
10/25/2021 6:45:00 PM 14.35 57.83 0.409 7.94 7.83 9.82
10/25/2021 7:00:00 PM 14.37 57.866 0.409 7.92 37.13 9.69
10/25/2021 7:15:00 PM 14.38 57.884 0.409 7.91 41.49 9.57
10/25/2021 7:30:00 PM 14.4 57.92 0.41 7.9 33.06 9.49
10/25/2021 7:45:00 PM 14.42 57.956 0.409 7.9 30.95 9.43
10/25/2021 8:00:00 PM 14.48 58.064 0.406 7.9 7.72 9.38
10/25/2021 8:15:00 PM 14.53 58.154 0.402 7.9 33.01 9.36
10/25/2021 8:30:00 PM 14.55 58.19 0.401 7.9 33.66 9.29
10/25/2021 8:45:00 PM 14.58 58.244 0.399 7.9 31.56 9.25
10/25/2021 9:00:00 PM 14.61 58.298 0.396 7.9 29.31 9.21
10/25/2021 9:15:00 PM 14.62 58.316 0.395 7.89 28.08 9.15
10/25/2021 9:30:00 PM 14.62 58.316 0.394 7.89 28.25 9.11
10/25/2021 9:45:00 PM 14.63 58.334 0.392 7.88 30.1 9.06
10/25/2021 10:00:00 PM 14.64 58.352 0.39 7.88 28.41 9.02
10/25/2021 10:15:00 PM 14.64 58.352 0.389 7.88 28.77 8.98
10/25/2021 10:30:00 PM 14.63 58.334 0.387 7.88 28.87 8.94
10/25/2021 10:45:00 PM 14.62 58.316 0.387 7.87 28.44 8.92
10/25/2021 11:00:00 PM 14.61 58.298 0.387 7.87 28.99 8.85
10/25/2021 11:15:00 PM 14.61 58.298 0.386 7.86 28.36 8.8
10/25/2021 11:30:00 PM 14.59 58.262 0.386 7.86 28.77 8.75
10/25/2021 11:45:00 PM 14.58 58.244 0.386 7.84 28.29 8.68
10/26/2021 12:00:00 AM 14.57 58.226 0.386 7.83 29.4 8.63
10/26/2021 12:15:00 AM 14.57 58.226 0.385 7.82 29.64 8.56
10/26/2021 12:30:00 AM 14.57 58.226 0.384 7.82 30.49 8.53
10/26/2021 12:45:00 AM 14.58 58.244 0.381 7.81 33.59 8.52
10/26/2021 1:00:00 AM 14.59 58.262 0.379 7.81 32.11 8.52
10/26/2021 1:15:00 AM 14.62 58.316 0.377 7.81 39.1 8.51
10/26/2021 1:30:00 AM 14.67 58.406 0.369 7.82 44.75 8.54
10/26/2021 1:45:00 AM 14.73 58.514 0.364 7.83 40.47 8.56
10/26/2021 2:00:00 AM 14.79 58.622 0.36 7.82 49.81 8.57
10/26/2021 2:15:00 AM 14.83 58.694 0.358 7.82 50.62 8.54
10/26/2021 2:30:00 AM 14.86 58.748 0.357 7.82 63.03 8.55
10/26/2021 2:45:00 AM 14.87 58.766 0.355 7.81 76.25 8.55
10/26/2021 3:00:00 AM 14.87 58.766 0.352 7.82 86.32 8.59
10/26/2021 3:15:00 AM 14.86 58.748 0.349 7.83 63.7 8.63
10/26/2021 3:30:00 AM 14.85 58.73 0.341 7.81 371.47 8.65
10/26/2021 3:45:00 AM 14.84 58.712 0.141 7.81 811.28 8.48
10/26/2021 4:00:00 AM 14.83 58.694 0.123 7.8 584.88 8.56
10/26/2021 4:15:00 AM 14.85 58.73 0.118 7.78 473.27 8.31
10/26/2021 4:30:00 AM 14.89 58.802 0.117 7.78 470.14 8.37
10/26/2021 4:45:00 AM 14.92 58.856 0.114 7.75 527.12 8.41
10/26/2021 5:00:00 AM 14.94 58.892 0.11 7.75 546.77 8.36
10/26/2021 5:15:00 AM 14.95 58.91 0.108 7.75 676.85 8.38
10/26/2021 5:30:00 AM 14.97 58.946 0.106 7.75 636.1 8.3
10/26/2021 5:45:00 AM 14.98 58.964 0.105 7.77 589.2 8.18
10/26/2021 6:00:00 AM 14.99 58.982 0.105 7.77 294.97 7.9
10/26/2021 6:15:00 AM 15.02 59.036 0.104 7.77 284.05 8.01
10/26/2021 6:30:00 AM 15.04 59.072 0.104 7.77 226.32 7.97
10/26/2021 6:45:00 AM 15.06 59.108 0.103 7.76 186.84 7.95
10/26/2021 7:00:00 AM 15.09 59.162 0.102 7.76 185.7 8.02
10/26/2021 7:15:00 AM 15.1 59.18 0.1 7.75 201.42 7.9
10/26/2021 7:30:00 AM 15.11 59.198 0.099 7.75 226.09 7.9
10/26/2021 7:45:00 AM 15.11 59.198 0.1 7.75 243.58 7.91
10/26/2021 8:00:00 AM 15.1 59.18 0.1 7.74 294.91 7.88
10/26/2021 8:15:00 AM 15.09 59.162 0.099 7.74 321.76 7.96
10/26/2021 8:30:00 AM 15.08 59.144 0.099 7.74 368.85 7.96
10/26/2021 8:45:00 AM 15.08 59.144 0.099 7.73 376.18 7.92
10/26/2021 9:00:00 AM 15.07 59.126 0.099 7.73 395.19 7.97
10/26/2021 9:15:00 AM 15.07 59.126 0.099 7.73 349.97 7.84
10/26/2021 9:30:00 AM 15.07 59.126 0.099 7.72 353.52 8.19
10/26/2021 9:45:00 AM 15.08 59.144 0.098 7.72 327.46 8.25
10/26/2021 10:00:00 AM 15.09 59.162 0.099 7.72 376.44 8.26
10/26/2021 10:15:00 AM 15.09 59.162 0.098 7.72 368.37 8.28
10/26/2021 10:30:00 AM 15.09 59.162 0.098 7.72 412 8.29
10/26/2021 10:45:00 AM 15.1 59.18 0.099 7.71 391.28 8.31
10/26/2021 11:00:00 AM 15.12 59.216 0.099 7.71 447.56 8.3
10/26/2021 11:15:00 AM 15.12 59.216 0.099 7.71 451.8 8.23
10/26/2021 11:30:00 AM 15.14 59.252 0.099 7.7 473.62 8.31
10/26/2021 11:45:00 AM 15.17 59.306 0.099 7.71 542.61 8.36
10/26/2021 12:00:00 PM 15.21 59.378 0.099 7.71 571.79 8.37
10/26/2021 12:15:00 PM 15.23 59.414 0.099 7.71 589.25 8.36
10/26/2021 12:30:00 PM 15.23 59.414 0.1 7.71 574.48 8.28
10/26/2021 12:45:00 PM 15.22 59.396 0.1 7.71 595.75 8.27
10/26/2021 1:00:00 PM 15.2 59.36 0.099 7.71 623.88 8.01
10/26/2021 1:15:00 PM 15.17 59.306 0.099 7.7 631.8 8.03
10/26/2021 1:30:00 PM 15.15 59.27 0.1 7.71 655.01 7.87
10/26/2021 1:45:00 PM 15.12 59.216 0.101 7.7 595.13 7.86
10/26/2021 2:00:00 PM 15.08 59.144 0.101 7.7 570.47 7.75
10/26/2021 2:15:00 PM 15.04 59.072 0.102 7.7 574.44 7.74
10/26/2021 2:30:00 PM 15 59 0.102 7.7 563.3 7.61
10/26/2021 2:45:00 PM 14.97 58.946 0.102 7.7 556.71 7.63
10/26/2021 3:00:00 PM 14.94 58.892 0.102 7.69 564.86 7.48
10/26/2021 3:15:00 PM 14.91 58.838 0.102 7.7 538.12 6.86
10/26/2021 3:30:00 PM 14.88 58.784 0.103 7.7 510.37 6.66
10/26/2021 3:45:00 PM 14.84 58.712 0.103 7.7 503.29 7.65
10/26/2021 4:00:00 PM 14.8 58.64 0.103 7.7 515.76 7.38
10/26/2021 4:15:00 PM 14.76 58.568 0.104 7.7 517.41 7.24
10/26/2021 4:30:00 PM 14.72 58.496 0.104 7.7 537.55 7.43
10/26/2021 4:45:00 PM 14.67 58.406 0.104 7.7 525.91 7.11
10/26/2021 5:00:00 PM 14.63 58.334 0.103 7.7 491.3 6.98
10/26/2021 5:15:00 PM 14.59 58.262 0.103 7.7 479.25 7.23
10/26/2021 5:30:00 PM 14.54 58.172 0.104 7.7 425.95 6.4
10/26/2021 5:45:00 PM 14.49 58.082 0.104 7.7 414.02 6.77
10/26/2021 6:00:00 PM 14.45 58.01 0.103 7.7 413.81 7.23
10/26/2021 6:15:00 PM 14.4 57.92 0.102 7.7 418.65 7.8
10/26/2021 6:30:00 PM 14.35 57.83 0.103 7.7 430.12 7.39
10/26/2021 6:45:00 PM 14.3 57.74 0.103 7.69 419.18 7.9
10/26/2021 7:00:00 PM 14.25 57.65 0.103 7.7 418.48 7.3
10/26/2021 7:15:00 PM 14.19 57.542 0.103 7.69 422.07 7.87
10/26/2021 7:30:00 PM 14.14 57.452 0.103 7.69 441.49 8.04
10/26/2021 7:45:00 PM 14.08 57.344 0.103 7.69 434.39 7.98
10/26/2021 8:00:00 PM 14.03 57.254 0.104 7.69 454.06 8.03
10/26/2021 8:15:00 PM 13.98 57.164 0.104 7.7 450.45 8.05
10/26/2021 8:30:00 PM 13.93 57.074 0.104 7.69 442.68 7.99
10/26/2021 8:45:00 PM 13.88 56.984 0.104 7.69 444.7 8.11
10/26/2021 9:00:00 PM 13.84 56.912 0.104 7.7 439.51 6.85
10/26/2021 9:15:00 PM 13.79 56.822 0.105 7.69 447.44 7.93
10/26/2021 9:30:00 PM 13.75 56.75 0.105 7.69 438.34 7.89
10/26/2021 9:45:00 PM 13.71 56.678 0.105 7.69 428.68 7.95
10/26/2021 10:00:00 PM 13.67 56.606 0.105 7.69 416.16 7.91
10/26/2021 10:15:00 PM 13.63 56.534 0.105 7.69 417.67 7.74
10/26/2021 10:30:00 PM 13.59 56.462 0.106 7.7 432.76 7.42
10/26/2021 10:45:00 PM 13.55 56.39 0.106 7.7 443.99 7.55
10/26/2021 11:00:00 PM 13.51 56.318 0.107 7.7 461.08 7.46
10/26/2021 11:15:00 PM 13.48 56.264 0.107 7.7 447.63 7.39
10/26/2021 11:30:00 PM 13.44 56.192 0.107 7.7 460.26 7.44
10/26/2021 11:45:00 PM 13.41 56.138 0.107 7.69 464.53 7.45
10/27/2021 12:00:00 AM 13.37 56.066 0.107 7.69 460.32 7.87
10/27/2021 12:15:00 AM 13.34 56.012 0.107 7.69 472.28 7.87
10/27/2021 12:30:00 AM 13.32 55.976 0.107 7.7 490.31 7.74
10/27/2021 12:45:00 AM 13.29 55.922 0.108 7.7 495.19 7.58
10/27/2021 1:00:00 AM 13.25 55.85 0.107 7.7 520.04 7.86
10/27/2021 1:15:00 AM 13.23 55.814 0.107 7.7 519.04 7.39
10/27/2021 1:30:00 AM 13.21 55.778 0.108 7.7 523.89 7.66
10/27/2021 1:45:00 AM 13.18 55.724 0.108 7.71 500.18 7.7
10/27/2021 2:00:00 AM 13.16 55.688 0.108 7.71 475.16 7.88
10/27/2021 2:15:00 AM 13.14 55.652 0.108 7.71 548.2 7.76
10/27/2021 2:30:00 AM 13.11 55.598 0.107 7.71 555.09 8.31
10/27/2021 2:45:00 AM 13.09 55.562 0.108 7.71 581.38 8.32
10/27/2021 3:00:00 AM 13.07 55.526 0.108 7.71 577.32 8.36
10/27/2021 3:15:00 AM 13.06 55.508 0.108 7.71 577.81 8.35
10/27/2021 3:30:00 AM 13.04 55.472 0.108 7.72 593.78 8.35
10/27/2021 3:45:00 AM 13.02 55.436 0.108 7.72 629.05 8.38
10/27/2021 4:00:00 AM 13.01 55.418 0.108 7.72 578.84 8.39
10/27/2021 4:15:00 AM 12.99 55.382 0.108 7.72 533.57 8.44
10/27/2021 4:30:00 AM 12.97 55.346 0.109 7.72 547.1 8.42
10/27/2021 4:45:00 AM 12.95 55.31 0.109 7.72 516.9 8.02
10/27/2021 5:00:00 AM 12.93 55.274 0.11 7.72 471.08 8.48
10/27/2021 5:15:00 AM 12.91 55.238 0.111 7.73 406.58 8.44
10/27/2021 5:30:00 AM 12.9 55.22 0.112 7.73 403.17 8.4
10/27/2021 5:45:00 AM 12.89 55.202 0.127 7.73 392.89 8.34
10/27/2021 6:00:00 AM 12.87 55.166 0.136 7.73 393.74 8.55
10/27/2021 6:15:00 AM 12.86 55.148 0.134 7.73 393.6 8.36
10/27/2021 6:30:00 AM 12.84 55.112 0.21 7.61 288.07 8.62
10/27/2021 6:45:00 AM 12.82 55.076 0.16 7.67 272.78 8.68
10/27/2021 7:00:00 AM 12.82 55.076 0.146 7.74 265.62 8.68
10/27/2021 7:15:00 AM 12.81 55.058 0.142 7.59 269.1 8.69
10/27/2021 7:30:00 AM 12.8 55.04 0.141 7.73 258.96 8.39
10/27/2021 7:45:00 AM 12.8 55.04 0.14 7.72 249.72 8.38
10/27/2021 8:00:00 AM 12.79 55.022 0.14 7.72 242.29 8.49
10/27/2021 8:15:00 AM 12.79 55.022 0.14 7.72 242.16 8.58
10/27/2021 8:30:00 AM 12.79 55.022 0.14 7.73 238.07 8.57
10/27/2021 8:45:00 AM 12.8 55.04 0.139 7.61 239.09 8.59
10/27/2021 9:00:00 AM 12.79 55.022 0.139 7.68 236.56 8.61
10/27/2021 9:15:00 AM 12.79 55.022 0.139 7.68 235.05 8.58
10/27/2021 9:30:00 AM 12.8 55.04 0.139 7.67 228.33 8.18
10/27/2021 9:45:00 AM 12.81 55.058 0.139 7.68 224.33 8.52
10/27/2021 10:00:00 AM 12.85 55.13 0.139 7.68 221.57 8.54
10/27/2021 10:15:00 AM 12.9 55.22 0.139 7.68 218.52 8.71
10/27/2021 10:30:00 AM 12.95 55.31 0.139 7.69 212.54 8.93
10/27/2021 10:45:00 AM 13.02 55.436 0.139 7.67 208.42 8.52
10/27/2021 11:00:00 AM 13.11 55.598 0.14 7.63 206.95 8.17
10/27/2021 11:15:00 AM 13.19 55.742 0.14 7.62 207.67 8.28
10/27/2021 11:30:00 AM 13.27 55.886 0.14 7.62 204.05 8.52
10/27/2021 11:45:00 AM 13.35 56.03 0.14 7.63 202.38 8.57
10/27/2021 12:00:00 PM 13.4 56.12 0.14 7.65 201.69 8.7
10/27/2021 12:15:00 PM 13.47 56.246 0.14 7.63 198.15 8.52
10/27/2021 12:30:00 PM 13.53 56.354 0.14 7.64 195.17 8.55
10/27/2021 12:45:00 PM 13.61 56.498 0.14 7.64 191.05 8.6
10/27/2021 1:00:00 PM 13.7 56.66 0.14 7.66 188.95 8.89
10/27/2021 1:15:00 PM 13.78 56.804 0.139 7.75 191.5 8.92
10/27/2021 1:30:00 PM 13.86 56.948 0.138 7.77 190.16 9.12
10/27/2021 1:45:00 PM 13.92 57.056 0.138 7.78 189.64 9.14
10/27/2021 2:00:00 PM 13.97 57.146 0.139 7.65 189.23 8.87
10/27/2021 2:15:00 PM 13.98 57.164 0.139 7.7 185.29 8.8
10/27/2021 2:30:00 PM 14 57.2 0.139 7.68 182.36 8.76
10/27/2021 2:45:00 PM 14.01 57.218 0.14 7.69 183.21 8.84
10/27/2021 3:00:00 PM 14.02 57.236 0.14 7.66 184.07 8.64
10/27/2021 3:15:00 PM 14.02 57.236 0.14 7.65 184.41 8.37
10/27/2021 3:30:00 PM 14.03 57.254 0.14 7.68 180.57 8.57
10/27/2021 3:45:00 PM 14.03 57.254 0.139 7.69 181.82 8.76
10/27/2021 4:00:00 PM 14.03 57.254 0.139 7.73 180.93 8.75
10/27/2021 4:15:00 PM 14.03 57.254 0.139 7.74 181.71 8.66
10/27/2021 4:30:00 PM 14.02 57.236 0.139 7.73 182.88 8.58
10/27/2021 4:45:00 PM 14.01 57.218 0.139 7.72 184.07 8.55
10/27/2021 5:00:00 PM 14 57.2 0.14 7.72 184.43 8.4
10/27/2021 5:15:00 PM 13.99 57.182 0.14 7.72 186.59 8.37
10/27/2021 5:30:00 PM 13.97 57.146 0.139 7.69 189.7 8.36
10/27/2021 5:45:00 PM 13.96 57.128 0.139 7.71 189.6 8.36
10/27/2021 6:00:00 PM 13.96 57.128 0.14 7.72 191.5 8.23
10/27/2021 6:15:00 PM 13.95 57.11 0.14 7.72 194.33 8.04
10/27/2021 6:30:00 PM 13.95 57.11 0.14 7.72 197.97 8.11
10/27/2021 6:45:00 PM 13.94 57.092 0.14 7.73 199.5 8.11
10/27/2021 7:00:00 PM 13.93 57.074 0.14 7.73 202.77 8.08
10/27/2021 7:15:00 PM 13.91 57.038 0.14 7.75 204.42 8.14
10/27/2021 7:30:00 PM 13.9 57.02 0.14 7.71 207.75 7.98
10/27/2021 7:45:00 PM 13.88 56.984 0.14 7.72 211.7 7.99
10/27/2021 8:00:00 PM 13.86 56.948 0.14 7.79 214 7.83
10/27/2021 8:15:00 PM 13.83 56.894 0.14 7.68 222.82 7.76
10/27/2021 8:30:00 PM 13.81 56.858 0.14 7.73 229.26 7.62
10/27/2021 8:45:00 PM 13.78 56.804 0.14 7.74 234.85 7.77
10/27/2021 9:00:00 PM 13.75 56.75 0.14 7.75 229.19 7.66
10/27/2021 9:15:00 PM 13.71 56.678 0.14 7.74 230.38 7.14
10/27/2021 9:30:00 PM 13.67 56.606 0.14 7.63 239.26 7.22
10/27/2021 9:45:00 PM 13.64 56.552 0.14 7.69 244.04 7.7
10/27/2021 10:00:00 PM 13.6 56.48 0.141 7.69 253.22 7.69
10/27/2021 10:15:00 PM 13.57 56.426 0.141 7.69 263.57 7.62
10/27/2021 10:30:00 PM 13.53 56.354 0.14 7.69 277.14 7.66
10/27/2021 10:45:00 PM 13.5 56.3 0.14 7.7 262.61 7.7
10/27/2021 11:00:00 PM 13.47 56.246 0.14 7.7 262.18 7.73
10/27/2021 11:15:00 PM 13.44 56.192 0.14 7.71 290.4 7.63
10/27/2021 11:30:00 PM 13.41 56.138 0.14 7.69 304.53 7.55
10/27/2021 11:45:00 PM 13.38 56.084 0.14 7.71 319.64 7.54
10/28/2021 12:00:00 AM 13.35 56.03 0.14 7.71 354.22 7.49
10/28/2021 12:15:00 AM 13.33 55.994 0.14 7.71 362.68 7.34
10/28/2021 12:30:00 AM 13.29 55.922 0.14 7.73 359.6 7.64
10/28/2021 12:45:00 AM 13.26 55.868 0.14 7.72 369.24 7.63
10/28/2021 1:00:00 AM 13.23 55.814 0.138 7.72 387.23 7.62
10/28/2021 1:15:00 AM 13.2 55.76 0.139 7.69 403.4 7.61
10/28/2021 1:30:00 AM 13.17 55.706 0.139 7.71 457.23 7.51
10/28/2021 1:45:00 AM 13.14 55.652 0.139 7.73 489.7 7.51
10/28/2021 2:00:00 AM 13.1 55.58 0.139 7.74 511.95 7.44
10/28/2021 2:15:00 AM 13.07 55.526 0.139 7.74 539.59 7.5
10/28/2021 2:30:00 AM 13.03 55.454 0.139 7.73 571.67 7.54
10/28/2021 2:45:00 AM 12.99 55.382 0.139 7.73 606.09 7.62
10/28/2021 3:00:00 AM 12.96 55.328 0.138 7.71 638.06 7.6
10/28/2021 3:15:00 AM 12.92 55.256 0.138 7.71 650.9 7.57
10/28/2021 3:30:00 AM 12.89 55.202 0.138 7.71 683.36 7.51
10/28/2021 3:45:00 AM 12.85 55.13 0.138 7.71 677.32 7.54
10/28/2021 4:00:00 AM 12.82 55.076 0.138 7.69 696.64 7.42
10/28/2021 4:15:00 AM 12.78 55.004 0.138 7.69 679.53 7.59
10/28/2021 4:30:00 AM 12.74 54.932 0.138 7.7 648.36 7.64
10/28/2021 4:45:00 AM 12.7 54.86 0.138 7.69 632.22 7.6
10/28/2021 5:00:00 AM 12.66 54.788 0.139 7.69 619.11 7.64
10/28/2021 5:15:00 AM 12.62 54.716 0.138 7.69 603.81 7.63
10/28/2021 5:30:00 AM 12.58 54.644 0.138 7.68 610.36 7.56
10/28/2021 5:45:00 AM 12.54 54.572 0.139 7.68 599 7.64
10/28/2021 6:00:00 AM 12.5 54.5 0.139 7.69 579.05 7.61
10/28/2021 6:15:00 AM 12.46 54.428 0.138 7.73 558.74 7.63
10/28/2021 6:30:00 AM 12.43 54.374 0.138 7.63 561.49 7.6
10/28/2021 6:45:00 AM 12.39 54.302 0.138 7.71 557.14 7.63
10/28/2021 7:00:00 AM 12.35 54.23 0.138 7.68 537.56 7.76
10/28/2021 7:15:00 AM 12.31 54.158 0.138 7.71 523.06 7.7
10/28/2021 7:30:00 AM 12.28 54.104 0.138 7.7 526.48 7.84
10/28/2021 7:45:00 AM 12.24 54.032 0.138 7.7 511.43 7.75
10/28/2021 8:00:00 AM 12.21 53.978 0.138 7.69 535.87 7.79
10/28/2021 8:15:00 AM 12.18 53.924 0.138 7.75 540.49 7.71
10/28/2021 8:30:00 AM 12.16 53.888 0.139 7.64 530.99 7.69
10/28/2021 8:45:00 AM 12.14 53.852 0.139 7.74 512.18 7.77
10/28/2021 9:00:00 AM 12.14 53.852 0.139 7.72 519.16 7.84
10/28/2021 9:15:00 AM 12.14 53.852 0.138 7.73 523.93 7.85
10/28/2021 9:30:00 AM 12.16 53.888 0.138 7.62 552.52 7.93
10/28/2021 9:45:00 AM 12.18 53.924 0.138 7.74 571.42 7.86
10/28/2021 10:00:00 AM 12.2 53.96 0.138 7.74 607.71 7.87
10/28/2021 10:15:00 AM 12.23 54.014 0.138 7.74 624.71 7.84
10/28/2021 10:30:00 AM 12.26 54.068 0.138 7.74 622.05 7.91
10/28/2021 10:45:00 AM 12.31 54.158 0.138 7.73 632.08 8.12
10/28/2021 11:00:00 AM 12.36 54.248 0.138 7.74 622.15 8.24
10/28/2021 11:15:00 AM 12.42 54.356 0.138 7.75 612.87 8.34
10/28/2021 11:30:00 AM 12.48 54.464 0.138 7.78 630.54 8.32
10/28/2021 11:45:00 AM 12.55 54.59 0.138 7.8 639.87 8.43
10/28/2021 12:00:00 PM 12.62 54.716 0.138 7.8 667.9 8.5
10/28/2021 12:15:00 PM 12.71 54.878 0.138 7.68 612.15 8.64
10/28/2021 12:30:00 PM 12.8 55.04 0.138 7.81 557.07 8.68
10/28/2021 12:45:00 PM 12.89 55.202 0.138 7.72 546.99 8.79
10/28/2021 1:00:00 PM 12.98 55.364 0.138 7.84 548.97 8.83
10/28/2021 1:15:00 PM 13.06 55.508 0.137 7.84 562.24 8.89
10/28/2021 1:30:00 PM 13.12 55.616 0.137 7.86 586.35 9.09
10/28/2021 1:45:00 PM 13.18 55.724 0.137 7.86 599.41 9.07
10/28/2021 2:00:00 PM 13.21 55.778 0.137 7.86 612.84 9.05
10/28/2021 2:15:00 PM 13.22 55.796 0.137 7.88 628.56 9.07
10/28/2021 2:30:00 PM 13.23 55.814 0.137 7.86 639.25 9.02
10/28/2021 2:45:00 PM 13.23 55.814 0.137 7.84 665.74 8.94
10/28/2021 3:00:00 PM 13.22 55.796 0.137 7.83 687.97 9.03
10/28/2021 3:15:00 PM 13.21 55.778 0.137 7.82 708.48 9.33
10/28/2021 3:30:00 PM 13.21 55.778 0.137 7.81 720.55 9.4
10/28/2021 3:45:00 PM 13.21 55.778 0.137 7.83 747.25 9.35
10/28/2021 4:00:00 PM 13.21 55.778 0.137 7.83 753.35 9.47
10/28/2021 4:15:00 PM 13.22 55.796 0.137 7.83 756.13 9.4
10/28/2021 4:30:00 PM 13.23 55.814 0.137 7.83 760.51 9.32
10/28/2021 4:45:00 PM 13.23 55.814 0.137 7.83 754.86 9.28
10/28/2021 5:00:00 PM 13.24 55.832 0.137 7.81 784.76 9.16
10/28/2021 5:15:00 PM 13.26 55.868 0.137 7.8 802.63 9.16
10/28/2021 5:30:00 PM 13.28 55.904 0.137 7.8 803.18 9.08
10/28/2021 5:45:00 PM 13.28 55.904 0.137 7.8 807.07 9.07
10/28/2021 6:00:00 PM 13.29 55.922 0.137 7.8 822.19 8.97
10/28/2021 6:15:00 PM 13.29 55.922 0.137 7.8 830.39 8.92
10/28/2021 6:30:00 PM 13.28 55.904 0.138 7.79 825.12 8.69
10/28/2021 6:45:00 PM 13.27 55.886 0.138 7.79 815.01 8.65
10/28/2021 7:00:00 PM 13.26 55.868 0.137 7.79 785.16 8.65
10/28/2021 7:15:00 PM 13.24 55.832 0.137 7.79 759.96 8.56
10/28/2021 7:30:00 PM 13.23 55.814 0.137 7.77 743.26 8.42
10/28/2021 7:45:00 PM 13.21 55.778 0.137 7.77 723.93 8.22
10/28/2021 8:00:00 PM 13.19 55.742 0.137 7.76 697.01 8.12
10/28/2021 8:15:00 PM 13.17 55.706 0.137 7.74 634.99 7.98
10/28/2021 8:30:00 PM 13.16 55.688 0.137 7.74 601.25 8.11
10/28/2021 8:45:00 PM 13.15 55.67 0.137 7.74 576.83 8.12
10/28/2021 9:00:00 PM 13.15 55.67 0.137 7.73 560.49 8.05
10/28/2021 9:15:00 PM 13.14 55.652 0.137 7.72 567.24 7.92
10/28/2021 9:30:00 PM 13.14 55.652 0.137 7.71 563.15 7.91
10/28/2021 9:45:00 PM 13.14 55.652 0.137 7.71 555.1 7.8
10/28/2021 10:00:00 PM 13.14 55.652 0.137 7.72 541.54 7.84
10/28/2021 10:15:00 PM 13.14 55.652 0.137 7.72 524.84 7.88
10/28/2021 10:30:00 PM 13.13 55.634 0.137 7.71 509.25 7.92
10/28/2021 10:45:00 PM 13.12 55.616 0.137 7.72 496.26 7.9
10/28/2021 11:00:00 PM 13.11 55.598 0.137 7.72 487.09 7.83
10/28/2021 11:15:00 PM 13.09 55.562 0.137 7.72 466.85 7.96
10/28/2021 11:30:00 PM 13.08 55.544 0.137 7.72 463.51 7.95
10/28/2021 11:45:00 PM 13.06 55.508 0.137 7.7 461.11 7.86
10/29/2021 12:00:00 AM 13.05 55.49 0.137 7.7 452.33 7.74
10/29/2021 12:15:00 AM 13.04 55.472 0.137 7.67 447.09 7.69
10/29/2021 12:30:00 AM 13.03 55.454 0.137 7.68 437.9 7.68
10/29/2021 12:45:00 AM 13.02 55.436 0.137 7.68 431.83 7.66
10/29/2021 1:00:00 AM 13.01 55.418 0.136 7.7 430.07 7.62
10/29/2021 1:15:00 AM 13 55.4 0.136 7.71 422.83 7.43
10/29/2021 1:30:00 AM 13 55.4 0.136 7.7 413.06 7.48
10/29/2021 1:45:00 AM 12.99 55.382 0.135 7.69 408.56 7.45
10/29/2021 2:00:00 AM 12.98 55.364 0.135 7.69 391.43 7.44
10/29/2021 2:15:00 AM 12.98 55.364 0.135 7.71 382.07 7.46
10/29/2021 2:30:00 AM 12.97 55.346 0.135 7.71 382.8 7.54
10/29/2021 2:45:00 AM 12.96 55.328 0.136 7.75 372.98 7.57
10/29/2021 3:00:00 AM 12.96 55.328 0.137 7.77 366.89 7.49
10/29/2021 3:15:00 AM 12.95 55.31 0.138 7.78 378.43 7.4
10/29/2021 3:30:00 AM 12.95 55.31 0.138 7.78 385.69 7.53
10/29/2021 3:45:00 AM 12.94 55.292 0.136 7.8 377.43 7.41
10/29/2021 4:00:00 AM 12.94 55.292 0.136 7.8 362.86 7.37
10/29/2021 4:15:00 AM 12.93 55.274 0.135 7.81 359.32 7.28
10/29/2021 4:30:00 AM 12.92 55.256 0.135 7.81 363.15 7.26
10/29/2021 4:45:00 AM 12.9 55.22 0.134 7.81 359.49 7.31
10/29/2021 5:00:00 AM 12.89 55.202 0.133 7.79 358.38 7.45
10/29/2021 5:15:00 AM 12.88 55.184 0.132 7.78 366.63 7.42
10/29/2021 5:30:00 AM 12.87 55.166 0.131 7.78 379.85 7.5
10/29/2021 5:45:00 AM 12.85 55.13 0.131 7.76 353.22 7.55
10/29/2021 6:00:00 AM 12.83 55.094 0.129 7.73 382.9 7.51
10/29/2021 6:15:00 AM 12.82 55.076 0.128 7.71 393.62 7.41
10/29/2021 6:30:00 AM 12.81 55.058 0.127 7.7 389.99 7.58
10/29/2021 6:45:00 AM 12.79 55.022 0.127 7.71 414.27 7.71
10/29/2021 7:00:00 AM 12.78 55.004 0.127 7.71 406.49 7.75
10/29/2021 7:15:00 AM 12.77 54.986 0.126 7.71 418.75 7.57
10/29/2021 7:30:00 AM 12.75 54.95 0.125 7.71 439.5 7.51
10/29/2021 7:45:00 AM 12.73 54.914 0.123 7.71 451.66 7.48
10/29/2021 8:00:00 AM 12.71 54.878 0.123 7.71 417.77 7.43
10/29/2021 8:15:00 AM 12.69 54.842 0.123 7.73 409.69 7.32
10/29/2021 8:30:00 AM 12.66 54.788 0.123 7.75 418.11 7.35
10/29/2021 8:45:00 AM 12.65 54.77 0.122 7.75 442.28 7.18
10/29/2021 9:00:00 AM 12.63 54.734 0.122 7.75 449.94 7.2
10/29/2021 9:15:00 AM 12.63 54.734 0.12 7.76 445.02 7.23
10/29/2021 9:30:00 AM 12.64 54.752 0.119 7.77 470.11 7.31
10/29/2021 9:45:00 AM 12.63 54.734 0.12 7.78 568.87 7.36
10/29/2021 10:00:00 AM 12.64 54.752 0.122 7.79 669.41 7.48
10/29/2021 10:15:00 AM 12.65 54.77 0.122 7.8 705.73 7.65
10/29/2021 10:30:00 AM 12.65 54.77 0.121 7.81 666.05 7.69
10/29/2021 10:45:00 AM 12.65 54.77 0.121 7.82 685.16 7.83
10/29/2021 11:00:00 AM 12.64 54.752 0.122 7.82 728.54 7.88
10/29/2021 11:15:00 AM 12.64 54.752 0.121 7.8 690.06 7.9
10/29/2021 11:30:00 AM 12.66 54.788 0.121 7.8 708.98 7.79
10/29/2021 11:45:00 AM 12.65 54.77 0.122 7.8 725.35 7.91
10/29/2021 12:00:00 PM 12.66 54.788 0.122 7.81 819.11 7.77
10/29/2021 12:15:00 PM 12.66 54.788 0.123 7.81 864.15 7.84
10/29/2021 12:30:00 PM 12.66 54.788 0.123 7.81 831.38 8
10/29/2021 12:45:00 PM 12.65 54.77 0.123 7.8 810.51 8.16
10/29/2021 1:00:00 PM 12.67 54.806 0.125 7.8 822.33 8.07
10/29/2021 1:15:00 PM 12.69 54.842 0.126 7.8 826.33 8.07
10/29/2021 1:30:00 PM 12.71 54.878 0.126 7.78 818.64 8.41
10/29/2021 1:45:00 PM 12.73 54.914 0.126 7.76 811.56 8.42
10/29/2021 2:00:00 PM 12.74 54.932 0.126 7.72 810.26 8.36
10/29/2021 2:15:00 PM 12.74 54.932 0.129 7.71 801.85 8.11
10/29/2021 2:30:00 PM 12.74 54.932 0.132 7.74 787.07 7.88
10/29/2021 2:45:00 PM 12.73 54.914 0.137 7.77 770.82 7.64
10/29/2021 3:00:00 PM 12.72 54.896 0.135 7.74 756.11 7.56
10/29/2021 3:15:00 PM 12.72 54.896 0.132 7.73 761.35 7.49
10/29/2021 3:30:00 PM 12.71 54.878 0.135 7.72 755.39 7.49
10/29/2021 3:45:00 PM 12.7 54.86 0.136 7.72 743.45 7.48
10/29/2021 4:00:00 PM 12.69 54.842 0.142 7.71 749.74 7.77
10/29/2021 4:15:00 PM 12.68 54.824 0.142 7.72 742.83 7.71
10/29/2021 4:30:00 PM 12.67 54.806 0.143 7.72 739.95 7.54
10/29/2021 4:45:00 PM 12.65 54.77 0.143 7.72 754.51 7.64
10/29/2021 5:00:00 PM 12.64 54.752 0.299 7.73 418.74 7.77
10/29/2021 5:15:00 PM 12.64 54.752 0.273 7.76 336.54 7.84
10/29/2021 5:30:00 PM 12.64 54.752 0.265 7.57 313.26 7.96
10/29/2021 5:45:00 PM 12.64 54.752 0.248 7.72 298.18 8.16
10/29/2021 6:00:00 PM 12.65 54.77 0.239 7.75 284.79 8.38
10/29/2021 6:15:00 PM 12.65 54.77 0.229 7.74 278.89 8.34
10/29/2021 6:30:00 PM 12.64 54.752 0.218 7.74 277.37 8.45
10/29/2021 6:45:00 PM 12.63 54.734 0.198 7.74 280.46 8.7
10/29/2021 7:00:00 PM 12.64 54.752 0.188 7.74 276.4 8.1
10/29/2021 7:15:00 PM 12.66 54.788 0.186 7.73 277.3 6.95
10/29/2021 7:30:00 PM 12.67 54.806 0.171 7.68 273.73 8.37
10/29/2021 7:45:00 PM 12.65 54.77 0.164 7.69 263.52 8.68
10/29/2021 8:00:00 PM 12.6 54.68 0.171 7.66 283.36 9
10/29/2021 8:15:00 PM 12.58 54.644 0.318 7.84 1258.25 9.25
10/29/2021 8:30:00 PM 12.57 54.626 0.318 7.86 1058.76 8.86
10/29/2021 8:45:00 PM 12.56 54.608 0.31 7.75 855.47 7.77
10/29/2021 9:00:00 PM 12.55 54.59 0.082 7.8 827.07 9.1
10/29/2021 9:15:00 PM 12.55 54.59 0.116 7.79 916.33 9.06
10/29/2021 9:30:00 PM 12.56 54.608 0.093 7.8 899.68 9.16
10/29/2021 9:45:00 PM 12.55 54.59 0.115 7.82 896.11 9.29
10/29/2021 10:00:00 PM 12.53 54.554 0.107 7.82 876.76 9.29
10/29/2021 10:15:00 PM 12.52 54.536 0.276 7.83 211.51 9.3
10/29/2021 10:30:00 PM 12.52 54.536 0.265 7.8 230.64 9.28
10/29/2021 10:45:00 PM 12.52 54.536 0.259 7.79 224.98 9.29
10/29/2021 11:00:00 PM 12.5 54.5 0.252 7.77 204.79 9.29
10/29/2021 11:15:00 PM 12.49 54.482 0.243 7.75 251.89 9.29
10/29/2021 11:30:00 PM 12.48 54.464 0.235 7.74 239.42 9.29
10/29/2021 11:45:00 PM 12.48 54.464 0.23 7.73 204.69 9.29
10/30/2021 12:00:00 AM 12.48 54.464 0.229 7.72 201.26 9.3
10/30/2021 12:15:00 AM 12.47 54.446 0.23 7.71 208.21 9.29
10/30/2021 12:30:00 AM 12.47 54.446 0.231 7.71 204.91 9.29
10/30/2021 12:45:00 AM 12.48 54.464 0.231 7.71 210.11 9.29
10/30/2021 1:00:00 AM 12.48 54.464 0.231 7.71 180.87 9.3
10/30/2021 1:15:00 AM 12.47 54.446 0.23 7.71 162.82 9.3
10/30/2021 1:30:00 AM 12.47 54.446 0.229 7.71 214.06 9.3
10/30/2021 1:45:00 AM 12.46 54.428 0.228 7.69 180.89 9.3
10/30/2021 2:00:00 AM 12.46 54.428 0.227 7.68 185.12 9.31
10/30/2021 2:15:00 AM 12.46 54.428 0.226 7.7 147.92 9.31
10/30/2021 2:30:00 AM 12.45 54.41 0.225 7.69 153.02 9.32
10/30/2021 2:45:00 AM 12.44 54.392 0.225 7.69 170.6 9.33
10/30/2021 3:00:00 AM 12.44 54.392 0.224 7.69 136.06 9.34
10/30/2021 3:15:00 AM 12.43 54.374 0.224 7.68 127.74 9.34
10/30/2021 3:30:00 AM 12.43 54.374 0.225 7.67 127.65 9.33
10/30/2021 3:45:00 AM 12.42 54.356 0.226 7.68 116.04 9.33
10/30/2021 4:00:00 AM 12.42 54.356 0.228 7.69 126.9 9.32
10/30/2021 4:15:00 AM 12.42 54.356 0.23 7.68 114.76 9.32
10/30/2021 4:30:00 AM 12.42 54.356 0.232 7.68 108.45 9.32
10/30/2021 4:45:00 AM 12.42 54.356 0.234 7.68 112.3 9.31
10/30/2021 5:00:00 AM 12.43 54.374 0.237 7.69 111.15 9.31
10/30/2021 5:15:00 AM 12.43 54.374 0.239 7.69 114.57 9.31
10/30/2021 5:30:00 AM 12.43 54.374 0.241 7.7 150.99 9.3
10/30/2021 5:45:00 AM 12.44 54.392 0.243 7.69 98.02 9.3
10/30/2021 6:00:00 AM 12.44 54.392 0.245 7.68 90.09 9.3
10/30/2021 6:15:00 AM 12.45 54.41 0.247 7.68 82.08 9.31
10/30/2021 6:30:00 AM 12.46 54.428 0.25 7.69 97.03 9.32
10/30/2021 6:45:00 AM 12.46 54.428 0.252 7.68 92.73 9.33
10/30/2021 7:00:00 AM 12.47 54.446 0.254 7.69 84.01 9.33
10/30/2021 7:15:00 AM 12.48 54.464 0.256 7.7 79.78 9.35
10/30/2021 7:30:00 AM 12.49 54.482 0.258 7.71 75.28 9.35
10/30/2021 7:45:00 AM 12.5 54.5 0.261 7.7 86.1 9.36
10/30/2021 8:00:00 AM 12.51 54.518 0.263 7.66 134.8 9.36
10/30/2021 8:15:00 AM 12.52 54.536 0.266 7.69 74.03 9.36
10/30/2021 8:30:00 AM 12.53 54.554 0.267 7.71 66.81 9.37
10/30/2021 8:45:00 AM 12.55 54.59 0.269 7.71 59.06 9.36
10/30/2021 9:00:00 AM 12.56 54.608 0.271 7.7 56.28 9.37
10/30/2021 9:15:00 AM 12.58 54.644 0.274 7.71 65.67 9.37
10/30/2021 9:30:00 AM 12.59 54.662 0.276 7.71 57.41 9.38
10/30/2021 9:45:00 AM 12.61 54.698 0.278 7.71 127.7 9.38
10/30/2021 10:00:00 AM 12.63 54.734 0.28 7.71 50.11 9.38
10/30/2021 10:15:00 AM 12.65 54.77 0.281 7.72 54.73 9.39
10/30/2021 10:30:00 AM 12.67 54.806 0.283 7.72 48.05 9.39
10/30/2021 10:45:00 AM 12.7 54.86 0.286 7.72 57.87 9.39
10/30/2021 11:00:00 AM 12.75 54.95 0.287 7.73 41.22 9.39
10/30/2021 11:15:00 AM 12.8 55.04 0.289 7.73 38.91 9.4
10/30/2021 11:30:00 AM 12.85 55.13 0.291 7.72 38.81 9.4
10/30/2021 11:45:00 AM 12.9 55.22 0.293 7.73 38.97 9.4
10/30/2021 12:00:00 PM 12.94 55.292 0.295 7.73 41.98 9.41
10/30/2021 12:15:00 PM 12.97 55.346 0.296 7.73 51.64 9.41
10/30/2021 12:30:00 PM 13.03 55.454 0.298 7.74 36.51 9.42
10/30/2021 12:45:00 PM 13.09 55.562 0.3 7.75 35.7 9.43
10/30/2021 1:00:00 PM 13.18 55.724 0.301 7.75 32.5 9.43
10/30/2021 1:15:00 PM 13.23 55.814 0.303 7.76 33.68 9.44
10/30/2021 1:30:00 PM 13.26 55.868 0.305 7.76 32.09 9.44
10/30/2021 1:45:00 PM 13.3 55.94 0.306 7.76 34.44 9.43
10/30/2021 2:00:00 PM 13.37 56.066 0.308 7.76 32.6 9.43
10/30/2021 2:15:00 PM 13.43 56.174 0.309 7.76 28.88 9.42
10/30/2021 2:30:00 PM 13.5 56.3 0.311 7.77 30.25 9.43
10/30/2021 2:45:00 PM 13.55 56.39 0.312 7.77 31.36 9.43
10/30/2021 3:00:00 PM 13.58 56.444 0.313 7.77 27.63 9.42
10/30/2021 3:15:00 PM 13.62 56.516 0.314 7.78 29.43 9.42
10/30/2021 3:30:00 PM 13.67 56.606 0.315 7.77 30.14 9.41
10/30/2021 3:45:00 PM 13.72 56.696 0.317 7.78 24.11 9.41
10/30/2021 4:00:00 PM 13.77 56.786 0.317 7.78 24.94 9.4
10/30/2021 4:15:00 PM 13.81 56.858 0.318 7.78 24.95 9.4
10/30/2021 4:30:00 PM 13.84 56.912 0.319 7.78 27.53 9.39
10/30/2021 4:45:00 PM 13.86 56.948 0.32 7.78 21.17 9.37
10/30/2021 5:00:00 PM 13.87 56.966 0.32 7.78 22.78 9.36
10/30/2021 5:15:00 PM 13.88 56.984 0.321 7.78 22.59 9.35
10/30/2021 5:30:00 PM 13.9 57.02 0.322 7.79 25.01 9.34
10/30/2021 5:45:00 PM 13.91 57.038 0.323 7.78 25.51 9.33
10/30/2021 6:00:00 PM 13.92 57.056 0.324 7.79 25.95 9.32
10/30/2021 6:15:00 PM 13.92 57.056 0.324 7.79 25.71 9.3
10/30/2021 6:30:00 PM 13.91 57.038 0.325 7.79 23.37 9.29
10/30/2021 6:45:00 PM 13.9 57.02 0.326 7.79 20.66 9.28
10/30/2021 7:00:00 PM 13.89 57.002 0.326 7.79 25.09 9.28
10/30/2021 7:15:00 PM 13.88 56.984 0.327 7.79 22.4 9.27
10/30/2021 7:30:00 PM 13.87 56.966 0.328 7.79 23.91 9.26
10/30/2021 7:45:00 PM 13.86 56.948 0.328 7.79 23.89 9.25
10/30/2021 8:00:00 PM 13.84 56.912 0.329 7.79 23.45 9.25
10/30/2021 8:15:00 PM 13.82 56.876 0.33 7.79 26.9 9.25
10/30/2021 8:30:00 PM 13.81 56.858 0.331 7.79 23.62 9.25
10/30/2021 8:45:00 PM 13.8 56.84 0.332 7.79 21.76 9.24
10/30/2021 9:00:00 PM 13.78 56.804 0.332 7.79 19.51 9.25
10/30/2021 9:15:00 PM 13.76 56.768 0.333 7.79 19.36 9.25
10/30/2021 9:30:00 PM 13.74 56.732 0.334 7.79 22.46 9.25
10/30/2021 9:45:00 PM 13.72 56.696 0.335 7.79 21.52 9.25
10/30/2021 10:00:00 PM 13.7 56.66 0.335 7.79 18.55 9.25
10/30/2021 10:15:00 PM 13.68 56.624 0.336 7.79 23.68 9.26
10/30/2021 10:30:00 PM 13.64 56.552 0.336 7.79 22.44 9.26
10/30/2021 10:45:00 PM 13.6 56.48 0.337 7.79 22.02 9.26
10/30/2021 11:00:00 PM 13.57 56.426 0.337 7.79 21.15 9.27
10/30/2021 11:15:00 PM 13.53 56.354 0.338 7.79 20.79 9.27
10/30/2021 11:30:00 PM 13.49 56.282 0.339 7.79 21.23 9.27
10/30/2021 11:45:00 PM 13.46 56.228 0.339 7.79 21.99 9.28
10/31/2021 12:00:00 AM 13.42 56.156 0.34 7.79 20.91 9.28
10/31/2021 12:15:00 AM 13.38 56.084 0.341 7.79 20.27 9.29
10/31/2021 12:30:00 AM 13.33 55.994 0.341 7.79 19.78 9.29
10/31/2021 12:45:00 AM 13.29 55.922 0.342 7.79 18.6 9.31
10/31/2021 1:00:00 AM 13.25 55.85 0.343 7.79 20.54 9.31
10/31/2021 1:15:00 AM 13.21 55.778 0.343 7.79 22.69 9.32
10/31/2021 1:30:00 AM 13.16 55.688 0.344 7.79 20.63 9.32
10/31/2021 1:45:00 AM 13.11 55.598 0.345 7.79 17.14 9.33
10/31/2021 2:00:00 AM 13.08 55.544 0.345 7.79 18.65 9.34
10/31/2021 2:15:00 AM 13.04 55.472 0.346 7.79 18.52 9.34
10/31/2021 2:30:00 AM 12.99 55.382 0.346 7.79 18.91 9.35
10/31/2021 2:45:00 AM 12.94 55.292 0.347 7.79 19.45 9.35
10/31/2021 3:00:00 AM 12.9 55.22 0.348 7.79 18.13 9.37
10/31/2021 3:15:00 AM 12.86 55.148 0.348 7.79 17.33 9.37
10/31/2021 3:30:00 AM 12.82 55.076 0.349 7.8 18.24 9.38
10/31/2021 3:45:00 AM 12.79 55.022 0.349 7.79 16.39 9.39
10/31/2021 4:00:00 AM 12.75 54.95 0.349 7.79 18.64 9.4
10/31/2021 4:15:00 AM 12.71 54.878 0.35 7.79 16.13 9.41
10/31/2021 4:30:00 AM 12.67 54.806 0.351 7.79 17.76 9.42
10/31/2021 4:45:00 AM 12.64 54.752 0.351 7.79 16.92 9.43
10/31/2021 5:00:00 AM 12.61 54.698 0.351 7.8 17.5 9.45
10/31/2021 5:15:00 AM 12.58 54.644 0.352 7.8 15.35 9.46
10/31/2021 5:30:00 AM 12.56 54.608 0.352 7.8 15.83 9.47
10/31/2021 5:45:00 AM 12.53 54.554 0.353 7.8 18.86 9.48
10/31/2021 6:00:00 AM 12.5 54.5 0.353 7.8 18 9.48
10/31/2021 6:15:00 AM 12.46 54.428 0.354 7.8 14.48 9.49
10/31/2021 6:30:00 AM 12.43 54.374 0.354 7.8 14.94 9.51
10/31/2021 6:45:00 AM 12.4 54.32 0.354 7.8 15.91 9.52
10/31/2021 7:00:00 AM 12.38 54.284 0.354 7.8 14.39 9.53
10/31/2021 7:15:00 AM 12.35 54.23 0.355 7.8 15.74 9.53
10/31/2021 7:30:00 AM 12.33 54.194 0.355 7.8 13.17 9.54
10/31/2021 7:45:00 AM 12.31 54.158 0.356 7.8 12.97 9.55
10/31/2021 8:00:00 AM 12.29 54.122 0.356 7.8 14.68 9.56
10/31/2021 8:15:00 AM 12.28 54.104 0.356 7.8 13.14 9.57
10/31/2021 8:30:00 AM 12.27 54.086 0.357 7.81 14.09 9.58
10/31/2021 8:45:00 AM 12.27 54.086 0.357 7.81 15.2 9.6
10/31/2021 9:00:00 AM 12.26 54.068 0.358 7.81 15.53 9.61
10/31/2021 9:15:00 AM 12.26 54.068 0.357 7.81 13.26 9.63
10/31/2021 9:30:00 AM 12.25 54.05 0.357 7.81 12.24 9.64
10/31/2021 9:45:00 AM 12.25 54.05 0.357 7.81 13.03 9.65
10/31/2021 10:00:00 AM 12.24 54.032 0.358 7.81 12.65 9.67
10/31/2021 10:15:00 AM 12.24 54.032 0.357 7.82 12.28 9.67
10/31/2021 10:30:00 AM 12.24 54.032 0.358 7.82 12.3 9.68
10/31/2021 10:45:00 AM 12.25 54.05 0.358 7.82 12.42 9.69
10/31/2021 11:00:00 AM 12.28 54.104 0.359 7.82 11.79 9.71
10/31/2021 11:15:00 AM 12.32 54.176 0.359 7.82 11.3 9.74
10/31/2021 11:30:00 AM 12.37 54.266 0.359 7.82 11.36 9.77
10/31/2021 11:45:00 AM 12.42 54.356 0.359 7.83 11.35 9.8
10/31/2021 12:00:00 PM 12.46 54.428 0.36 7.83 10.54 9.82
10/31/2021 12:15:00 PM 12.52 54.536 0.359 7.83 10.54 9.84
10/31/2021 12:30:00 PM 12.58 54.644 0.36 7.84 10.34 9.86
10/31/2021 12:45:00 PM 12.67 54.806 0.36 7.84 10.95 9.88
10/31/2021 1:00:00 PM 12.75 54.95 0.36 7.84 10.25 9.9
10/31/2021 1:15:00 PM 12.81 55.058 0.36 7.85 10.02 9.9
10/31/2021 1:30:00 PM 12.82 55.076 0.36 7.85 10.56 9.9
10/31/2021 1:45:00 PM 12.83 55.094 0.361 7.85 10.32 9.9
10/31/2021 2:00:00 PM 12.84 55.112 0.361 7.86 9.87 9.89
10/31/2021 2:15:00 PM 12.87 55.166 0.361 7.86 9.55 9.89
10/31/2021 2:30:00 PM 12.93 55.274 0.361 7.86 10.25 9.89
10/31/2021 2:45:00 PM 12.98 55.364 0.361 7.86 9.67 9.9
10/31/2021 3:00:00 PM 13.03 55.454 0.362 7.86 10.17 9.89
10/31/2021 3:15:00 PM 13.07 55.526 0.355 7.86 610.15 9.89
10/31/2021 3:30:00 PM 13.1 55.58 0.362 7.87 11.51 9.89
10/31/2021 3:45:00 PM 13.14 55.652 0.361 7.87 9.98 9.89
10/31/2021 4:00:00 PM 13.17 55.706 0.361 7.87 10.04 9.88
10/31/2021 4:15:00 PM 13.21 55.778 0.361 7.87 9.92 9.87
10/31/2021 4:30:00 PM 13.23 55.814 0.361 7.87 10.14 9.86
10/31/2021 4:45:00 PM 13.26 55.868 0.361 7.87 10.4 9.84
10/31/2021 5:00:00 PM 13.27 55.886 0.361 7.87 9.59 9.82
10/31/2021 5:15:00 PM 13.27 55.886 0.361 7.87 9.2 9.79
10/31/2021 5:30:00 PM 13.28 55.904 0.361 7.87 9.95 9.76
10/31/2021 5:45:00 PM 13.29 55.922 0.361 7.87 9.54 9.74
10/31/2021 6:00:00 PM 13.3 55.94 0.361 7.87 9.81 9.72
10/31/2021 6:15:00 PM 13.29 55.922 0.361 7.87 9.91 9.7
10/31/2021 6:30:00 PM 13.29 55.922 0.361 7.87 9.99 9.68
10/31/2021 6:45:00 PM 13.3 55.94 0.361 7.86 10.07 9.66
10/31/2021 7:00:00 PM 13.3 55.94 0.361 7.86 10.18 9.64
10/31/2021 7:15:00 PM 13.3 55.94 0.362 7.86 10.68 9.62
10/31/2021 7:30:00 PM 13.3 55.94 0.362 7.86 10.84 9.6
10/31/2021 7:45:00 PM 13.29 55.922 0.362 7.85 10.68 9.58
10/31/2021 8:00:00 PM 13.28 55.904 0.362 7.86 10.28 9.58
10/31/2021 8:15:00 PM 13.27 55.886 0.362 7.86 10.25 9.56
10/31/2021 8:30:00 PM 13.25 55.85 0.362 7.85 11.61 9.56
10/31/2021 8:45:00 PM 13.24 55.832 0.362 7.85 10.99 9.54
10/31/2021 9:00:00 PM 13.21 55.778 0.362 7.85 10.18 9.53
10/31/2021 9:15:00 PM 13.19 55.742 0.362 7.85 11.7 9.53
10/31/2021 9:30:00 PM 13.16 55.688 0.363 7.85 11.01 9.52
10/31/2021 9:45:00 PM 13.14 55.652 0.362 7.85 10.47 9.52
10/31/2021 10:00:00 PM 13.11 55.598 0.363 7.84 11.38 9.52
10/31/2021 10:15:00 PM 13.09 55.562 0.363 7.84 11.38 9.52
10/31/2021 10:30:00 PM 13.06 55.508 0.362 7.84 12.8 9.51
10/31/2021 10:45:00 PM 13.03 55.454 0.362 7.84 11.45 9.51
10/31/2021 11:00:00 PM 13.01 55.418 0.363 7.84 10.89 9.52
10/31/2021 11:15:00 PM 12.98 55.364 0.363 7.84 11.42 9.52
10/31/2021 11:30:00 PM 12.95 55.31 0.363 7.84 10.96 9.53
10/31/2021 11:45:00 PM 12.92 55.256 0.363 7.84 11.29 9.53
11/1/2021 12:00:00 AM 12.88 55.184 0.363 7.84 12.47 9.53
11/1/2021 12:15:00 AM 12.85 55.13 0.363 7.84 11.23 9.53
11/1/2021 12:30:00 AM 12.83 55.094 0.364 7.84 11.26 9.54
11/1/2021 12:45:00 AM 12.81 55.058 0.363 7.84 11.42 9.54
11/1/2021 1:00:00 AM 12.79 55.022 0.364 7.84 10.84 9.54
11/1/2021 1:15:00 AM 12.76 54.968 0.364 7.84 11.33 9.55
11/1/2021 1:30:00 AM 12.73 54.914 0.364 7.84 10.94 9.55
11/1/2021 1:45:00 AM 12.7 54.86 0.364 7.84 10.96 9.56
11/1/2021 2:00:00 AM 12.67 54.806 0.365 7.84 11.38 9.56
11/1/2021 2:15:00 AM 12.65 54.77 0.365 7.84 10.17 9.56
11/1/2021 2:30:00 AM 12.63 54.734 0.365 7.84 10.65 9.57
11/1/2021 2:45:00 AM 12.61 54.698 0.365 7.84 13.33 9.58
11/1/2021 3:00:00 AM 12.58 54.644 0.365 7.84 10.42 9.58
11/1/2021 3:15:00 AM 12.55 54.59 0.366 7.84 10.63 9.59
11/1/2021 3:30:00 AM 12.51 54.518 0.366 7.84 10.86 9.6
11/1/2021 3:45:00 AM 12.47 54.446 0.366 7.84 10.67 9.6
11/1/2021 4:00:00 AM 12.42 54.356 0.366 7.84 11.86 9.61
11/1/2021 4:15:00 AM 12.38 54.284 0.367 7.84 10.81 9.62
11/1/2021 4:30:00 AM 12.34 54.212 0.367 7.84 10.53 9.62
11/1/2021 4:45:00 AM 12.31 54.158 0.367 7.84 10.96 9.63
11/1/2021 5:00:00 AM 12.27 54.086 0.367 7.84 10.57 9.64
11/1/2021 5:15:00 AM 12.23 54.014 0.367 7.84 10.52 9.65
11/1/2021 5:30:00 AM 12.19 53.942 0.367 7.84 10.37 9.66
11/1/2021 5:45:00 AM 12.15 53.87 0.367 7.83 10.94 9.67
11/1/2021 6:00:00 AM 12.11 53.798 0.368 7.83 10.27 9.68
11/1/2021 6:15:00 AM 12.08 53.744 0.368 7.84 10.15 9.69
11/1/2021 6:30:00 AM 12.06 53.708 0.368 7.84 10.77 9.7
11/1/2021 6:45:00 AM 12.04 53.672 0.369 7.84 10.42 9.71
11/1/2021 7:00:00 AM 12.02 53.636 0.369 7.84 10.16 9.73
11/1/2021 7:15:00 AM 11.99 53.582 0.369 7.84 10.04 9.73
11/1/2021 7:30:00 AM 11.96 53.528 0.369 7.84 9.93 9.74
11/1/2021 7:45:00 AM 11.91 53.438 0.369 7.84 9.81 9.76
11/1/2021 8:00:00 AM 11.87 53.366 0.37 7.84 11.17 9.77
11/1/2021 8:15:00 AM 11.82 53.276 0.37 7.84 9.95 9.79
11/1/2021 8:30:00 AM 11.79 53.222 0.37 7.84 9.37 9.81
11/1/2021 8:45:00 AM 11.77 53.186 0.37 7.84 9.49 9.84
11/1/2021 9:00:00 AM 11.77 53.186 0.371 7.85 9.34 9.86
11/1/2021 9:15:00 AM 11.76 53.168 0.372 7.85 8.63 9.88
11/1/2021 9:30:00 AM 11.75 53.15 0.371 7.85 9.35 9.91
11/1/2021 9:45:00 AM 11.73 53.114 0.371 7.85 8.25 9.94
11/1/2021 10:00:00 AM 11.71 53.078 0.371 7.85 8.41 9.97
11/1/2021 10:15:00 AM 11.68 53.024 0.372 7.86 8.15 9.99
11/1/2021 10:30:00 AM 11.67 53.006 0.372 7.86 7.99 10.03
11/1/2021 10:45:00 AM 11.69 53.042 0.372 7.87 7.84 10.07
11/1/2021 11:00:00 AM 11.72 53.096 0.373 7.87 7.69 10.11
11/1/2021 11:15:00 AM 11.76 53.168 0.373 7.87 7.4 10.14
11/1/2021 11:30:00 AM 11.81 53.258 0.372 7.88 7.82 10.18
11/1/2021 11:45:00 AM 11.86 53.348 0.373 7.88 7.72 10.21
11/1/2021 12:00:00 PM 11.93 53.474 0.373 7.88 7.72 10.23
11/1/2021 12:15:00 PM 11.98 53.564 0.374 7.89 7.71 10.25
11/1/2021 12:30:00 PM 12.03 53.654 0.374 7.89 7.23 10.26
11/1/2021 12:45:00 PM 12.09 53.762 0.374 7.89 7.24 10.28
11/1/2021 1:00:00 PM 12.14 53.852 0.374 7.89 7.22 10.29
11/1/2021 1:15:00 PM 12.17 53.906 0.374 7.9 7.07 10.31
11/1/2021 1:30:00 PM 12.2 53.96 0.374 7.9 8.1 10.33
11/1/2021 1:45:00 PM 12.22 53.996 0.375 7.9 7.18 10.34
11/1/2021 2:00:00 PM 12.23 54.014 0.375 7.9 7.27 10.34
11/1/2021 2:15:00 PM 12.23 54.014 0.375 7.9 7.33 10.34
11/1/2021 2:30:00 PM 12.24 54.032 0.375 7.91 6.8 10.34
11/1/2021 2:45:00 PM 12.24 54.032 0.375 7.91 7.36 10.34
11/1/2021 3:00:00 PM 12.25 54.05 0.375 7.91 6.78 10.34
11/1/2021 3:15:00 PM 12.22 53.996 0.376 7.9 7.63 10.33
11/1/2021 3:30:00 PM 12.22 53.996 0.376 7.91 6.83 10.32
11/1/2021 3:45:00 PM 12.21 53.978 0.376 7.91 7.08 10.31
11/1/2021 4:00:00 PM 12.22 53.996 0.376 7.91 6.83 10.3
11/1/2021 4:15:00 PM 12.23 54.014 0.376 7.91 6.71 10.29
11/1/2021 4:30:00 PM 12.25 54.05 0.376 7.91 6.76 10.28
11/1/2021 4:45:00 PM 12.24 54.032 0.376 7.9 6.89 10.26
11/1/2021 5:00:00 PM 12.23 54.014 0.376 7.9 7.24 10.25
11/1/2021 5:15:00 PM 12.22 53.996 0.377 7.9 6.63 10.23
11/1/2021 5:30:00 PM 12.2 53.96 0.377 7.9 7.14 10.19
11/1/2021 5:45:00 PM 12.19 53.942 0.377 7.9 6.83 10.15
11/1/2021 6:00:00 PM 12.17 53.906 0.378 7.9 7.24 10.13
11/1/2021 6:15:00 PM 12.14 53.852 0.378 7.89 6.65 10.1
11/1/2021 6:30:00 PM 12.12 53.816 0.378 7.89 7.11 10.09
11/1/2021 6:45:00 PM 12.09 53.762 0.378 7.89 7.36 10.07
11/1/2021 7:00:00 PM 12.05 53.69 0.377 7.88 7.42 10.06
11/1/2021 7:15:00 PM 12.02 53.636 0.378 7.88 7.95 10.04
11/1/2021 7:30:00 PM 11.98 53.564 0.378 7.88 7.54 10.03
11/1/2021 7:45:00 PM 11.95 53.51 0.378 7.88 8.72 10.02
11/1/2021 8:00:00 PM 11.92 53.456 0.378 7.88 7.83 10.01
11/1/2021 8:15:00 PM 11.89 53.402 0.379 7.87 8.06 10
11/1/2021 8:30:00 PM 11.86 53.348 0.378 7.87 8.36 9.99
11/1/2021 8:45:00 PM 11.83 53.294 0.378 7.87 8.72 9.98
11/1/2021 9:00:00 PM 11.79 53.222 0.379 7.87 8.12 9.97
11/1/2021 9:15:00 PM 11.76 53.168 0.38 7.87 8.64 9.97
11/1/2021 9:30:00 PM 11.73 53.114 0.379 7.87 9.09 9.96
11/1/2021 9:45:00 PM 11.7 53.06 0.379 7.87 8.12 9.96
11/1/2021 10:00:00 PM 11.66 52.988 0.379 7.87 8.38 9.96
11/1/2021 10:15:00 PM 11.63 52.934 0.379 7.86 8.58 9.95
11/1/2021 10:30:00 PM 11.59 52.862 0.38 7.86 10.31 9.95
11/1/2021 10:45:00 PM 11.55 52.79 0.38 7.86 9.04 9.96
11/1/2021 11:00:00 PM 11.51 52.718 0.38 7.86 8.11 9.96
11/1/2021 11:15:00 PM 11.47 52.646 0.38 7.86 8.97 9.96
11/1/2021 11:30:00 PM 11.43 52.574 0.38 7.86 8.89 9.97
11/1/2021 11:45:00 PM 11.39 52.502 0.38 7.86 8.65 9.97
11/2/2021 12:00:00 AM 11.35 52.43 0.38 7.86 8.56 9.98
11/2/2021 12:15:00 AM 11.31 52.358 0.381 7.85 8.28 9.98
11/2/2021 12:30:00 AM 11.27 52.286 0.381 7.85 8.78 9.99
11/2/2021 12:45:00 AM 11.23 52.214 0.381 7.85 8.54 10
11/2/2021 1:00:00 AM 11.19 52.142 0.381 7.85 8.42 10.01
11/2/2021 1:15:00 AM 11.16 52.088 0.381 7.85 8.28 10
11/2/2021 1:30:00 AM 11.13 52.034 0.381 7.85 8.17 10
11/2/2021 1:45:00 AM 11.11 51.998 0.381 7.85 8.15 10.02
11/2/2021 2:00:00 AM 11.09 51.962 0.381 7.85 9.41 10.01
11/2/2021 2:15:00 AM 11.08 51.944 0.381 7.85 8.56 10.02
11/2/2021 2:30:00 AM 11.06 51.908 0.382 7.86 7.8 10.02
11/2/2021 2:45:00 AM 11.04 51.872 0.382 7.86 7.85 10.02
11/2/2021 3:00:00 AM 11.02 51.836 0.382 7.85 7.79 10.03
11/2/2021 3:15:00 AM 11 51.8 0.382 7.85 8.08 10.05
11/2/2021 3:30:00 AM 10.98 51.764 0.382 7.85 7.85 10.05
11/2/2021 3:45:00 AM 10.97 51.746 0.382 7.85 8 10.05
11/2/2021 4:00:00 AM 10.95 51.71 0.382 7.85 7.91 10.06
11/2/2021 4:15:00 AM 10.93 51.674 0.383 7.85 7.66 10.06
11/2/2021 4:30:00 AM 10.92 51.656 0.382 7.85 8.17 10.06
11/2/2021 4:45:00 AM 10.9 51.62 0.383 7.85 8.4 10.07
11/2/2021 5:00:00 AM 10.88 51.584 0.383 7.85 7.89 10.08
11/2/2021 5:15:00 AM 10.87 51.566 0.383 7.85 7.96 10.08
11/2/2021 5:30:00 AM 10.85 51.53 0.383 7.85 8.08 10.09
11/2/2021 5:45:00 AM 10.84 51.512 0.382 7.85 8.02 10.09
11/2/2021 6:00:00 AM 10.82 51.476 0.383 7.85 8.15 10.1
11/2/2021 6:15:00 AM 10.81 51.458 0.383 7.85 8.19 10.1
11/2/2021 6:30:00 AM 10.8 51.44 0.383 7.85 8.15 10.11
11/2/2021 6:45:00 AM 10.78 51.404 0.384 7.85 8 10.11
11/2/2021 7:00:00 AM 10.77 51.386 0.383 7.85 8.49 10.12
11/2/2021 7:15:00 AM 10.76 51.368 0.383 7.85 8.18 10.13
11/2/2021 7:30:00 AM 10.75 51.35 0.384 7.85 8.05 10.13
11/2/2021 7:45:00 AM 10.73 51.314 0.384 7.85 7.85 10.14
11/2/2021 8:00:00 AM 10.73 51.314 0.383 7.86 7.63 10.15
11/2/2021 8:15:00 AM 10.72 51.296 0.384 7.85 7.59 10.16
11/2/2021 8:30:00 AM 10.72 51.296 0.384 7.86 7.51 10.18
11/2/2021 8:45:00 AM 10.71 51.278 0.383 7.86 7.54 10.18
11/2/2021 9:00:00 AM 10.7 51.26 0.384 7.86 7.24 10.21
11/2/2021 9:15:00 AM 10.69 51.242 0.384 7.86 7.48 10.23
11/2/2021 9:30:00 AM 10.68 51.224 0.384 7.86 7.31 10.26
11/2/2021 9:45:00 AM 10.68 51.224 0.384 7.87 7.07 10.28
11/2/2021 10:00:00 AM 10.68 51.224 0.384 7.87 7.01 10.3
11/2/2021 10:15:00 AM 10.69 51.242 0.384 7.87 7.4 10.34
11/2/2021 10:30:00 AM 10.7 51.26 0.384 7.88 7.04 10.37
11/2/2021 10:45:00 AM 10.7 51.26 0.384 7.88 6.99 10.4
11/2/2021 11:00:00 AM 10.7 51.26 0.385 7.88 7.04 10.42
11/2/2021 11:15:00 AM 10.71 51.278 0.384 7.89 6.97 10.46
11/2/2021 11:30:00 AM 10.72 51.296 0.384 7.89 6.91 10.49
11/2/2021 11:45:00 AM 10.73 51.314 0.384 7.89 6.99 10.52
11/2/2021 12:00:00 PM 10.75 51.35 0.384 7.9 6.88 10.54
11/2/2021 12:15:00 PM 10.76 51.368 0.384 7.9 7.2 10.58
11/2/2021 12:30:00 PM 10.77 51.386 0.384 7.9 7.04 10.6
11/2/2021 12:45:00 PM 10.79 51.422 0.384 7.9 7.04 10.62
11/2/2021 1:00:00 PM 10.8 51.44 0.384 7.91 6.86 10.65
11/2/2021 1:15:00 PM 10.81 51.458 0.384 7.91 6.91 10.68
11/2/2021 1:30:00 PM 10.84 51.512 0.384 7.92 6.71 10.71
11/2/2021 1:45:00 PM 10.86 51.548 0.384 7.92 6.78 10.73
11/2/2021 2:00:00 PM 10.87 51.566 0.384 7.92 6.7 10.74
11/2/2021 2:15:00 PM 10.88 51.584 0.384 7.93 6.86 10.75
11/2/2021 2:30:00 PM 10.88 51.584 0.384 7.93 6.63 10.76
11/2/2021 2:45:00 PM 10.88 51.584 0.384 7.93 6.62 10.75
11/2/2021 3:00:00 PM 10.88 51.584 0.384 7.93 6.85 10.75
11/2/2021 3:15:00 PM 10.89 51.602 0.384 7.93 6.63 10.74
11/2/2021 3:30:00 PM 10.89 51.602 0.384 7.93 6.74 10.74
11/2/2021 3:45:00 PM 10.9 51.62 0.384 7.93 6.61 10.73
11/2/2021 4:00:00 PM 10.9 51.62 0.384 7.93 6.65 10.72
11/2/2021 4:15:00 PM 10.9 51.62 0.384 7.93 6.56 10.71
11/2/2021 4:30:00 PM 10.9 51.62 0.384 7.93 6.63 10.7
11/2/2021 4:45:00 PM 10.9 51.62 0.384 7.93 6.77 10.68
11/2/2021 5:00:00 PM 10.89 51.602 0.384 7.93 6.42 10.66
11/2/2021 5:15:00 PM 10.89 51.602 0.384 7.92 6.63 10.64
11/2/2021 5:30:00 PM 10.88 51.584 0.384 7.92 6.54 10.62
11/2/2021 5:45:00 PM 10.88 51.584 0.384 7.92 6.45 10.6
11/2/2021 6:00:00 PM 10.86 51.548 0.384 7.92 6.42 10.57
11/2/2021 6:15:00 PM 10.84 51.512 0.384 7.92 6.46 10.54
11/2/2021 6:30:00 PM 10.81 51.458 0.384 7.91 6.4 10.51
11/2/2021 6:45:00 PM 10.78 51.404 0.385 7.91 6.65 10.48
11/2/2021 7:00:00 PM 10.75 51.35 0.385 7.91 6.69 10.47
11/2/2021 7:15:00 PM 10.72 51.296 0.384 7.91 7.67 10.45
11/2/2021 7:30:00 PM 10.69 51.242 0.385 7.9 7.3 10.44
11/2/2021 7:45:00 PM 10.66 51.188 0.385 7.9 7.3 10.43
11/2/2021 8:00:00 PM 10.64 51.152 0.385 7.9 7.04 10.42
11/2/2021 8:15:00 PM 10.62 51.116 0.384 7.9 7.67 10.41
11/2/2021 8:30:00 PM 10.59 51.062 0.385 7.9 8.33 10.39
11/2/2021 8:45:00 PM 10.57 51.026 0.384 7.89 7.4 10.39
11/2/2021 9:00:00 PM 10.54 50.972 0.385 7.89 7.08 10.39
11/2/2021 9:15:00 PM 10.51 50.918 0.385 7.89 7.04 10.37
11/2/2021 9:30:00 PM 10.48 50.864 0.385 7.89 7 10.37
11/2/2021 9:45:00 PM 10.44 50.792 0.385 7.89 7.13 10.35
11/2/2021 10:00:00 PM 10.4 50.72 0.386 7.89 7.53 10.36
11/2/2021 10:15:00 PM 10.37 50.666 0.385 7.89 7.17 10.35
11/2/2021 10:30:00 PM 10.33 50.594 0.385 7.88 7.32 10.35
11/2/2021 10:45:00 PM 10.28 50.504 0.385 7.88 7.16 10.35
11/2/2021 11:00:00 PM 10.24 50.432 0.385 7.88 7.48 10.36
11/2/2021 11:15:00 PM 10.2 50.36 0.385 7.88 7.4 10.35
11/2/2021 11:30:00 PM 10.15 50.27 0.386 7.88 7.27 10.36
11/2/2021 11:45:00 PM 10.11 50.198 0.385 7.88 7.47 10.37
11/3/2021 12:00:00 AM 10.06 50.108 0.386 7.88 8.07 10.37
11/3/2021 12:15:00 AM 10.02 50.036 0.386 7.88 7.56 10.38
11/3/2021 12:30:00 AM 9.98 49.964 0.386 7.88 7.66 10.39
11/3/2021 12:45:00 AM 9.95 49.91 0.386 7.88 8.68 10.39
11/3/2021 1:00:00 AM 9.91 49.838 0.386 7.88 7.49 10.39
11/3/2021 1:15:00 AM 9.86 49.748 0.386 7.88 7.4 10.4
11/3/2021 1:30:00 AM 9.83 49.694 0.386 7.88 7.38 10.39
11/3/2021 1:45:00 AM 9.78 49.604 0.386 7.88 7.57 10.41
11/3/2021 2:00:00 AM 9.74 49.532 0.385 7.87 7.49 10.42
11/3/2021 2:15:00 AM 9.7 49.46 0.386 7.87 7.53 10.42
11/3/2021 2:30:00 AM 9.66 49.388 0.386 7.87 7.51 10.43
11/3/2021 2:45:00 AM 9.62 49.316 0.386 7.87 7.46 10.43
11/3/2021 3:00:00 AM 9.57 49.226 0.385 7.87 8.51 10.45
11/3/2021 3:15:00 AM 9.54 49.172 0.386 7.87 7.51 10.46
11/3/2021 3:30:00 AM 9.49 49.082 0.386 7.87 7.88 10.47
11/3/2021 3:45:00 AM 9.45 49.01 0.386 7.87 7.91 10.49
11/3/2021 4:00:00 AM 9.41 48.938 0.386 7.87 7.86 10.49
11/3/2021 4:15:00 AM 9.37 48.866 0.386 7.87 8.34 10.51
11/3/2021 4:30:00 AM 9.33 48.794 0.386 7.87 7.67 10.52
11/3/2021 4:45:00 AM 9.28 48.704 0.386 7.87 7.59 10.52
11/3/2021 5:00:00 AM 9.24 48.632 0.386 7.87 7.85 10.53
11/3/2021 5:15:00 AM 9.2 48.56 0.386 7.87 8.12 10.54
11/3/2021 5:30:00 AM 9.16 48.488 0.386 7.87 7.97 10.55
11/3/2021 5:45:00 AM 9.12 48.416 0.387 7.87 8.03 10.55
11/3/2021 6:00:00 AM 9.08 48.344 0.387 7.87 7.96 10.57
11/3/2021 6:15:00 AM 9.03 48.254 0.387 7.87 7.55 10.58
11/3/2021 6:30:00 AM 8.99 48.182 0.387 7.87 7.67 10.59
11/3/2021 6:45:00 AM 8.94 48.092 0.387 7.87 7.29 10.6
11/3/2021 7:00:00 AM 8.9 48.02 0.387 7.87 7.65 10.62
11/3/2021 7:15:00 AM 8.85 47.93 0.387 7.87 7.53 10.63
11/3/2021 7:30:00 AM 8.81 47.858 0.387 7.87 7.36 10.64
11/3/2021 7:45:00 AM 8.76 47.768 0.388 7.87 7.23 10.66
11/3/2021 8:00:00 AM 8.72 47.696 0.387 7.87 7.4 10.68
11/3/2021 8:15:00 AM 8.68 47.624 0.387 7.87 7.46 10.7
11/3/2021 8:30:00 AM 8.66 47.588 0.387 7.88 7.3 10.72
11/3/2021 8:45:00 AM 8.64 47.552 0.388 7.88 7.32 10.76
11/3/2021 9:00:00 AM 8.63 47.534 0.388 7.88 7.32 10.79
11/3/2021 9:15:00 AM 8.62 47.516 0.387 7.88 7.13 10.83
11/3/2021 9:30:00 AM 8.63 47.534 0.389 7.88 7.08 10.87
11/3/2021 9:45:00 AM 8.63 47.534 0.389 7.89 6.94 10.9
11/3/2021 10:00:00 AM 8.65 47.57 0.388 7.89 6.87 10.92
11/3/2021 10:15:00 AM 8.67 47.606 0.388 7.9 7.06 10.97
11/3/2021 10:30:00 AM 8.7 47.66 0.388 7.9 6.81 11
11/3/2021 10:45:00 AM 8.74 47.732 0.388 7.91 6.81 11.04
11/3/2021 11:00:00 AM 8.79 47.822 0.388 7.91 6.97 11.1
11/3/2021 11:15:00 AM 8.85 47.93 0.388 7.91 6.88 11.13
11/3/2021 11:30:00 AM 8.91 48.038 0.388 7.92 6.68 11.17
11/3/2021 11:45:00 AM 8.99 48.182 0.388 7.92 6.79 11.21
11/3/2021 12:00:00 PM 9.06 48.308 0.388 7.92 6.72 11.23
11/3/2021 12:15:00 PM 9.14 48.452 0.388 7.93 6.97 11.26
11/3/2021 12:30:00 PM 9.22 48.596 0.389 7.93 6.61 11.28
11/3/2021 12:45:00 PM 9.31 48.758 0.389 7.93 6.58 11.32
11/3/2021 1:00:00 PM -99999.99 -179968 -99999.99 -99999.99 -99999.99 -99999.99
11/3/2021 1:15:00 PM -99999.99 -179968 -99999.99 -99999.99 -99999.99 -99999.99
11/3/2021 1:30:00 PM -99999.99 -179968 -99999.99 -99999.99 -99999.99 -99999.99
11/3/2021 1:45:00 PM -99999.99 -179968 -99999.99 -99999.99 -99999.99 -99999.99
11/3/2021 2:00:00 PM -99999.99 -179968 -99999.99 -99999.99 -99999.99 -99999.99
11/3/2021 2:15:00 PM 8.71 47.678 0.008 7.13 2.68 11.07
11/3/2021 2:30:00 PM 9.36 48.848 0.402 7.72 3.13 10.93
11/3/2021 2:45:00 PM 9.37 48.866 0.402 7.74 2.63 10.95
11/3/2021 3:00:00 PM 9.46 49.028 0.402 7.75 2.68 10.98
11/3/2021 3:15:00 PM 9.43 48.974 0.402 7.75 2.66 10.96
11/3/2021 3:30:00 PM 9.48 49.064 0.402 7.76 2.66 10.96
11/3/2021 3:45:00 PM 9.49 49.082 0.402 7.76 2.6 10.94
11/3/2021 4:00:00 PM 9.49 49.082 0.402 7.77 2.71 10.91
11/3/2021 4:15:00 PM 9.48 49.064 0.402 7.77 2.88 10.9
11/3/2021 4:30:00 PM 9.47 49.046 0.402 7.76 2.72 10.87
11/3/2021 4:45:00 PM 9.46 49.028 0.402 7.77 2.82 10.84
11/3/2021 5:00:00 PM 9.44 48.992 0.402 7.76 2.6 10.8
11/3/2021 5:15:00 PM 9.43 48.974 0.403 7.77 2.62 10.78
11/3/2021 5:30:00 PM 9.42 48.956 0.403 7.76 2.67 10.74
11/3/2021 5:45:00 PM 9.41 48.938 0.403 7.76 2.76 10.71
11/3/2021 6:00:00 PM 9.39 48.902 0.403 7.75 2.66 10.67
11/3/2021 6:15:00 PM 9.37 48.866 0.403 7.75 2.49 10.64
11/3/2021 6:30:00 PM 9.35 48.83 0.403 7.75 2.68 10.61
11/3/2021 6:45:00 PM 9.33 48.794 0.403 7.75 2.48 10.58
11/3/2021 7:00:00 PM 9.31 48.758 0.403 7.74 2.65 10.55
11/3/2021 7:15:00 PM 9.29 48.722 0.403 7.74 2.73 10.53
11/3/2021 7:30:00 PM 9.26 48.668 0.403 7.74 2.85 10.51
11/3/2021 7:45:00 PM 9.23 48.614 0.403 7.74 2.92 10.5
11/3/2021 8:00:00 PM 9.21 48.578 0.403 7.74 2.57 10.48
11/3/2021 8:15:00 PM 9.19 48.542 0.403 7.74 2.78 10.45
11/3/2021 8:30:00 PM 9.17 48.506 0.403 7.73 2.8 10.44
11/3/2021 8:45:00 PM 9.15 48.47 0.403 7.73 2.9 10.42
11/3/2021 9:00:00 PM 9.13 48.434 0.404 7.73 2.92 10.41
11/3/2021 9:15:00 PM 9.1 48.38 0.403 7.72 2.87 10.4
11/3/2021 9:30:00 PM 9.07 48.326 0.403 7.72 3.5 10.38
11/3/2021 9:45:00 PM 9.04 48.272 0.404 7.72 3 10.37
11/3/2021 10:00:00 PM 9.01 48.218 0.404 7.72 3.05 10.36
11/3/2021 10:15:00 PM 8.98 48.164 0.404 7.71 3.04 10.36
11/3/2021 10:30:00 PM 8.95 48.11 0.404 7.72 2.96 10.35
11/3/2021 10:45:00 PM 8.92 48.056 0.404 7.71 2.99 10.35
11/3/2021 11:00:00 PM 8.9 48.02 0.404 7.72 3.05 10.34
11/3/2021 11:15:00 PM 8.87 47.966 0.404 7.71 2.9 10.34
11/3/2021 11:30:00 PM 8.84 47.912 0.404 7.71 2.96 10.34
11/3/2021 11:45:00 PM 8.81 47.858 0.404 7.71 2.97 10.35
11/4/2021 12:00:00 AM 8.79 47.822 0.404 7.71 3.05 10.34
11/4/2021 12:15:00 AM 8.76 47.768 0.404 7.71 3.15 10.34
11/4/2021 12:30:00 AM 8.73 47.714 0.404 7.71 3.22 10.34
11/4/2021 12:45:00 AM 8.7 47.66 0.404 7.71 3.27 10.35
11/4/2021 1:00:00 AM 8.67 47.606 0.404 7.71 3 10.35
11/4/2021 1:15:00 AM 8.64 47.552 0.404 7.71 3.17 10.35
11/4/2021 1:30:00 AM 8.61 47.498 0.404 7.71 3.27 10.35
11/4/2021 1:45:00 AM 8.58 47.444 0.404 7.71 3.22 10.35
11/4/2021 2:00:00 AM 8.54 47.372 0.404 7.71 3.14 10.36
11/4/2021 2:15:00 AM 8.52 47.336 0.405 7.71 3.23 10.36
11/4/2021 2:30:00 AM 8.49 47.282 0.405 7.7 3.18 10.37
11/4/2021 2:45:00 AM 8.45 47.21 0.405 7.71 3.5 10.37
11/4/2021 3:00:00 AM 8.42 47.156 0.405 7.7 3.38 10.38
11/4/2021 3:15:00 AM 8.39 47.102 0.405 7.7 3.37 10.38
11/4/2021 3:30:00 AM 8.36 47.048 0.405 7.71 3.4 10.39
11/4/2021 3:45:00 AM 8.32 46.976 0.405 7.7 3.44 10.4
11/4/2021 4:00:00 AM 8.28 46.904 0.405 7.7 3.26 10.41
11/4/2021 4:15:00 AM 8.25 46.85 0.405 7.7 3.35 10.41
11/4/2021 4:30:00 AM 8.22 46.796 0.405 7.71 3.33 10.42
11/4/2021 4:45:00 AM 8.19 46.742 0.405 7.7 3.42 10.42
11/4/2021 5:00:00 AM 8.15 46.67 0.405 7.7 3.51 10.44
11/4/2021 5:15:00 AM 8.11 46.598 0.406 7.7 3.4 10.45
11/4/2021 5:30:00 AM 8.08 46.544 0.405 7.7 3.47 10.45
11/4/2021 5:45:00 AM 8.04 46.472 0.405 7.7 4.47 10.46
11/4/2021 6:00:00 AM 8.01 46.418 0.406 7.7 3.16 10.47
11/4/2021 6:15:00 AM 7.97 46.346 0.406 7.7 5.17 10.48
11/4/2021 6:30:00 AM 7.93 46.274 0.406 7.71 3.82 10.48
11/4/2021 6:45:00 AM 7.9 46.22 0.406 7.7 3.29 10.5
11/4/2021 7:00:00 AM 7.87 46.166 0.406 7.7 3.14 10.5
11/4/2021 7:15:00 AM 7.83 46.094 0.406 7.7 3.1 10.51
11/4/2021 7:30:00 AM 7.79 46.022 0.406 7.7 3.06 10.53
11/4/2021 7:45:00 AM 7.76 45.968 0.406 7.71 3.27 10.54
11/4/2021 8:00:00 AM 7.72 45.896 0.406 7.7 3.05 10.55
11/4/2021 8:15:00 AM 7.69 45.842 0.406 7.7 3.31 10.56
11/4/2021 8:30:00 AM 7.67 45.806 0.406 7.71 2.97 10.58
11/4/2021 8:45:00 AM 7.66 45.788 0.406 7.7 3 10.62
11/4/2021 9:00:00 AM 7.66 45.788 0.406 7.7 3.06 10.66
11/4/2021 9:15:00 AM 7.67 45.806 0.406 7.71 3.17 10.69
11/4/2021 9:30:00 AM 7.67 45.806 0.406 7.71 2.85 10.73
11/4/2021 9:45:00 AM 7.66 45.788 0.406 7.71 6.14 10.75
11/4/2021 10:00:00 AM 7.69 45.842 0.406 7.72 2.94 10.78
11/4/2021 10:15:00 AM 7.71 45.878 0.406 7.72 2.87 10.82
11/4/2021 10:30:00 AM 7.75 45.95 0.406 7.73 2.89 10.86
11/4/2021 10:45:00 AM 7.81 46.058 0.406 7.73 2.77 10.9
11/4/2021 11:00:00 AM 7.87 46.166 0.406 7.74 2.65 10.95
11/4/2021 11:15:00 AM 7.91 46.238 0.406 7.74 2.64 10.99
11/4/2021 11:30:00 AM 7.98 46.364 0.406 7.75 2.9 11.03
11/4/2021 11:45:00 AM 8.02 46.436 0.406 7.75 2.79 11.07
11/4/2021 12:00:00 PM 8.1 46.58 0.406 7.75 2.54 11.11
11/4/2021 12:15:00 PM 8.16 46.688 0.406 7.76 2.95 11.15
11/4/2021 12:30:00 PM 8.25 46.85 0.406 7.76 2.57 11.18
11/4/2021 12:45:00 PM 8.34 47.012 0.406 7.77 2.63 11.21
11/4/2021 1:00:00 PM 8.41 47.138 0.406 7.77 2.55 11.24
11/4/2021 1:15:00 PM 8.49 47.282 0.406 7.78 2.53 11.28
11/4/2021 1:30:00 PM 8.57 47.426 0.406 7.78 2.64 11.3
11/4/2021 1:45:00 PM 8.61 47.498 0.406 7.79 2.42 11.32
11/4/2021 2:00:00 PM 8.66 47.588 0.406 7.79 2.5 11.33
11/4/2021 2:15:00 PM 8.71 47.678 0.406 7.79 2.29 11.34
11/4/2021 2:30:00 PM 8.72 47.696 0.406 7.8 2.27 11.33
11/4/2021 2:45:00 PM 8.75 47.75 0.406 7.8 2.5 11.34
11/4/2021 3:00:00 PM 8.77 47.786 0.406 7.8 2.36 11.35
11/4/2021 3:15:00 PM 8.77 47.786 0.406 7.81 2.41 11.33
11/4/2021 3:30:00 PM 8.8 47.84 0.406 7.8 2.44 11.33
11/4/2021 3:45:00 PM 8.81 47.858 0.406 7.81 2.32 11.32
11/4/2021 4:00:00 PM 8.84 47.912 0.406 7.81 2.31 11.29
11/4/2021 4:15:00 PM 8.86 47.948 0.406 7.8 2.56 11.27
11/4/2021 4:30:00 PM 8.88 47.984 0.406 7.8 2.41 11.24
11/4/2021 4:45:00 PM 8.89 48.002 0.406 7.8 2.66 11.2
11/4/2021 5:00:00 PM 8.89 48.002 0.406 7.8 2.41 11.16
11/4/2021 5:15:00 PM 8.89 48.002 0.406 7.8 2.46 11.11
11/4/2021 5:30:00 PM 8.88 47.984 0.406 7.8 2.31 11.07
11/4/2021 5:45:00 PM 8.88 47.984 0.406 7.79 2.44 11.01
11/4/2021 6:00:00 PM 8.86 47.948 0.406 7.79 2.59 10.97
11/4/2021 6:15:00 PM 8.85 47.93 0.406 7.78 2.54 10.92
11/4/2021 6:30:00 PM 8.84 47.912 0.406 7.78 2.51 10.88
11/4/2021 6:45:00 PM 8.81 47.858 0.406 7.77 2.48 10.84
11/4/2021 7:00:00 PM 8.78 47.804 0.406 7.77 2.6 10.81
11/4/2021 7:15:00 PM 8.75 47.75 0.406 7.77 2.51 10.78
11/4/2021 7:30:00 PM 8.72 47.696 0.406 7.76 2.73 10.75
11/4/2021 7:45:00 PM 8.69 47.642 0.406 7.76 3.01 10.73
11/4/2021 8:00:00 PM 8.66 47.588 0.406 7.76 2.68 10.71
11/4/2021 8:15:00 PM 8.64 47.552 0.406 7.76 2.9 10.69
11/4/2021 8:30:00 PM 8.62 47.516 0.406 7.76 2.83 10.68
11/4/2021 8:45:00 PM 8.59 47.462 0.406 7.75 3.38 10.65
11/4/2021 9:00:00 PM 8.56 47.408 0.407 7.75 2.7 10.64
11/4/2021 9:15:00 PM 8.53 47.354 0.407 7.75 2.54 10.61
11/4/2021 9:30:00 PM 8.5 47.3 0.407 7.74 2.68 10.6
11/4/2021 9:45:00 PM 8.46 47.228 0.407 7.74 2.71 10.58
11/4/2021 10:00:00 PM 8.43 47.174 0.407 7.74 2.69 10.57
11/4/2021 10:15:00 PM 8.4 47.12 0.406 7.74 2.72 10.56
11/4/2021 10:30:00 PM 8.38 47.084 0.407 7.74 2.73 10.55
11/4/2021 10:45:00 PM 8.34 47.012 0.407 7.73 2.58 10.54
11/4/2021 11:00:00 PM 8.32 46.976 0.407 7.74 2.81 10.52
11/4/2021 11:15:00 PM 8.29 46.922 0.407 7.73 2.82 10.53
11/4/2021 11:30:00 PM 8.26 46.868 0.407 7.73 2.66 10.52
11/4/2021 11:45:00 PM 8.23 46.814 0.407 7.73 2.69 10.52
11/5/2021 12:00:00 AM 8.2 46.76 0.407 7.73 2.79 10.52
11/5/2021 12:15:00 AM 8.18 46.724 0.407 7.72 2.75 10.52
11/5/2021 12:30:00 AM 8.14 46.652 0.407 7.73 2.72 10.51
11/5/2021 12:45:00 AM 8.12 46.616 0.407 7.72 2.74 10.51
11/5/2021 1:00:00 AM 8.08 46.544 0.407 7.73 2.99 10.51
11/5/2021 1:15:00 AM 8.05 46.49 0.407 7.72 3.07 10.51
11/5/2021 1:30:00 AM 8.02 46.436 0.407 7.72 2.64 10.51
11/5/2021 1:45:00 AM 7.99 46.382 0.407 7.72 2.77 10.52
11/5/2021 2:00:00 AM 7.95 46.31 0.407 7.72 2.81 10.52
11/5/2021 2:15:00 AM 7.91 46.238 0.407 7.72 2.95 10.52
11/5/2021 2:30:00 AM 7.89 46.202 0.408 7.72 2.85 10.52
11/5/2021 2:45:00 AM 7.85 46.13 0.408 7.72 3.12 10.52
11/5/2021 3:00:00 AM 7.81 46.058 0.407 7.71 2.86 10.53
11/5/2021 3:15:00 AM 7.77 45.986 0.407 7.72 2.93 10.54
11/5/2021 3:30:00 AM 7.74 45.932 0.407 7.72 2.84 10.54
11/5/2021 3:45:00 AM 7.7 45.86 0.407 7.71 3.17 10.55
11/5/2021 4:00:00 AM 7.68 45.824 0.408 7.71 3.38 10.56
11/5/2021 4:15:00 AM 7.64 45.752 0.408 7.71 2.99 10.56
11/5/2021 4:30:00 AM 7.61 45.698 0.407 7.71 2.81 10.58
11/5/2021 4:45:00 AM 7.57 45.626 0.408 7.71 2.81 10.58
11/5/2021 5:00:00 AM 7.54 45.572 0.408 7.71 3 10.59
11/5/2021 5:15:00 AM 7.51 45.518 0.408 7.71 3.28 10.6
11/5/2021 5:30:00 AM 7.47 45.446 0.408 7.71 2.68 10.6
11/5/2021 5:45:00 AM 7.44 45.392 0.408 7.71 2.77 10.62
11/5/2021 6:00:00 AM 7.4 45.32 0.408 7.71 3.02 10.62
11/5/2021 6:15:00 AM 7.37 45.266 0.408 7.71 3.4 10.63
11/5/2021 6:30:00 AM 7.34 45.212 0.408 7.71 4.93 10.64
11/5/2021 6:45:00 AM 7.3 45.14 0.408 7.71 3.2 10.65
11/5/2021 7:00:00 AM 7.27 45.086 0.408 7.71 3.45 10.66
11/5/2021 7:15:00 AM 7.23 45.014 0.408 7.71 2.94 10.67
11/5/2021 7:30:00 AM 7.19 44.942 0.408 7.71 3.22 10.68
11/5/2021 7:45:00 AM 7.17 44.906 0.408 7.71 2.67 10.69
11/5/2021 8:00:00 AM 7.14 44.852 0.408 7.71 2.76 10.71
11/5/2021 8:15:00 AM 7.11 44.798 0.408 7.71 2.71 10.72
11/5/2021 8:30:00 AM 7.11 44.798 0.408 7.71 2.71 10.75
11/5/2021 8:45:00 AM 7.1 44.78 0.408 7.71 2.7 10.79
11/5/2021 9:00:00 AM 7.11 44.798 0.408 7.72 2.92 10.84
11/5/2021 9:15:00 AM 7.13 44.834 0.409 7.72 2.64 10.88
11/5/2021 9:30:00 AM 7.15 44.87 0.409 7.72 2.59 10.91
11/5/2021 9:45:00 AM 7.16 44.888 0.409 7.73 2.85 10.93
11/5/2021 10:00:00 AM 7.19 44.942 0.409 7.73 2.61 10.96
11/5/2021 10:15:00 AM 7.23 45.014 0.409 7.73 2.66 11
11/5/2021 10:30:00 AM 7.29 45.122 0.409 7.73 2.6 11.05
11/5/2021 10:45:00 AM 7.37 45.266 0.409 7.74 2.49 11.1
11/5/2021 11:00:00 AM 7.45 45.41 0.409 7.74 2.42 11.15
11/5/2021 11:15:00 AM 7.54 45.572 0.409 7.75 2.53 11.19
11/5/2021 11:30:00 AM 7.62 45.716 0.409 7.76 2.46 11.23
11/5/2021 11:45:00 AM 7.72 45.896 0.409 7.76 2.68 11.26
11/5/2021 12:00:00 PM 7.83 46.094 0.409 7.76 2.48 11.29
11/5/2021 12:15:00 PM 7.95 46.31 0.408 7.77 2.42 11.33
11/5/2021 12:30:00 PM 8.06 46.508 0.408 7.78 2.43 11.34
11/5/2021 12:45:00 PM 8.14 46.652 0.408 7.78 2.56 11.37
11/5/2021 1:00:00 PM 8.23 46.814 0.408 7.78 2.64 11.38
11/5/2021 1:15:00 PM 8.21 46.778 0.408 7.79 2.47 11.36
11/5/2021 1:30:00 PM 8.26 46.868 0.408 7.78 2.91 11.36
11/5/2021 1:45:00 PM 8.34 47.012 0.408 7.8 2.56 11.41
11/5/2021 2:00:00 PM 8.36 47.048 0.409 7.79 2.59 11.42
11/5/2021 2:15:00 PM 8.42 47.156 0.409 7.8 2.72 11.43
11/5/2021 2:30:00 PM 8.49 47.282 0.409 7.8 2.54 11.42
11/5/2021 2:45:00 PM 8.54 47.372 0.409 7.8 2.45 11.42
11/5/2021 3:00:00 PM 8.54 47.372 0.409 7.8 2.74 11.43
11/5/2021 3:15:00 PM 8.53 47.354 0.409 7.8 2.46 11.42
11/5/2021 3:30:00 PM 8.54 47.372 0.409 7.81 2.52 11.41
11/5/2021 3:45:00 PM 8.54 47.372 0.409 7.81 2.4 11.39
11/5/2021 4:00:00 PM 8.55 47.39 0.409 7.81 2.64 11.37
11/5/2021 4:15:00 PM 8.55 47.39 0.409 7.8 2.51 11.33
11/5/2021 4:30:00 PM 8.55 47.39 0.409 7.8 2.46 11.3
11/5/2021 4:45:00 PM 8.55 47.39 0.409 7.8 2.46 11.26
11/5/2021 5:00:00 PM 8.55 47.39 0.409 7.79 6.4 11.22
11/5/2021 5:15:00 PM 8.54 47.372 0.409 7.8 2.43 11.17
11/5/2021 5:30:00 PM 8.53 47.354 0.409 7.79 2.39 11.13
11/5/2021 5:45:00 PM 8.52 47.336 0.409 7.79 2.38 11.08
11/5/2021 6:00:00 PM 8.52 47.336 0.409 7.78 2.32 11.04
11/5/2021 6:15:00 PM 8.5 47.3 0.409 7.78 2.48 11
11/5/2021 6:30:00 PM 8.48 47.264 0.409 7.78 2.3 10.96
11/5/2021 6:45:00 PM 8.45 47.21 0.409 7.77 2.56 10.92
11/5/2021 7:00:00 PM 8.42 47.156 0.409 7.77 2.78 10.9
11/5/2021 7:15:00 PM 8.38 47.084 0.409 7.77 2.45 10.86
11/5/2021 7:30:00 PM 8.34 47.012 0.409 7.76 2.85 10.84
11/5/2021 7:45:00 PM 8.31 46.958 0.409 7.76 2.63 10.82
11/5/2021 8:00:00 PM 8.27 46.886 0.409 7.76 3.44 10.81
11/5/2021 8:15:00 PM 8.24 46.832 0.409 7.75 3.14 10.78
11/5/2021 8:30:00 PM 8.21 46.778 0.409 7.76 2.9 10.77
11/5/2021 8:45:00 PM 8.18 46.724 0.409 7.75 2.63 10.76
11/5/2021 9:00:00 PM 8.15 46.67 0.409 7.75 2.83 10.75
11/5/2021 9:15:00 PM 8.11 46.598 0.409 7.74 2.91 10.73
11/5/2021 9:30:00 PM 8.08 46.544 0.41 7.74 2.9 10.71
11/5/2021 9:45:00 PM 8.04 46.472 0.41 7.74 2.74 10.7
11/5/2021 10:00:00 PM 8.01 46.418 0.41 7.74 2.73 10.69
11/5/2021 10:15:00 PM 7.99 46.382 0.41 7.74 2.88 10.68
11/5/2021 10:30:00 PM 7.95 46.31 0.41 7.73 2.86 10.67
11/5/2021 10:45:00 PM 7.92 46.256 0.41 7.74 2.79 10.66
11/5/2021 11:00:00 PM 7.89 46.202 0.41 7.73 3.02 10.66
11/5/2021 11:15:00 PM 7.86 46.148 0.41 7.73 2.84 10.65
11/5/2021 11:30:00 PM 7.83 46.094 0.41 7.73 2.92 10.64
11/5/2021 11:45:00 PM 7.8 46.04 0.41 7.73 3.37 10.64
11/6/2021 12:00:00 AM 7.77 45.986 0.41 7.73 3.23 10.64
11/6/2021 12:15:00 AM 7.74 45.932 0.41 7.72 3.18 10.64
11/6/2021 12:30:00 AM 7.71 45.878 0.41 7.72 3.54 10.64
11/6/2021 12:45:00 AM 7.68 45.824 0.41 7.72 3.06 10.64
11/6/2021 1:00:00 AM 7.65 45.77 0.41 7.72 3.04 10.65
11/6/2021 1:15:00 AM 7.61 45.698 0.41 7.72 3.13 10.65
11/6/2021 1:30:00 AM 7.58 45.644 0.41 7.72 3.12 10.65
11/6/2021 1:45:00 AM 7.54 45.572 0.411 7.72 2.93 10.65
11/6/2021 2:00:00 AM 7.51 45.518 0.411 7.71 3.08 10.66
11/6/2021 2:15:00 AM 7.48 45.464 0.411 7.72 3.01 10.66
11/6/2021 2:30:00 AM 7.44 45.392 0.411 7.71 3.26 10.67
11/6/2021 2:45:00 AM 7.41 45.338 0.411 7.71 2.94 10.68
11/6/2021 3:00:00 AM 7.37 45.266 0.411 7.71 3.01 10.68
11/6/2021 3:15:00 AM 7.34 45.212 0.411 7.71 3.01 10.68
11/6/2021 3:30:00 AM 7.3 45.14 0.411 7.72 3.1 10.69
11/6/2021 3:45:00 AM 7.27 45.086 0.411 7.71 3.22 10.7
11/6/2021 4:00:00 AM 7.24 45.032 0.411 7.71 2.98 10.7
11/6/2021 4:15:00 AM 7.2 44.96 0.411 7.71 3.31 10.71
11/6/2021 4:30:00 AM 7.16 44.888 0.411 7.71 3.34 10.72
11/6/2021 4:45:00 AM 7.14 44.852 0.411 7.71 3.34 10.72
11/6/2021 5:00:00 AM 7.1 44.78 0.411 7.71 3.28 10.73
11/6/2021 5:15:00 AM 7.07 44.726 0.411 7.71 3.22 10.73
11/6/2021 5:30:00 AM 7.03 44.654 0.411 7.71 2.98 10.74
11/6/2021 5:45:00 AM 7 44.6 0.411 7.71 3.18 10.76
11/6/2021 6:00:00 AM 6.96 44.528 0.411 7.71 3.13 10.77
11/6/2021 6:15:00 AM 6.93 44.474 0.411 7.71 3.47 10.78
11/6/2021 6:30:00 AM 6.89 44.402 0.411 7.71 3.84 10.79
11/6/2021 6:45:00 AM 6.85 44.33 0.411 7.71 3.68 10.8
11/6/2021 7:00:00 AM 6.82 44.276 0.411 7.71 3.41 10.81
11/6/2021 7:15:00 AM 6.78 44.204 0.411 7.71 2.99 10.82
11/6/2021 7:30:00 AM 6.74 44.132 0.411 7.71 2.73 10.83
11/6/2021 7:45:00 AM 6.7 44.06 0.411 7.71 3.02 10.84
11/6/2021 8:00:00 AM 6.68 44.024 0.412 7.71 2.64 10.86
11/6/2021 8:15:00 AM 6.65 43.97 0.412 7.71 4.95 10.87
11/6/2021 8:30:00 AM 6.63 43.934 0.412 7.71 2.93 10.9
11/6/2021 8:45:00 AM 6.62 43.916 0.412 7.71 2.79 10.94
11/6/2021 9:00:00 AM 6.63 43.934 0.412 7.72 2.66 10.98
11/6/2021 9:15:00 AM 6.64 43.952 0.412 7.72 2.82 11.02
11/6/2021 9:30:00 AM 6.67 44.006 0.412 7.73 2.86 11.07
11/6/2021 9:45:00 AM 6.67 44.006 0.412 7.73 2.78 11.1
11/6/2021 10:00:00 AM 6.71 44.078 0.412 7.73 2.67 11.14
11/6/2021 10:15:00 AM 6.75 44.15 0.412 7.74 2.71 11.18
11/6/2021 10:30:00 AM 6.82 44.276 0.411 7.74 2.67 11.22
11/6/2021 10:45:00 AM 6.9 44.42 0.411 7.75 2.79 11.27
11/6/2021 11:00:00 AM 6.99 44.582 0.411 7.75 2.87 11.33
11/6/2021 11:15:00 AM 7.08 44.744 0.412 7.76 2.92 11.37
11/6/2021 11:30:00 AM 7.17 44.906 0.412 7.76 2.69 11.4
11/6/2021 11:45:00 AM 7.28 45.104 0.411 7.77 2.78 11.44
11/6/2021 12:00:00 PM 7.39 45.302 0.411 7.77 2.69 11.48
11/6/2021 12:15:00 PM 7.5 45.5 0.412 7.78 2.4 11.52
11/6/2021 12:30:00 PM 7.63 45.734 0.411 7.78 2.48 11.53
11/6/2021 12:45:00 PM 7.74 45.932 0.411 7.79 2.52 11.56
11/6/2021 1:00:00 PM 7.82 46.076 0.412 7.79 2.46 11.57
11/6/2021 1:15:00 PM 7.9 46.22 0.411 7.79 2.55 11.59
11/6/2021 1:30:00 PM 7.95 46.31 0.411 7.8 2.42 11.61
11/6/2021 1:45:00 PM 8.02 46.436 0.411 7.8 2.47 11.62
11/6/2021 2:00:00 PM 8.06 46.508 0.411 7.81 2.22 11.63
11/6/2021 2:15:00 PM 8.08 46.544 0.407 7.81 2.54 11.63
11/6/2021 2:30:00 PM 8.11 46.598 0.411 7.81 2.25 11.62
11/6/2021 2:45:00 PM 8.14 46.652 0.411 7.81 2.42 11.62
11/6/2021 3:00:00 PM 8.16 46.688 0.411 7.81 2.37 11.62
11/6/2021 3:15:00 PM 8.16 46.688 0.411 7.81 2.36 11.6
11/6/2021 3:30:00 PM 8.16 46.688 0.411 7.81 2.41 11.58
11/6/2021 3:45:00 PM 8.16 46.688 0.411 7.81 2.43 11.56
11/6/2021 4:00:00 PM 8.16 46.688 0.411 7.82 2.53 11.53
11/6/2021 4:15:00 PM 8.17 46.706 0.411 7.81 7.21 11.5
11/6/2021 4:30:00 PM 8.18 46.724 0.411 7.81 2.45 11.47
11/6/2021 4:45:00 PM 8.19 46.742 0.411 7.81 2.45 11.43
11/6/2021 5:00:00 PM 8.2 46.76 0.411 7.81 2.58 11.39
11/6/2021 5:15:00 PM 8.21 46.778 0.411 7.8 2.71 11.35
11/6/2021 5:30:00 PM 8.22 46.796 0.411 7.8 2.55 11.29
11/6/2021 5:45:00 PM 8.22 46.796 0.411 7.79 2.55 11.24
11/6/2021 6:00:00 PM 8.22 46.796 0.412 7.79 2.44 11.18
11/6/2021 6:15:00 PM 8.21 46.778 0.411 7.79 2.68 11.13
11/6/2021 6:30:00 PM 8.19 46.742 0.411 7.78 2.41 11.09
11/6/2021 6:45:00 PM 8.16 46.688 0.411 7.78 2.56 11.05
11/6/2021 7:00:00 PM 8.13 46.634 0.411 7.77 2.51 11.01
11/6/2021 7:15:00 PM 8.1 46.58 0.411 7.77 2.85 10.99
11/6/2021 7:30:00 PM 8.07 46.526 0.411 7.77 2.73 10.96
11/6/2021 7:45:00 PM 8.04 46.472 0.411 7.76 2.74 10.94
11/6/2021 8:00:00 PM 8.01 46.418 0.411 7.76 2.52 10.93
11/6/2021 8:15:00 PM 7.99 46.382 0.411 7.76 2.61 10.9
11/6/2021 8:30:00 PM 7.96 46.328 0.411 7.76 2.78 10.88
11/6/2021 8:45:00 PM 7.93 46.274 0.412 7.75 2.58 10.86
11/6/2021 9:00:00 PM 7.9 46.22 0.412 7.75 2.67 10.84
11/6/2021 9:15:00 PM 7.87 46.166 0.412 7.75 2.71 10.82
11/6/2021 9:30:00 PM 7.84 46.112 0.412 7.75 2.79 10.8
11/6/2021 9:45:00 PM 7.81 46.058 0.412 7.74 2.7 10.79
11/6/2021 10:00:00 PM 7.78 46.004 0.412 7.74 2.87 10.77
11/6/2021 10:15:00 PM 7.75 45.95 0.412 7.74 2.85 10.75
11/6/2021 10:30:00 PM 7.73 45.914 0.412 7.74 2.87 10.74
11/6/2021 10:45:00 PM 7.7 45.86 0.412 7.73 2.53 10.73
11/6/2021 11:00:00 PM 7.68 45.824 0.412 7.73 2.43 10.72
11/6/2021 11:15:00 PM 7.66 45.788 0.412 7.73 2.76 10.71
11/6/2021 11:30:00 PM 7.64 45.752 0.412 7.73 2.75 10.7
11/6/2021 11:45:00 PM 7.62 45.716 0.412 7.73 2.82 10.7
11/7/2021 12:00:00 AM 7.59 45.662 0.412 7.73 2.84 10.69
11/7/2021 12:15:00 AM 7.57 45.626 0.412 7.73 2.62 10.68
11/7/2021 12:30:00 AM 7.54 45.572 0.412 7.73 2.8 10.68
11/7/2021 12:45:00 AM 7.52 45.536 0.412 7.73 3.07 10.67
11/7/2021 1:00:00 AM 7.49 45.482 0.412 7.72 3.01 10.68
11/7/2021 1:15:00 AM 7.47 45.446 0.412 7.72 3.09 10.68
11/7/2021 1:30:00 AM 7.43 45.374 0.412 7.72 3.25 10.68
11/7/2021 1:45:00 AM 7.41 45.338 0.412 7.72 3.11 10.68
11/7/2021 2:00:00 AM 7.37 45.266 0.412 7.72 3.41 10.68
11/7/2021 2:15:00 AM 7.34 45.212 0.412 7.72 3.14 10.68
11/7/2021 2:30:00 AM 7.31 45.158 0.412 7.72 3.18 10.68
11/7/2021 2:45:00 AM 7.28 45.104 0.412 7.72 3.19 10.69
11/7/2021 3:00:00 AM 7.25 45.05 0.412 7.72 3.01 10.69
11/7/2021 3:15:00 AM 7.21 44.978 0.412 7.72 3.31 10.69
11/7/2021 3:30:00 AM 7.19 44.942 0.412 7.72 3.14 10.69
11/7/2021 3:45:00 AM 7.16 44.888 0.412 7.72 2.95 10.69
11/7/2021 4:00:00 AM 7.12 44.816 0.412 7.72 3.4 10.7
11/7/2021 4:15:00 AM 7.09 44.762 0.412 7.72 3.08 10.7
11/7/2021 4:30:00 AM 7.05 44.69 0.412 7.71 3.12 10.71
11/7/2021 4:45:00 AM 7.03 44.654 0.412 7.71 2.93 10.72
11/7/2021 5:00:00 AM 7 44.6 0.412 7.71 3.33 10.72
11/7/2021 5:15:00 AM 6.97 44.546 0.412 7.71 3.17 10.73
11/7/2021 5:30:00 AM 6.93 44.474 0.412 7.71 3.15 10.74
11/7/2021 5:45:00 AM 6.9 44.42 0.412 7.71 3.06 10.74
11/7/2021 6:00:00 AM 6.87 44.366 0.412 7.71 3.39 10.75
11/7/2021 6:15:00 AM 6.83 44.294 0.413 7.71 3.18 10.76
11/7/2021 6:30:00 AM 6.8 44.24 0.413 7.71 3.33 10.77
11/7/2021 6:45:00 AM 6.77 44.186 0.413 7.71 3.19 10.77
11/7/2021 7:00:00 AM 6.74 44.132 0.413 7.71 3.03 10.78
11/7/2021 7:15:00 AM 6.7 44.06 0.413 7.71 3.01 10.79
11/7/2021 7:30:00 AM 6.67 44.006 0.413 7.71 2.77 10.8
11/7/2021 7:45:00 AM 6.64 43.952 0.413 7.71 2.81 10.81
11/7/2021 8:00:00 AM 6.62 43.916 0.413 7.71 2.6 10.82
11/7/2021 8:15:00 AM 6.58 43.844 0.413 7.71 3.47 10.83
11/7/2021 8:30:00 AM 6.56 43.808 0.413 7.71 2.72 10.85
11/7/2021 8:45:00 AM 6.54 43.772 0.413 7.72 2.93 10.88
11/7/2021 9:00:00 AM 6.52 43.736 0.413 7.72 2.75 10.9
11/7/2021 9:15:00 AM 6.52 43.736 0.413 7.72 2.78 10.94
11/7/2021 9:30:00 AM 6.53 43.754 0.413 7.72 2.67 11
11/7/2021 9:45:00 AM 6.54 43.772 0.413 7.73 2.58 11.04
11/7/2021 10:00:00 AM 6.57 43.826 0.413 7.73 2.74 11.08
11/7/2021 10:15:00 AM 6.62 43.916 0.413 7.74 2.55 11.14
11/7/2021 10:30:00 AM 6.68 44.024 0.413 7.74 2.64 11.2
11/7/2021 10:45:00 AM 6.77 44.186 0.413 7.74 2.64 11.26
11/7/2021 11:00:00 AM 6.88 44.384 0.413 7.75 2.67 11.34
11/7/2021 11:15:00 AM 6.97 44.546 0.413 7.76 2.83 11.38
11/7/2021 11:30:00 AM 7.07 44.726 0.413 7.77 2.89 11.42
11/7/2021 11:45:00 AM 7.18 44.924 0.413 7.77 2.6 11.46
11/7/2021 12:00:00 PM 7.3 45.14 0.413 7.78 2.55 11.5
11/7/2021 12:15:00 PM 7.42 45.356 0.413 7.78 2.64 11.54
11/7/2021 12:30:00 PM 7.53 45.554 0.413 7.79 2.45 11.57
11/7/2021 12:45:00 PM 7.62 45.716 0.413 7.79 2.68 11.59
11/7/2021 1:00:00 PM 7.69 45.842 0.413 7.8 2.64 11.61
11/7/2021 1:15:00 PM 7.79 46.022 0.413 7.81 2.6 11.64
11/7/2021 1:30:00 PM 7.82 46.076 0.413 7.81 2.61 11.65
11/7/2021 1:45:00 PM 7.88 46.184 0.413 7.81 2.85 11.68
11/7/2021 2:00:00 PM 7.91 46.238 0.413 7.82 2.47 11.69
11/7/2021 2:15:00 PM 7.94 46.292 0.413 7.82 2.63 11.71
11/7/2021 2:30:00 PM 7.96 46.328 0.412 7.82 2.62 11.72
11/7/2021 2:45:00 PM 7.98 46.364 0.412 7.83 2.77 11.72
11/7/2021 3:00:00 PM 7.98 46.364 0.41 7.83 3.07 11.72
11/7/2021 3:15:00 PM 7.98 46.364 0.409 7.83 3.18 11.7
11/7/2021 3:30:00 PM 8.01 46.418 0.408 7.84 2.81 11.69
11/7/2021 3:45:00 PM 8.04 46.472 0.409 7.84 2.71 11.67
11/7/2021 4:00:00 PM 8.08 46.544 0.41 7.83 2.47 11.61
11/7/2021 4:15:00 PM 8.14 46.652 0.41 7.83 2.54 11.6
11/7/2021 4:30:00 PM 8.17 46.706 0.411 7.83 2.58 11.55
11/7/2021 4:45:00 PM 8.2 46.76 0.412 7.83 2.41 11.5
11/7/2021 5:00:00 PM 8.22 46.796 0.412 7.82 2.24 11.45
11/7/2021 5:15:00 PM 8.23 46.814 0.412 7.82 2.37 11.4
11/7/2021 5:30:00 PM 8.24 46.832 0.412 7.81 2.46 11.35
11/7/2021 5:45:00 PM 8.24 46.832 0.413 7.81 2.4 11.28
11/7/2021 6:00:00 PM 8.24 46.832 0.413 7.8 2.49 11.22
11/7/2021 6:15:00 PM 8.23 46.814 0.413 7.8 2.5 11.16
11/7/2021 6:30:00 PM 8.22 46.796 0.413 7.79 2.43 11.1
11/7/2021 6:45:00 PM 8.2 46.76 0.413 7.78 2.42 11.05
11/7/2021 7:00:00 PM 8.17 46.706 0.413 7.78 2.34 11.01
11/7/2021 7:15:00 PM 8.15 46.67 0.413 7.78 2.6 10.97
11/7/2021 7:30:00 PM 8.13 46.634 0.413 7.77 2.54 10.94
11/7/2021 7:45:00 PM 8.1 46.58 0.413 7.77 2.62 10.92
11/7/2021 8:00:00 PM 8.08 46.544 0.413 7.76 2.64 10.88
11/7/2021 8:15:00 PM 8.05 46.49 0.413 7.76 2.66 10.86
11/7/2021 8:30:00 PM 8.02 46.436 0.413 7.76 2.97 10.84
11/7/2021 8:45:00 PM 7.99 46.382 0.413 7.76 2.72 10.81
11/7/2021 9:00:00 PM 7.97 46.346 0.413 7.76 2.81 10.78
11/7/2021 9:15:00 PM 7.94 46.292 0.413 7.75 2.77 10.76
11/7/2021 9:30:00 PM 7.91 46.238 0.413 7.75 3.04 10.73
11/7/2021 9:45:00 PM 7.88 46.184 0.413 7.75 2.76 10.71
11/7/2021 10:00:00 PM 7.86 46.148 0.413 7.74 2.79 10.69
11/7/2021 10:15:00 PM 7.83 46.094 0.413 7.74 2.72 10.67
11/7/2021 10:30:00 PM 7.81 46.058 0.413 7.74 2.64 10.65
11/7/2021 10:45:00 PM 7.8 46.04 0.413 7.73 2.66 10.63
11/7/2021 11:00:00 PM 7.78 46.004 0.413 7.74 2.77 10.62
11/7/2021 11:15:00 PM 7.75 45.95 0.413 7.73 2.65 10.61
11/7/2021 11:30:00 PM 7.73 45.914 0.413 7.73 2.74 10.6
11/7/2021 11:45:00 PM 7.71 45.878 0.413 7.73 2.89 10.59
11/8/2021 12:00:00 AM 7.69 45.842 0.413 7.73 2.99 10.58
11/8/2021 12:15:00 AM 7.67 45.806 0.413 7.73 3.1 10.57
11/8/2021 12:30:00 AM 7.65 45.77 0.413 7.73 2.96 10.57
11/8/2021 12:45:00 AM 7.63 45.734 0.413 7.72 2.97 10.57
11/8/2021 1:00:00 AM 7.61 45.698 0.413 7.72 2.83 10.56
11/8/2021 1:15:00 AM 7.59 45.662 0.413 7.72 2.8 10.55
11/8/2021 1:30:00 AM 7.56 45.608 0.413 7.72 2.75 10.56
11/8/2021 1:45:00 AM 7.54 45.572 0.413 7.72 2.93 10.56
11/8/2021 2:00:00 AM 7.51 45.518 0.413 7.72 2.65 10.56
11/8/2021 2:15:00 AM 7.5 45.5 0.413 7.72 3.13 10.55
11/8/2021 2:30:00 AM 7.47 45.446 0.413 7.72 2.92 10.55
11/8/2021 2:45:00 AM 7.45 45.41 0.413 7.71 3.05 10.55
11/8/2021 3:00:00 AM 7.43 45.374 0.413 7.72 2.87 10.55
11/8/2021 3:15:00 AM 7.41 45.338 0.413 7.72 2.78 10.55
11/8/2021 3:30:00 AM 7.39 45.302 0.413 7.72 3.19 10.55
11/8/2021 3:45:00 AM 7.36 45.248 0.413 7.71 2.92 10.55
11/8/2021 4:00:00 AM 7.34 45.212 0.413 7.71 3.04 10.56
11/8/2021 4:15:00 AM 7.32 45.176 0.413 7.71 3.05 10.55
11/8/2021 4:30:00 AM 7.29 45.122 0.413 7.72 2.9 10.56
11/8/2021 4:45:00 AM 7.27 45.086 0.413 7.71 2.96 10.56
11/8/2021 5:00:00 AM 7.25 45.05 0.413 7.71 2.86 10.56
11/8/2021 5:15:00 AM 7.23 45.014 0.413 7.71 2.98 10.57
11/8/2021 5:30:00 AM 7.21 44.978 0.413 7.71 3.08 10.57
11/8/2021 5:45:00 AM 7.18 44.924 0.413 7.71 3.31 10.57
11/8/2021 6:00:00 AM 7.16 44.888 0.413 7.71 3.27 10.58
11/8/2021 6:15:00 AM 7.14 44.852 0.414 7.71 3.4 10.58
11/8/2021 6:30:00 AM 7.12 44.816 0.413 7.71 3.21 10.58
11/8/2021 6:45:00 AM 7.1 44.78 0.414 7.71 3.72 10.59
11/8/2021 7:00:00 AM 7.07 44.726 0.414 7.71 3.4 10.6
11/8/2021 7:15:00 AM 7.05 44.69 0.414 7.71 2.89 10.61
11/8/2021 7:30:00 AM 7.03 44.654 0.414 7.71 3.07 10.61
11/8/2021 7:45:00 AM 7.02 44.636 0.414 7.71 2.88 10.62
11/8/2021 8:00:00 AM 7 44.6 0.414 7.71 2.71 10.63
11/8/2021 8:15:00 AM 6.99 44.582 0.413 7.71 3.65 10.65
11/8/2021 8:30:00 AM 6.98 44.564 0.414 7.71 2.72 10.67
11/8/2021 8:45:00 AM 6.99 44.582 0.413 7.71 2.73 10.7
11/8/2021 9:00:00 AM 7.02 44.636 0.414 7.72 2.78 10.76
11/8/2021 9:15:00 AM 7.05 44.69 0.413 7.72 2.66 10.81
11/8/2021 9:30:00 AM 7.09 44.762 0.413 7.72 2.56 10.86
11/8/2021 9:45:00 AM 7.12 44.816 0.413 7.73 2.75 10.91
11/8/2021 10:00:00 AM 7.18 44.924 0.414 7.73 2.44 10.94
11/8/2021 10:15:00 AM 7.26 45.068 0.414 7.74 2.58 10.99
11/8/2021 10:30:00 AM 7.35 45.23 0.413 7.74 2.55 11.05
11/8/2021 10:45:00 AM 7.48 45.464 0.413 7.75 2.63 11.11
11/8/2021 11:00:00 AM 7.6 45.68 0.413 7.76 2.68 11.18
11/8/2021 11:15:00 AM 7.7 45.86 0.413 7.77 2.67 11.24
11/8/2021 11:30:00 AM 7.81 46.058 0.413 7.77 2.65 11.29
11/8/2021 11:45:00 AM 7.92 46.256 0.413 7.78 2.65 11.33
11/8/2021 12:00:00 PM 8.06 46.508 0.413 7.79 2.79 11.38
11/8/2021 12:15:00 PM 8.19 46.742 0.413 7.79 2.85 11.43
11/8/2021 12:30:00 PM 8.34 47.012 0.413 7.8 2.83 11.46
11/8/2021 12:45:00 PM 8.47 47.246 0.413 7.81 2.59 11.49
11/8/2021 1:00:00 PM 8.57 47.426 0.413 7.81 2.66 11.52
11/8/2021 1:15:00 PM 8.67 47.606 0.412 7.82 2.63 11.55
11/8/2021 1:30:00 PM 8.75 47.75 0.412 7.82 2.59 11.56
11/8/2021 1:45:00 PM 8.86 47.948 0.412 7.83 2.52 11.57
11/8/2021 2:00:00 PM 8.91 48.038 0.412 7.83 2.68 11.59
11/8/2021 2:15:00 PM 8.97 48.146 0.412 7.84 2.57 11.58
11/8/2021 2:30:00 PM 9.01 48.218 0.412 7.84 2.52 11.56
11/8/2021 2:45:00 PM 9.08 48.344 0.412 7.84 2.47 11.57
11/8/2021 3:00:00 PM 9.11 48.398 0.412 7.85 2.54 11.55
11/8/2021 3:15:00 PM 9.13 48.434 0.412 7.85 2.6 11.53
11/8/2021 3:30:00 PM 9.15 48.47 0.412 7.85 2.61 11.51
11/8/2021 3:45:00 PM 9.17 48.506 0.412 7.85 2.42 11.46
11/8/2021 4:00:00 PM 9.18 48.524 0.412 7.85 2.67 11.42
11/8/2021 4:15:00 PM 9.21 48.578 0.412 7.85 2.57 11.38
11/8/2021 4:30:00 PM 9.23 48.614 0.412 7.84 2.41 11.32
11/8/2021 4:45:00 PM 9.25 48.65 0.413 7.83 2.45 11.27
11/8/2021 5:00:00 PM 9.27 48.686 0.412 7.83 2.56 11.22
11/8/2021 5:15:00 PM 9.28 48.704 0.412 7.83 2.6 11.16
11/8/2021 5:30:00 PM 9.29 48.722 0.412 7.82 2.45 11.1
11/8/2021 5:45:00 PM 9.3 48.74 0.412 7.81 2.68 11.03
11/8/2021 6:00:00 PM 9.31 48.758 0.413 7.81 2.71 10.96
11/8/2021 6:15:00 PM 9.31 48.758 0.413 7.8 2.67 10.89
11/8/2021 6:30:00 PM 9.3 48.74 0.412 7.8 2.97 10.83
11/8/2021 6:45:00 PM 9.29 48.722 0.413 7.79 2.71 10.77
11/8/2021 7:00:00 PM 9.27 48.686 0.413 7.79 2.97 10.72
11/8/2021 7:15:00 PM 9.25 48.65 0.413 7.78 2.97 10.67
11/8/2021 7:30:00 PM 9.23 48.614 0.413 7.77 2.99 10.62
11/8/2021 7:45:00 PM 9.21 48.578 0.413 7.77 2.83 10.6
11/8/2021 8:00:00 PM 9.18 48.524 0.413 7.77 2.94 10.57
11/8/2021 8:15:00 PM 9.15 48.47 0.413 7.77 2.8 10.54
11/8/2021 8:30:00 PM 9.13 48.434 0.413 7.76 3.13 10.51
11/8/2021 8:45:00 PM 9.1 48.38 0.413 7.76 2.71 10.48
11/8/2021 9:00:00 PM 9.08 48.344 0.413 7.75 2.83 10.45
11/8/2021 9:15:00 PM 9.05 48.29 0.413 7.75 2.95 10.42
11/8/2021 9:30:00 PM 9.03 48.254 0.413 7.75 2.99 10.39
11/8/2021 9:45:00 PM 9 48.2 0.413 7.74 2.74 10.38
11/8/2021 10:00:00 PM 8.98 48.164 0.413 7.74 2.92 10.35
11/8/2021 10:15:00 PM 8.96 48.128 0.413 7.74 3.07 10.32
11/8/2021 10:30:00 PM 8.94 48.092 0.413 7.74 2.88 10.31
11/8/2021 10:45:00 PM 8.92 48.056 0.413 7.74 2.95 10.29
11/8/2021 11:00:00 PM 8.91 48.038 0.413 7.73 2.9 10.27
11/8/2021 11:15:00 PM 8.89 48.002 0.414 7.73 3.06 10.25
11/8/2021 11:30:00 PM 8.88 47.984 0.414 7.73 3.3 10.25
11/8/2021 11:45:00 PM 8.87 47.966 0.414 7.73 3.11 10.23
11/9/2021 12:00:00 AM 8.85 47.93 0.413 7.72 3.19 10.23
11/9/2021 12:15:00 AM 8.84 47.912 0.414 7.72 3.71 10.21
11/9/2021 12:30:00 AM 8.82 47.876 0.414 7.72 3.22 10.21
11/9/2021 12:45:00 AM 8.81 47.858 0.414 7.72 3.27 10.19
11/9/2021 1:00:00 AM 8.79 47.822 0.413 7.72 2.92 10.18
11/9/2021 1:15:00 AM 8.77 47.786 0.414 7.72 3.04 10.18
11/9/2021 1:30:00 AM 8.75 47.75 0.414 7.72 3.1 10.17
11/9/2021 1:45:00 AM 8.73 47.714 0.414 7.71 3.29 10.17
11/9/2021 2:00:00 AM 8.71 47.678 0.414 7.71 3.12 10.17
11/9/2021 2:15:00 AM 8.69 47.642 0.414 7.71 3.16 10.16
11/9/2021 2:30:00 AM 8.66 47.588 0.413 7.71 3.22 10.16
11/9/2021 2:45:00 AM 8.64 47.552 0.413 7.71 3.28 10.16
11/9/2021 3:00:00 AM 8.62 47.516 0.413 7.71 3.32 10.16
11/9/2021 3:15:00 AM 8.6 47.48 0.414 7.7 3.18 10.16
11/9/2021 3:30:00 AM 8.57 47.426 0.414 7.71 3.2 10.16
11/9/2021 3:45:00 AM 8.54 47.372 0.414 7.71 3.13 10.16
11/9/2021 4:00:00 AM 8.52 47.336 0.414 7.71 3.15 10.16
11/9/2021 4:15:00 AM 8.5 47.3 0.414 7.7 3.13 10.16
11/9/2021 4:30:00 AM 8.48 47.264 0.414 7.7 3.09 10.16
11/9/2021 4:45:00 AM 8.45 47.21 0.414 7.7 3.14 10.16
11/9/2021 5:00:00 AM 8.43 47.174 0.414 7.7 3.23 10.17
11/9/2021 5:15:00 AM 8.41 47.138 0.414 7.7 3.04 10.17
11/9/2021 5:30:00 AM 8.38 47.084 0.414 7.7 2.9 10.18
11/9/2021 5:45:00 AM 8.36 47.048 0.414 7.7 3.09 10.18
11/9/2021 6:00:00 AM 8.34 47.012 0.414 7.7 2.96 10.18
11/9/2021 6:15:00 AM 8.31 46.958 0.414 7.7 3.09 10.19
11/9/2021 6:30:00 AM 8.29 46.922 0.414 7.7 3.12 10.19
11/9/2021 6:45:00 AM 8.27 46.886 0.414 7.7 3.04 10.2
11/9/2021 7:00:00 AM 8.24 46.832 0.414 7.7 3.09 10.2
11/9/2021 7:15:00 AM 8.22 46.796 0.414 7.7 3.53 10.21
11/9/2021 7:30:00 AM 8.2 46.76 0.414 7.69 3.16 10.22
11/9/2021 7:45:00 AM 8.18 46.724 0.414 7.7 3.02 10.22
11/9/2021 8:00:00 AM 8.16 46.688 0.414 7.69 2.98 10.23
11/9/2021 8:15:00 AM 8.14 46.652 0.414 7.69 3.11 10.25
11/9/2021 8:30:00 AM 8.13 46.634 0.414 7.7 3.53 10.28
11/9/2021 8:45:00 AM 8.14 46.652 0.414 7.7 3.06 10.32
11/9/2021 9:00:00 AM 8.15 46.67 0.414 7.71 2.97 10.38
11/9/2021 9:15:00 AM 8.18 46.724 0.414 7.71 2.77 10.44
11/9/2021 9:30:00 AM 8.21 46.778 0.414 7.71 2.83 10.49
11/9/2021 9:45:00 AM 8.24 46.832 0.414 7.72 2.82 10.56
11/9/2021 10:00:00 AM 8.29 46.922 0.414 7.73 2.82 10.6
11/9/2021 10:15:00 AM 8.36 47.048 0.414 7.73 2.98 10.67
11/9/2021 10:30:00 AM 8.43 47.174 0.414 7.74 2.71 10.73
11/9/2021 10:45:00 AM 8.53 47.354 0.414 7.75 2.5 10.81
11/9/2021 11:00:00 AM 8.65 47.57 0.414 7.76 2.6 10.91
11/9/2021 11:15:00 AM 8.74 47.732 0.414 7.77 2.59 10.99
11/9/2021 11:30:00 AM 8.84 47.912 0.414 7.78 2.63 11.04
11/9/2021 11:45:00 AM 8.95 48.11 0.414 7.79 2.71 11.1
11/9/2021 12:00:00 PM 9.09 48.362 0.413 7.8 2.57 11.18
11/9/2021 12:15:00 PM 9.23 48.614 0.413 7.81 2.85 11.23
11/9/2021 12:30:00 PM 9.35 48.83 0.413 7.81 2.86 11.28
11/9/2021 12:45:00 PM 9.48 49.064 0.413 7.82 2.64 11.32
11/9/2021 1:00:00 PM 9.6 49.28 0.413 7.83 2.53 11.36
11/9/2021 1:15:00 PM 9.69 49.442 0.413 7.84 2.92 11.38
11/9/2021 1:30:00 PM 9.77 49.586 0.413 7.84 2.49 11.41
11/9/2021 1:45:00 PM 9.86 49.748 0.413 7.85 2.54 11.44
11/9/2021 2:00:00 PM 9.91 49.838 0.413 7.85 2.59 11.46
11/9/2021 2:15:00 PM 9.96 49.928 0.413 7.86 2.53 11.45
11/9/2021 2:30:00 PM 10 50 0.413 7.86 2.85 11.45
11/9/2021 2:45:00 PM 10.04 50.072 0.413 7.86 2.87 11.44
11/9/2021 3:00:00 PM 10.07 50.126 0.413 7.87 10.97 11.43
11/9/2021 3:15:00 PM 10.09 50.162 0.413 7.87 3.05 11.41
11/9/2021 3:30:00 PM 10.11 50.198 0.413 7.87 2.43 11.38
11/9/2021 3:45:00 PM 10.11 50.198 0.413 7.86 2.4 11.34
11/9/2021 4:00:00 PM 10.13 50.234 0.413 7.86 2.42 11.28
11/9/2021 4:15:00 PM 10.15 50.27 0.413 7.86 2.64 11.23
11/9/2021 4:30:00 PM 10.16 50.288 0.413 7.86 2.35 11.17
11/9/2021 4:45:00 PM 10.17 50.306 0.413 7.85 2.43 11.12
11/9/2021 5:00:00 PM 10.18 50.324 0.413 7.85 2.43 11.05
11/9/2021 5:15:00 PM 10.2 50.36 0.413 7.84 2.4 10.99
11/9/2021 5:30:00 PM 10.2 50.36 0.413 7.84 2.11 10.91
11/9/2021 5:45:00 PM 10.21 50.378 0.413 7.83 2.36 10.83
11/9/2021 6:00:00 PM 10.2 50.36 0.413 7.81 2.25 10.75
11/9/2021 6:15:00 PM 10.2 50.36 0.413 7.81 2.19 10.67
11/9/2021 6:30:00 PM 10.19 50.342 0.413 7.8 2.31 10.59
11/9/2021 6:45:00 PM 10.17 50.306 0.413 7.79 2.42 10.52
11/9/2021 7:00:00 PM 10.16 50.288 0.413 7.79 2.48 10.46
11/9/2021 7:15:00 PM 10.15 50.27 0.413 7.78 2.95 10.42
11/9/2021 7:30:00 PM 10.14 50.252 0.413 7.78 2.28 10.37
11/9/2021 7:45:00 PM 10.13 50.234 0.413 7.78 2.63 10.34
11/9/2021 8:00:00 PM 10.12 50.216 0.413 7.77 2.98 10.3
11/9/2021 8:15:00 PM 10.11 50.198 0.413 7.76 2.89 10.27
11/9/2021 8:30:00 PM 10.1 50.18 0.413 7.76 2.83 10.24
11/9/2021 8:45:00 PM 10.09 50.162 0.414 7.76 3.46 10.2
11/9/2021 9:00:00 PM 10.07 50.126 0.414 7.75 2.93 10.16
11/9/2021 9:15:00 PM 10.05 50.09 0.414 7.75 2.63 10.14
11/9/2021 9:30:00 PM 10.03 50.054 0.414 7.74 2.73 10.1
11/9/2021 9:45:00 PM 10.01 50.018 0.414 7.74 2.83 10.07
11/9/2021 10:00:00 PM 9.97 49.946 0.414 7.74 2.67 10.05
11/9/2021 10:15:00 PM 9.95 49.91 0.414 7.73 2.81 10.02
11/9/2021 10:30:00 PM 9.93 49.874 0.414 7.73 2.91 10
11/9/2021 10:45:00 PM 9.91 49.838 0.414 7.72 2.77 9.98
11/9/2021 11:00:00 PM 9.9 49.82 0.414 7.73 2.68 9.96
11/9/2021 11:15:00 PM 9.9 49.82 0.414 7.72 2.82 9.94
11/9/2021 11:30:00 PM 9.91 49.838 0.414 7.72 3.07 9.91
11/9/2021 11:45:00 PM 9.92 49.856 0.414 7.72 2.72 9.9
11/10/2021 12:00:00 AM 9.93 49.874 0.414 7.72 2.9 9.88
11/10/2021 12:15:00 AM 9.94 49.892 0.414 7.71 2.97 9.87
11/10/2021 12:30:00 AM 9.94 49.892 0.414 7.71 2.68 9.84
11/10/2021 12:45:00 AM 9.94 49.892 0.414 7.71 2.75 9.83
11/10/2021 1:00:00 AM 9.94 49.892 0.414 7.71 2.77 9.82
11/10/2021 1:15:00 AM 9.94 49.892 0.414 7.7 2.82 9.81
11/10/2021 1:30:00 AM 9.93 49.874 0.414 7.7 2.61 9.8
11/10/2021 1:45:00 AM 9.93 49.874 0.414 7.7 2.73 9.79
11/10/2021 2:00:00 AM 9.92 49.856 0.414 7.7 2.83 9.78
11/10/2021 2:15:00 AM 9.91 49.838 0.414 7.7 2.97 9.78
11/10/2021 2:30:00 AM 9.91 49.838 0.414 7.7 2.72 9.77
11/10/2021 2:45:00 AM 9.9 49.82 0.414 7.7 2.84 9.76
11/10/2021 3:00:00 AM 9.9 49.82 0.414 7.7 2.84 9.76
11/10/2021 3:15:00 AM 9.9 49.82 0.414 7.7 2.76 9.74
11/10/2021 3:30:00 AM 9.91 49.838 0.414 7.7 2.76 9.74
11/10/2021 3:45:00 AM 9.91 49.838 0.414 7.69 2.67 9.73
11/10/2021 4:00:00 AM 9.92 49.856 0.414 7.7 2.85 9.73
11/10/2021 4:15:00 AM 9.92 49.856 0.414 7.7 2.66 9.72
11/10/2021 4:30:00 AM 9.93 49.874 0.414 7.69 2.84 9.71
11/10/2021 4:45:00 AM 9.94 49.892 0.414 7.69 2.93 9.7
11/10/2021 5:00:00 AM 9.94 49.892 0.414 7.69 2.92 9.7
11/10/2021 5:15:00 AM 9.94 49.892 0.414 7.69 2.88 9.69
11/10/2021 5:30:00 AM 9.93 49.874 0.414 7.69 3.03 9.69
11/10/2021 5:45:00 AM 9.93 49.874 0.414 7.69 2.88 9.69
11/10/2021 6:00:00 AM 9.92 49.856 0.414 7.69 3.22 9.69
11/10/2021 6:15:00 AM 9.91 49.838 0.414 7.69 2.97 9.68
11/10/2021 6:30:00 AM 9.91 49.838 0.414 7.68 2.96 9.69
11/10/2021 6:45:00 AM 9.89 49.802 0.414 7.68 2.86 9.69
11/10/2021 7:00:00 AM 9.88 49.784 0.414 7.68 2.66 9.68
11/10/2021 7:15:00 AM 9.87 49.766 0.414 7.68 2.66 9.69
11/10/2021 7:30:00 AM 9.85 49.73 0.415 7.68 2.8 9.69
11/10/2021 7:45:00 AM 9.83 49.694 0.415 7.68 2.65 9.69
11/10/2021 8:00:00 AM 9.8 49.64 0.415 7.69 2.63 9.69
11/10/2021 8:15:00 AM 9.77 49.586 0.415 7.69 2.67 9.72
11/10/2021 8:30:00 AM 9.76 49.568 0.415 7.69 2.68 9.74
11/10/2021 8:45:00 AM 9.76 49.568 0.415 7.69 2.61 9.79
11/10/2021 9:00:00 AM 9.78 49.604 0.414 7.69 2.56 9.85
11/10/2021 9:15:00 AM 9.81 49.658 0.414 7.7 2.73 9.93
11/10/2021 9:30:00 AM 9.85 49.73 0.414 7.71 2.59 10.01
11/10/2021 9:45:00 AM 9.89 49.802 0.414 7.72 2.55 10.08
11/10/2021 10:00:00 AM 9.94 49.892 0.414 7.72 2.5 10.14
11/10/2021 10:15:00 AM 10.01 50.018 0.414 7.73 2.67 10.23
11/10/2021 10:30:00 AM 10.09 50.162 0.413 7.74 2.49 10.31
11/10/2021 10:45:00 AM 10.19 50.342 0.413 7.75 2.5 10.41
11/10/2021 11:00:00 AM 10.3 50.54 0.413 7.77 2.43 10.52
11/10/2021 11:15:00 AM 10.37 50.666 0.413 7.78 2.42 10.6
11/10/2021 11:30:00 AM 10.47 50.846 0.413 7.79 2.48 10.7
11/10/2021 11:45:00 AM 10.56 51.008 0.413 7.8 2.54 10.79
11/10/2021 12:00:00 PM 10.67 51.206 0.413 7.81 2.42 10.86
11/10/2021 12:15:00 PM 10.78 51.404 0.413 7.82 2.58 10.92
11/10/2021 12:30:00 PM 10.89 51.602 0.413 7.83 2.64 10.99
11/10/2021 12:45:00 PM 10.99 51.782 0.413 7.84 2.57 11.03
11/10/2021 1:00:00 PM 11.09 51.962 0.413 7.85 2.36 11.09
11/10/2021 1:15:00 PM 11.2 52.16 0.413 7.85 2.36 11.13
11/10/2021 1:30:00 PM 11.24 52.232 0.413 7.86 2.48 11.16
11/10/2021 1:45:00 PM 11.31 52.358 0.413 7.87 2.37 11.19
11/10/2021 2:00:00 PM 11.37 52.466 0.413 7.87 2.32 11.22
11/10/2021 2:15:00 PM 11.39 52.502 0.413 7.88 2.56 11.22
11/10/2021 2:30:00 PM 11.4 52.52 0.412 7.88 2.32 11.2
11/10/2021 2:45:00 PM 11.42 52.556 0.155 7.88 2.69 11.19
11/10/2021 3:00:00 PM 11.44 52.592 0.29 7.88 2.25 11.19
11/10/2021 3:15:00 PM 11.44 52.592 0.412 7.89 2.55 11.15
11/10/2021 3:30:00 PM 11.45 52.61 0.412 7.89 2.37 11.13
11/10/2021 3:45:00 PM 11.44 52.592 0.412 7.88 2.51 11.07
11/10/2021 4:00:00 PM 11.43 52.574 0.411 7.88 2.26 11.01
11/10/2021 4:15:00 PM 11.43 52.574 0.411 7.88 2.34 10.96
11/10/2021 4:30:00 PM 11.42 52.556 0.408 7.87 2.2 10.89
11/10/2021 4:45:00 PM 11.42 52.556 0.412 7.86 2.27 10.83
11/10/2021 5:00:00 PM 11.42 52.556 0.412 7.86 2.34 10.77
11/10/2021 5:15:00 PM 11.41 52.538 0.412 7.85 2.36 10.68
11/10/2021 5:30:00 PM 11.41 52.538 0.412 7.84 2.43 10.6
11/10/2021 5:45:00 PM 11.4 52.52 0.412 7.83 2.23 10.52
11/10/2021 6:00:00 PM 11.39 52.502 0.412 7.83 2.52 10.43
11/10/2021 6:15:00 PM 11.37 52.466 0.412 7.81 2.32 10.34
11/10/2021 6:30:00 PM 11.34 52.412 0.413 7.8 2.54 10.25
11/10/2021 6:45:00 PM 11.31 52.358 0.412 7.8 2.52 10.17
11/10/2021 7:00:00 PM 11.27 52.286 0.413 7.79 2.64 10.12
11/10/2021 7:15:00 PM 11.23 52.214 0.413 7.79 2.64 10.07
11/10/2021 7:30:00 PM 11.19 52.142 0.413 7.78 2.85 10.03
11/10/2021 7:45:00 PM 11.14 52.052 0.413 7.77 3.05 9.99
11/10/2021 8:00:00 PM 11.1 51.98 0.414 7.77 2.89 9.95
11/10/2021 8:15:00 PM 11.06 51.908 0.414 7.77 3.34 9.92
11/10/2021 8:30:00 PM 11.02 51.836 0.414 7.76 2.97 9.89
11/10/2021 8:45:00 PM 10.98 51.764 0.414 7.76 2.83 9.86
11/10/2021 9:00:00 PM 10.94 51.692 0.414 7.75 3.05 9.83
11/10/2021 9:15:00 PM 10.89 51.602 0.413 7.75 2.91 9.8
11/10/2021 9:30:00 PM 10.84 51.512 0.414 7.75 4.34 9.77
11/10/2021 9:45:00 PM 10.79 51.422 0.414 7.74 2.65 9.74
11/10/2021 10:00:00 PM 10.74 51.332 0.414 7.74 2.53 9.72
11/10/2021 10:15:00 PM 10.69 51.242 0.414 7.73 2.6 9.71
11/10/2021 10:30:00 PM 10.63 51.134 0.414 7.73 3.02 9.69
11/10/2021 10:45:00 PM 10.58 51.044 0.414 7.73 3.1 9.67
11/10/2021 11:00:00 PM 10.54 50.972 0.414 7.73 3.06 9.65
11/10/2021 11:15:00 PM 10.49 50.882 0.415 7.72 2.95 9.64
11/10/2021 11:30:00 PM 10.45 50.81 0.415 7.72 2.91 9.63
11/10/2021 11:45:00 PM 10.41 50.738 0.414 7.72 2.68 9.62
11/11/2021 12:00:00 AM 10.38 50.684 0.415 7.71 3.44 9.61
11/11/2021 12:15:00 AM 10.34 50.612 0.415 7.71 3.46 9.6
11/11/2021 12:30:00 AM 10.31 50.558 0.415 7.71 3.11 9.6
11/11/2021 12:45:00 AM 10.27 50.486 0.415 7.71 2.93 9.59
11/11/2021 1:00:00 AM 10.24 50.432 0.415 7.71 3.62 9.59
11/11/2021 1:15:00 AM 10.21 50.378 0.415 7.71 3.2 9.59
11/11/2021 1:30:00 AM 10.18 50.324 0.415 7.71 3.42 9.59
11/11/2021 1:45:00 AM 10.14 50.252 0.414 7.71 3.21 9.59
11/11/2021 2:00:00 AM 10.12 50.216 0.415 7.7 3.5 9.59
11/11/2021 2:15:00 AM 10.09 50.162 0.415 7.7 4.29 9.59
11/11/2021 2:30:00 AM 10.08 50.144 0.415 7.7 3.25 9.6
11/11/2021 2:45:00 AM 10.06 50.108 0.415 7.7 2.95 9.59
11/11/2021 3:00:00 AM 10.04 50.072 0.415 7.7 3.35 9.59
11/11/2021 3:15:00 AM 10.02 50.036 0.415 7.69 2.97 9.59
11/11/2021 3:30:00 AM 9.99 49.982 0.415 7.7 3.53 9.59
11/11/2021 3:45:00 AM 9.96 49.928 0.415 7.7 2.93 9.6
11/11/2021 4:00:00 AM 9.93 49.874 0.415 7.7 3.12 9.59
11/11/2021 4:15:00 AM 9.89 49.802 0.415 7.7 3.16 9.61
11/11/2021 4:30:00 AM 9.86 49.748 0.415 7.7 3.04 9.6
11/11/2021 4:45:00 AM 9.81 49.658 0.415 7.69 2.78 9.62
11/11/2021 5:00:00 AM 9.77 49.586 0.416 7.69 3.13 9.63
11/11/2021 5:15:00 AM 9.73 49.514 0.415 7.7 2.7 9.63
11/11/2021 5:30:00 AM 9.69 49.442 0.416 7.7 2.78 9.64
11/11/2021 5:45:00 AM 9.66 49.388 0.415 7.7 2.82 9.63
11/11/2021 6:00:00 AM 9.63 49.334 0.416 7.7 3.16 9.65
11/11/2021 6:15:00 AM 9.6 49.28 0.415 7.7 3.23 9.65
11/11/2021 6:30:00 AM 9.57 49.226 0.415 7.69 3.12 9.66
11/11/2021 6:45:00 AM 9.54 49.172 0.416 7.7 3.16 9.67
11/11/2021 7:00:00 AM 9.51 49.118 0.416 7.69 3.1 9.68
11/11/2021 7:15:00 AM 9.47 49.046 0.416 7.7 3.76 9.69
11/11/2021 7:30:00 AM 9.44 48.992 0.416 7.69 3.16 9.71
11/11/2021 7:45:00 AM 9.4 48.92 0.416 7.7 2.91 9.72
11/11/2021 8:00:00 AM 9.37 48.866 0.416 7.7 3.16 9.73
11/11/2021 8:15:00 AM 9.34 48.812 0.416 7.7 2.64 9.75
11/11/2021 8:30:00 AM 9.32 48.776 0.416 7.7 2.56 9.79
11/11/2021 8:45:00 AM 9.31 48.758 0.416 7.7 2.51 9.85
11/11/2021 9:00:00 AM 9.3 48.74 0.415 7.71 2.59 9.91
11/11/2021 9:15:00 AM 9.33 48.794 0.416 7.71 2.51 10.03
11/11/2021 9:30:00 AM 9.35 48.83 0.416 7.72 2.59 10.13
11/11/2021 9:45:00 AM 9.38 48.884 0.416 7.73 2.4 10.22
11/11/2021 10:00:00 AM 9.41 48.938 0.416 7.74 2.31 10.3
11/11/2021 10:15:00 AM 9.44 48.992 0.415 7.75 2.37 10.4
11/11/2021 10:30:00 AM 9.49 49.082 0.415 7.76 2.4 10.49
11/11/2021 10:45:00 AM 9.56 49.208 0.415 7.77 2.29 10.62
11/11/2021 11:00:00 AM 9.65 49.37 0.415 7.79 2.34 10.76
11/11/2021 11:15:00 AM 9.7 49.46 0.415 7.8 2.42 10.87
11/11/2021 11:30:00 AM 9.8 49.64 0.415 7.81 2.19 10.99
11/11/2021 11:45:00 AM 9.88 49.784 0.415 7.83 2.28 11.11
11/11/2021 12:00:00 PM 9.96 49.928 0.414 7.84 2.3 11.2
11/11/2021 12:15:00 PM 10.04 50.072 0.415 7.85 2.3 11.3
11/11/2021 12:30:00 PM 10.11 50.198 0.414 7.86 2.3 11.38
11/11/2021 12:45:00 PM 10.21 50.378 0.414 7.88 2.35 11.47
11/11/2021 1:00:00 PM 10.25 50.45 0.414 7.89 2.38 11.51
11/11/2021 1:15:00 PM 10.33 50.594 0.414 7.9 2.48 11.58
11/11/2021 1:30:00 PM 10.38 50.684 0.414 7.91 2.78 11.61
11/11/2021 1:45:00 PM 10.41 50.738 0.413 7.91 2.4 11.63
11/11/2021 2:00:00 PM 10.46 50.828 0.413 7.91 2.4 11.68
11/11/2021 2:15:00 PM 10.5 50.9 0.413 7.92 2.42 11.7
11/11/2021 2:30:00 PM 10.52 50.936 0.413 7.92 2.4 11.69
11/11/2021 2:45:00 PM 10.55 50.99 0.413 7.93 2.42 11.67
11/11/2021 3:00:00 PM 10.59 51.062 0.413 7.93 2.26 11.68
11/11/2021 3:15:00 PM 10.63 51.134 0.413 7.93 2.14 11.68
11/11/2021 3:30:00 PM 10.67 51.206 0.413 7.94 2.25 11.67
11/11/2021 3:45:00 PM 10.73 51.314 0.414 7.94 2.26 11.68
11/11/2021 4:00:00 PM 10.79 51.422 0.414 7.95 2.2 11.69
11/11/2021 4:15:00 PM 10.83 51.494 0.414 7.95 2.27 11.66
11/11/2021 4:30:00 PM 10.86 51.548 0.414 7.94 2.26 11.6
11/11/2021 4:45:00 PM 10.88 51.584 0.413 7.94 2.14 11.53
11/11/2021 5:00:00 PM 10.9 51.62 0.413 7.94 2.43 11.45
11/11/2021 5:15:00 PM 10.9 51.62 0.414 7.92 2.26 11.32
11/11/2021 5:30:00 PM 10.9 51.62 0.414 7.91 2.28 11.19
11/11/2021 5:45:00 PM 10.89 51.602 0.414 7.9 2.3 11.05
11/11/2021 6:00:00 PM 10.87 51.566 0.414 7.88 2.45 10.9
11/11/2021 6:15:00 PM 10.85 51.53 0.414 7.86 2.34 10.77
11/11/2021 6:30:00 PM 10.85 51.53 0.414 7.85 2.31 10.64
11/11/2021 6:45:00 PM 10.85 51.53 0.414 7.84 2.24 10.54
11/11/2021 7:00:00 PM 10.85 51.53 0.414 7.83 2.49 10.45
11/11/2021 7:15:00 PM 10.86 51.548 0.414 7.82 2.35 10.39
11/11/2021 7:30:00 PM 10.88 51.584 0.415 7.81 2.63 10.34
11/11/2021 7:45:00 PM 10.9 51.62 0.415 7.81 2.61 10.28
11/11/2021 8:00:00 PM 10.92 51.656 0.415 7.8 2.57 10.24
11/11/2021 8:15:00 PM 10.94 51.692 0.415 7.8 2.47 10.18
11/11/2021 8:30:00 PM 10.96 51.728 0.416 7.79 2.61 10.13
11/11/2021 8:45:00 PM 10.96 51.728 0.416 7.79 2.51 10.09
11/11/2021 9:00:00 PM 10.97 51.746 0.416 7.78 2.65 10.03
11/11/2021 9:15:00 PM 10.96 51.728 0.416 7.77 2.9 9.98
11/11/2021 9:30:00 PM 10.95 51.71 0.416 7.77 2.74 9.93
11/11/2021 9:45:00 PM 10.94 51.692 0.416 7.76 2.69 9.89
11/11/2021 10:00:00 PM 10.93 51.674 0.416 7.76 2.55 9.84
11/11/2021 10:15:00 PM 10.92 51.656 0.416 7.75 2.55 9.8
11/11/2021 10:30:00 PM 10.92 51.656 0.416 7.75 2.85 9.76
11/11/2021 10:45:00 PM 10.93 51.674 0.416 7.75 2.6 9.72
11/11/2021 11:00:00 PM 10.94 51.692 0.416 7.74 2.75 9.68
11/11/2021 11:15:00 PM 10.95 51.71 0.416 7.74 2.47 9.65
11/11/2021 11:30:00 PM 10.95 51.71 0.416 7.73 2.66 9.61
11/11/2021 11:45:00 PM 10.95 51.71 0.415 7.73 2.69 9.57
11/12/2021 12:00:00 AM 10.95 51.71 0.416 7.73 2.71 9.56
11/12/2021 12:15:00 AM 10.96 51.728 0.415 7.72 2.87 9.52
11/12/2021 12:30:00 AM 10.96 51.728 0.416 7.71 2.78 9.51
11/12/2021 12:45:00 AM 10.96 51.728 0.416 7.71 2.77 9.48
11/12/2021 1:00:00 AM 10.97 51.746 0.415 7.72 2.82 9.47
11/12/2021 1:15:00 AM 10.97 51.746 0.416 7.71 2.86 9.44
11/12/2021 1:30:00 AM 10.98 51.764 0.416 7.71 2.83 9.43
11/12/2021 1:45:00 AM 10.98 51.764 0.415 7.71 2.73 9.41
11/12/2021 2:00:00 AM 10.99 51.782 0.416 7.7 2.92 9.39
11/12/2021 2:15:00 AM 11 51.8 0.416 7.71 2.92 9.38
11/12/2021 2:30:00 AM 11.03 51.854 0.416 7.7 2.83 9.36
11/12/2021 2:45:00 AM 11.05 51.89 0.415 7.7 2.76 9.35
11/12/2021 3:00:00 AM 11.08 51.944 0.415 7.7 3.22 9.33
11/12/2021 3:15:00 AM 11.12 52.016 0.408 7.7 2.89 9.31
11/12/2021 3:30:00 AM 11.16 52.088 0.412 7.7 2.73 9.29
11/12/2021 3:45:00 AM 11.2 52.16 0.414 7.7 2.88 9.27
11/12/2021 4:00:00 AM 11.24 52.232 0.413 7.7 3.06 9.27
11/12/2021 4:15:00 AM 11.27 52.286 0.414 7.7 2.64 9.25
11/12/2021 4:30:00 AM 11.31 52.358 0.413 7.69 3.01 9.22
11/12/2021 4:45:00 AM 11.34 52.412 0.413 7.7 3.05 9.2
11/12/2021 5:00:00 AM 11.37 52.466 0.412 7.69 3.16 9.15
11/12/2021 5:15:00 AM 11.42 52.556 0.411 7.69 3.2 9.18
11/12/2021 5:30:00 AM 11.47 52.646 0.409 7.69 3.34 9.13
11/12/2021 5:45:00 AM 11.51 52.718 0.407 7.68 3.6 9.13
11/12/2021 6:00:00 AM 11.54 52.772 0.406 7.69 3.61 9.06
11/12/2021 6:15:00 AM 11.57 52.826 0.404 7.68 4.16 9.09
11/12/2021 6:30:00 AM 11.6 52.88 0.403 7.68 4.62 9.08
11/12/2021 6:45:00 AM 11.63 52.934 0.402 7.68 4.25 9.06
11/12/2021 7:00:00 AM 11.65 52.97 0.402 7.68 4.13 9.04
11/12/2021 7:15:00 AM 11.67 53.006 0.403 7.67 4.43 9.03
11/12/2021 7:30:00 AM 11.68 53.024 0.403 7.67 3.97 8.93
11/12/2021 7:45:00 AM 11.75 53.15 0.398 7.67 6.53 9.03
11/12/2021 8:00:00 AM 11.77 53.186 0.397 7.67 5.71 9.02
11/12/2021 8:15:00 AM 11.79 53.222 0.394 7.67 6.85 9.04
11/12/2021 8:30:00 AM 11.79 53.222 0.393 7.67 7.05 9.05
11/12/2021 8:45:00 AM 11.8 53.24 0.391 7.67 6.96 9.03
11/12/2021 9:00:00 AM 11.8 53.24 0.388 7.66 8.84 9.02
11/12/2021 9:15:00 AM 11.8 53.24 0.385 7.66 13.69 9.01
11/12/2021 9:30:00 AM 11.8 53.24 0.381 7.66 15.18 9.04
11/12/2021 9:45:00 AM 11.82 53.276 0.379 7.66 13.28 9.07
11/12/2021 10:00:00 AM 11.85 53.33 0.378 7.66 17.21 9.08
11/12/2021 10:15:00 AM 11.88 53.384 0.371 7.66 32.05 9.12
11/12/2021 10:30:00 AM 11.9 53.42 0.367 7.65 36.38 9.15
11/12/2021 10:45:00 AM 11.92 53.456 0.362 7.65 30.09 9.18
11/12/2021 11:00:00 AM 11.95 53.51 0.358 7.66 48.38 9.22
11/12/2021 11:15:00 AM 12.02 53.636 0.353 7.65 39.35 9.24
11/12/2021 11:30:00 AM 12.11 53.798 0.351 7.65 46.86 9.22
11/12/2021 11:45:00 AM 12.2 53.96 0.349 7.65 54.75 9.19
11/12/2021 12:00:00 PM 12.28 54.104 0.345 7.64 82.86 9.17
11/12/2021 12:15:00 PM 12.35 54.23 0.34 7.65 60.48 9.14
11/12/2021 12:30:00 PM 12.4 54.32 0.334 7.65 77.43 9.13
11/12/2021 12:45:00 PM 12.46 54.428 0.331 7.65 66.57 9.12
11/12/2021 1:00:00 PM 12.52 54.536 0.329 7.66 65.4 9.12
11/12/2021 1:15:00 PM 12.58 54.644 0.325 7.66 76.9 9.08
11/12/2021 1:30:00 PM 12.64 54.752 0.319 7.65 117.55 8.99
11/12/2021 1:45:00 PM 12.71 54.878 0.309 7.64 117.4 8.9
11/12/2021 2:00:00 PM 12.78 55.004 0.298 7.62 112.76 8.86
11/12/2021 2:15:00 PM 12.82 55.076 0.293 7.62 112.44 8.86
11/12/2021 2:30:00 PM 12.86 55.148 0.289 7.59 151.27 8.86
11/12/2021 2:45:00 PM 12.89 55.202 0.287 7.59 127.51 8.87
11/12/2021 3:00:00 PM 12.9 55.22 0.286 7.58 108.51 8.86
11/12/2021 3:15:00 PM 12.93 55.274 0.285 7.58 101.75 8.82
11/12/2021 3:30:00 PM 12.96 55.328 0.286 7.56 101.86 8.78
11/12/2021 3:45:00 PM 12.99 55.382 0.288 7.55 113.68 8.72
11/12/2021 4:00:00 PM 13 55.4 0.287 7.54 97.72 8.68
11/12/2021 4:15:00 PM 13.01 55.418 0.287 7.54 103.53 8.66
11/12/2021 4:30:00 PM 13.02 55.436 0.286 7.54 103.57 8.66
11/12/2021 4:45:00 PM 13.01 55.418 0.286 7.53 103.2 8.66
11/12/2021 5:00:00 PM 13 55.4 0.287 7.54 80.22 8.66
11/12/2021 5:15:00 PM 12.99 55.382 0.287 7.53 89.49 8.66
11/12/2021 5:30:00 PM 12.97 55.346 0.287 7.53 77.61 8.66
11/12/2021 5:45:00 PM 12.95 55.31 0.288 7.52 69.22 8.66
11/12/2021 6:00:00 PM 12.93 55.274 0.288 7.52 80.19 8.64
11/12/2021 6:15:00 PM 12.89 55.202 0.289 7.52 88.56 8.63
11/12/2021 6:30:00 PM 12.86 55.148 0.289 7.51 81.03 8.61
11/12/2021 6:45:00 PM 12.82 55.076 0.29 7.51 65.66 8.6
11/12/2021 7:00:00 PM 12.78 55.004 0.291 7.51 74.15 8.58
11/12/2021 7:15:00 PM 12.75 54.95 0.291 7.5 62 8.58
11/12/2021 7:30:00 PM 12.7 54.86 0.292 7.5 61.16 8.57
11/12/2021 7:45:00 PM 12.65 54.77 0.293 7.5 61.95 8.57
11/12/2021 8:00:00 PM 12.6 54.68 0.294 7.5 67.21 8.57
11/12/2021 8:15:00 PM 12.55 54.59 0.296 7.5 65.39 8.57
11/12/2021 8:30:00 PM 12.5 54.5 0.297 7.5 63.83 8.58
11/12/2021 8:45:00 PM 12.45 54.41 0.298 7.5 63.56 8.58
11/12/2021 9:00:00 PM 12.39 54.302 0.299 7.5 54.98 8.58
11/12/2021 9:15:00 PM 12.34 54.212 0.3 7.5 71.79 8.58
11/12/2021 9:30:00 PM 12.28 54.104 0.301 7.49 56.63 8.58
11/12/2021 9:45:00 PM 12.22 53.996 0.303 7.5 62.34 8.58
11/12/2021 10:00:00 PM 12.16 53.888 0.304 7.49 54.04 8.59
11/12/2021 10:15:00 PM 12.1 53.78 0.305 7.5 45.53 8.59
11/12/2021 10:30:00 PM 12.03 53.654 0.306 7.49 47.27 8.6
11/12/2021 10:45:00 PM 11.97 53.546 0.307 7.49 46.94 8.62
11/12/2021 11:00:00 PM 11.9 53.42 0.308 7.49 50.36 8.62
11/12/2021 11:15:00 PM 11.84 53.312 0.309 7.49 38.76 8.63
11/12/2021 11:30:00 PM 11.78 53.204 0.311 7.5 50.44 8.63
11/12/2021 11:45:00 PM 11.71 53.078 0.312 7.5 41.09 8.65
11/13/2021 12:00:00 AM 11.64 52.952 0.313 7.5 32.76 8.66
11/13/2021 12:15:00 AM 11.58 52.844 0.314 7.5 36.85 8.67
11/13/2021 12:30:00 AM 11.52 52.736 0.316 7.5 42.28 8.68
11/13/2021 12:45:00 AM 11.45 52.61 0.317 7.5 33.88 8.7
11/13/2021 1:00:00 AM 11.38 52.484 0.318 7.5 45.51 8.72
11/13/2021 1:15:00 AM 11.32 52.376 0.319 7.51 36.43 8.74
11/13/2021 1:30:00 AM 11.26 52.268 0.321 7.51 33.84 8.75
11/13/2021 1:45:00 AM 11.19 52.142 0.322 7.51 30.11 8.77
11/13/2021 2:00:00 AM 11.13 52.034 0.324 7.52 29.6 8.78
11/13/2021 2:15:00 AM 11.06 51.908 0.325 7.51 35.02 8.81
11/13/2021 2:30:00 AM 11.01 51.818 0.327 7.52 30.24 8.81
11/13/2021 2:45:00 AM 10.95 51.71 0.328 7.52 29.18 8.83
11/13/2021 3:00:00 AM 10.9 51.62 0.329 7.52 26.75 8.85
11/13/2021 3:15:00 AM 10.84 51.512 0.33 7.52 27.71 8.89
11/13/2021 3:30:00 AM 10.78 51.404 0.331 7.53 27.05 8.91
11/13/2021 3:45:00 AM 10.72 51.296 0.332 7.53 25.03 8.94
11/13/2021 4:00:00 AM 10.66 51.188 0.334 7.53 25.12 8.96
11/13/2021 4:15:00 AM 10.59 51.062 0.334 7.53 26.15 8.99
11/13/2021 4:30:00 AM 10.54 50.972 0.336 7.54 29.1 9
11/13/2021 4:45:00 AM 10.48 50.864 0.336 7.54 23.98 9.03
11/13/2021 5:00:00 AM 10.44 50.792 0.338 7.54 24.26 9.04
11/13/2021 5:15:00 AM 10.38 50.684 0.338 7.54 21.47 9.06
11/13/2021 5:30:00 AM 10.32 50.576 0.339 7.54 23.7 9.08
11/13/2021 5:45:00 AM 10.27 50.486 0.34 7.55 21.61 9.11
11/13/2021 6:00:00 AM 10.21 50.378 0.341 7.55 18.85 9.13
11/13/2021 6:15:00 AM 10.16 50.288 0.341 7.55 21.49 9.15
11/13/2021 6:30:00 AM 10.11 50.198 0.342 7.55 19.08 9.18
11/13/2021 6:45:00 AM 10.07 50.126 0.343 7.56 18.62 9.2
11/13/2021 7:00:00 AM 10.04 50.072 0.344 7.56 19.91 9.22
11/13/2021 7:15:00 AM 10.01 50.018 0.345 7.56 21.25 9.24
11/13/2021 7:30:00 AM 9.99 49.982 0.345 7.56 20.98 9.26
11/13/2021 7:45:00 AM 9.96 49.928 0.346 7.56 20.28 9.28
11/13/2021 8:00:00 AM 9.94 49.892 0.347 7.56 19.53 9.29
11/13/2021 8:15:00 AM 9.91 49.838 0.348 7.56 16.44 9.31
11/13/2021 8:30:00 AM 9.89 49.802 0.348 7.57 18.78 9.33
11/13/2021 8:45:00 AM 9.88 49.784 0.349 7.57 15.04 9.35
11/13/2021 9:00:00 AM 9.88 49.784 0.35 7.57 15.68 9.37
11/13/2021 9:15:00 AM 9.88 49.784 0.35 7.57 15.59 9.4
11/13/2021 9:30:00 AM 9.88 49.784 0.351 7.58 14.94 9.42
11/13/2021 9:45:00 AM 9.91 49.838 0.352 7.58 14.74 9.45
11/13/2021 10:00:00 AM 9.92 49.856 0.352 7.59 15.05 9.48
11/13/2021 10:15:00 AM 9.94 49.892 0.353 7.59 11.87 9.51
11/13/2021 10:30:00 AM 9.95 49.91 0.354 7.59 12.43 9.54
11/13/2021 10:45:00 AM 9.95 49.91 0.354 7.59 13.72 9.56
11/13/2021 11:00:00 AM 9.94 49.892 0.355 7.6 12.19 9.57
11/13/2021 11:15:00 AM 9.93 49.874 0.355 7.6 13.21 9.59
11/13/2021 11:30:00 AM 9.92 49.856 0.356 7.6 12.23 9.6
11/13/2021 11:45:00 AM 9.92 49.856 0.357 7.6 12.08 9.61
11/13/2021 12:00:00 PM 9.92 49.856 0.357 7.61 12.83 9.63
11/13/2021 12:15:00 PM 9.93 49.874 0.357 7.61 12.25 9.65
11/13/2021 12:30:00 PM 9.95 49.91 0.358 7.61 12.04 9.69
11/13/2021 12:45:00 PM 9.96 49.928 0.359 7.61 11.49 9.71
11/13/2021 1:00:00 PM 9.94 49.892 0.36 7.62 12.01 9.72
11/13/2021 1:15:00 PM 9.91 49.838 0.36 7.63 11.7 9.74
11/13/2021 1:30:00 PM 9.85 49.73 0.359 7.63 11.25 9.76
11/13/2021 1:45:00 PM 9.8 49.64 0.36 7.63 11.48 9.77
11/13/2021 2:00:00 PM 9.76 49.568 0.36 7.63 11.08 9.78
11/13/2021 2:15:00 PM 9.74 49.532 0.361 7.64 11.08 9.79
11/13/2021 2:30:00 PM 9.76 49.568 0.362 7.64 11.89 9.83
11/13/2021 2:45:00 PM 9.8 49.64 0.362 7.64 10.33 9.88
11/13/2021 3:00:00 PM 9.83 49.694 0.363 7.64 10.83 9.91
11/13/2021 3:15:00 PM 9.86 49.748 0.363 7.65 9.56 9.94
11/13/2021 3:30:00 PM 9.87 49.766 0.364 7.66 10.06 9.94
11/13/2021 3:45:00 PM 9.84 49.712 0.364 7.66 8.6 9.97
11/13/2021 4:00:00 PM 9.79 49.622 0.364 7.66 8.88 9.97
11/13/2021 4:15:00 PM 9.75 49.55 0.365 7.66 8.65 9.97
11/13/2021 4:30:00 PM 9.69 49.442 0.366 7.66 8.4 9.97
11/13/2021 4:45:00 PM 9.64 49.352 0.365 7.66 8.18 9.98
11/13/2021 5:00:00 PM 9.61 49.298 0.365 7.67 7.98 9.99
11/13/2021 5:15:00 PM 9.56 49.208 0.366 7.67 8.65 9.99
11/13/2021 5:30:00 PM 9.51 49.118 0.366 7.67 8.37 9.99
11/13/2021 5:45:00 PM 9.47 49.046 0.366 7.66 7.64 9.98
11/13/2021 6:00:00 PM 9.43 48.974 0.366 7.67 7.5 9.97
11/13/2021 6:15:00 PM 9.4 48.92 0.367 7.67 7.91 9.97
11/13/2021 6:30:00 PM 9.38 48.884 0.367 7.66 7.93 9.97
11/13/2021 6:45:00 PM 9.35 48.83 0.367 7.67 7.96 9.96
11/13/2021 7:00:00 PM 9.33 48.794 0.368 7.67 8.42 9.96
11/13/2021 7:15:00 PM 9.32 48.776 0.368 7.67 8.52 9.95
11/13/2021 7:30:00 PM 9.3 48.74 0.368 7.67 8.57 9.95
11/13/2021 7:45:00 PM 9.28 48.704 0.369 7.66 8.77 9.95
11/13/2021 8:00:00 PM 9.25 48.65 0.368 7.67 8.31 9.94
11/13/2021 8:15:00 PM 9.21 48.578 0.369 7.66 7.99 9.95
11/13/2021 8:30:00 PM 9.16 48.488 0.369 7.67 7.63 9.95
11/13/2021 8:45:00 PM 9.11 48.398 0.369 7.66 8.29 9.95
11/13/2021 9:00:00 PM 9.07 48.326 0.369 7.66 8.09 9.94
11/13/2021 9:15:00 PM 9.03 48.254 0.369 7.67 7.97 9.95
11/13/2021 9:30:00 PM 9 48.2 0.369 7.66 7.13 9.95
11/13/2021 9:45:00 PM 8.97 48.146 0.37 7.67 7.4 9.95
11/13/2021 10:00:00 PM 8.94 48.092 0.369 7.66 7.88 9.96
11/13/2021 10:15:00 PM 8.9 48.02 0.369 7.66 7.49 9.97
11/13/2021 10:30:00 PM 8.87 47.966 0.369 7.66 7.55 9.97
11/13/2021 10:45:00 PM 8.83 47.894 0.369 7.66 7.35 9.99
11/13/2021 11:00:00 PM 8.79 47.822 0.369 7.66 7.4 10
11/13/2021 11:15:00 PM 8.74 47.732 0.369 7.66 7.27 10.01
11/13/2021 11:30:00 PM 8.69 47.642 0.369 7.66 7.1 10.03
11/13/2021 11:45:00 PM 8.64 47.552 0.369 7.67 6.91 10.03
11/14/2021 12:00:00 AM 8.59 47.462 0.37 7.67 7.07 10.05
11/14/2021 12:15:00 AM 8.54 47.372 0.37 7.67 6.89 10.06
11/14/2021 12:30:00 AM 8.5 47.3 0.37 7.67 7.38 10.07
11/14/2021 12:45:00 AM 8.46 47.228 0.371 7.66 6.75 10.09
11/14/2021 1:00:00 AM 8.42 47.156 0.371 7.67 6.67 10.09
11/14/2021 1:15:00 AM 8.39 47.102 0.371 7.66 6.95 10.1
11/14/2021 1:30:00 AM 8.35 47.03 0.371 7.67 7.36 10.11
11/14/2021 1:45:00 AM 8.32 46.976 0.372 7.67 6.83 10.12
11/14/2021 2:00:00 AM 8.27 46.886 0.371 7.67 11.83 10.12
11/14/2021 2:15:00 AM 8.23 46.814 0.371 7.67 7.54 10.15
11/14/2021 2:30:00 AM 8.2 46.76 0.372 7.67 6.69 10.16
11/14/2021 2:45:00 AM 8.16 46.688 0.372 7.67 6.72 10.15
11/14/2021 3:00:00 AM 8.12 46.616 0.372 7.67 6.45 10.17
11/14/2021 3:15:00 AM 8.08 46.544 0.373 7.67 6.9 10.18
11/14/2021 3:30:00 AM 8.05 46.49 0.373 7.67 7.89 10.18
11/14/2021 3:45:00 AM 8.01 46.418 0.373 7.67 6.67 10.19
11/14/2021 4:00:00 AM 7.97 46.346 0.373 7.67 7.86 10.2
11/14/2021 4:15:00 AM 7.77 45.986 0.374 7.67 8.61 10.26
11/14/2021 4:30:00 AM 7.73 45.914 0.374 7.67 6.96 10.28
11/14/2021 4:45:00 AM 7.69 45.842 0.375 7.67 6.59 10.3
11/14/2021 5:00:00 AM 7.65 45.77 0.375 7.67 6.79 10.3
11/14/2021 5:15:00 AM 7.61 45.698 0.375 7.67 6.7 10.33
11/14/2021 5:30:00 AM 7.57 45.626 0.375 7.67 6.21 10.34
11/14/2021 5:45:00 AM 7.53 45.554 0.375 7.67 6.27 10.35
11/14/2021 6:00:00 AM 7.5 45.5 0.376 7.67 6.5 10.36
11/14/2021 6:15:00 AM 7.46 45.428 0.376 7.67 6.31 10.37
11/14/2021 6:30:00 AM 7.42 45.356 0.376 7.67 5.87 10.38
11/14/2021 6:45:00 AM 7.38 45.284 0.377 7.67 6.02 10.4
11/14/2021 7:00:00 AM 7.35 45.23 0.377 7.68 6 10.41
11/14/2021 7:15:00 AM 7.32 45.176 0.378 7.67 6.11 10.42
11/14/2021 7:30:00 AM 7.3 45.14 0.377 7.68 5.88 10.44
11/14/2021 7:45:00 AM 7.28 45.104 0.378 7.68 5.61 10.47
11/14/2021 8:00:00 AM 7.26 45.068 0.378 7.68 16.53 10.49
11/14/2021 8:15:00 AM 7.24 45.032 0.378 7.68 11.83 10.52
11/14/2021 8:30:00 AM 7.23 45.014 0.378 7.68 5.71 10.55
11/14/2021 8:45:00 AM 7.23 45.014 0.378 7.68 4.83 10.59
11/14/2021 9:00:00 AM 7.24 45.032 0.378 7.69 5.97 10.63
11/14/2021 9:15:00 AM 7.27 45.086 0.379 7.69 4.68 10.66
11/14/2021 9:30:00 AM 7.32 45.176 0.379 7.69 4.13 10.69
11/14/2021 9:45:00 AM 7.39 45.302 0.379 7.7 4.48 10.75
11/14/2021 10:00:00 AM 7.45 45.41 0.379 7.71 4.04 10.79
11/14/2021 10:15:00 AM 7.48 45.464 0.38 7.71 4.32 10.84
11/14/2021 10:30:00 AM 7.54 45.572 0.38 7.72 4.05 10.88
11/14/2021 10:45:00 AM 7.6 45.68 0.379 7.72 4.19 10.92
11/14/2021 11:00:00 AM 7.66 45.788 0.38 7.72 4.55 10.95
11/14/2021 11:15:00 AM 7.73 45.914 0.38 7.73 3.82 10.99
11/14/2021 11:30:00 AM 7.78 46.004 0.38 7.74 3.96 11.01
11/14/2021 11:45:00 AM 7.84 46.112 0.38 7.74 3.97 11.03
11/14/2021 12:00:00 PM 7.86 46.148 0.381 7.74 3.64 11.07
11/14/2021 12:15:00 PM 7.91 46.238 0.381 7.75 3.87 11.1
11/14/2021 12:30:00 PM 7.92 46.256 0.381 7.75 3.9 11.13
11/14/2021 12:45:00 PM 7.94 46.292 0.381 7.76 3.73 11.13
11/14/2021 1:00:00 PM 7.96 46.328 0.381 7.76 3.73 11.14
11/14/2021 1:15:00 PM 8.03 46.454 0.381 7.76 3.98 11.17
11/14/2021 1:30:00 PM 8.05 46.49 0.381 7.77 3.72 11.18
11/14/2021 1:45:00 PM 8.1 46.58 0.381 7.77 3.8 11.19
11/14/2021 2:00:00 PM 8.16 46.688 0.382 7.77 3.6 11.21
11/14/2021 2:15:00 PM 8.18 46.724 0.381 7.78 4.05 11.2
11/14/2021 2:30:00 PM 8.2 46.76 0.382 7.78 3.75 11.19
11/14/2021 2:45:00 PM 8.22 46.796 0.382 7.78 3.74 11.17
11/14/2021 3:00:00 PM 8.22 46.796 0.382 7.78 3.8 11.17
11/14/2021 3:15:00 PM 8.22 46.796 0.382 7.78 3.68 11.15
11/14/2021 3:30:00 PM 8.23 46.814 0.383 7.78 3.62 11.11
11/14/2021 3:45:00 PM 8.24 46.832 0.383 7.78 3.55 11.08
11/14/2021 4:00:00 PM 8.24 46.832 0.382 7.78 3.61 11.04
11/14/2021 4:15:00 PM 8.24 46.832 0.384 7.77 3.46 10.98
11/14/2021 4:30:00 PM 8.24 46.832 0.383 7.77 3.55 10.94
11/14/2021 4:45:00 PM 8.23 46.814 0.383 7.76 3.79 10.88
11/14/2021 5:00:00 PM 8.23 46.814 0.384 7.76 3.41 10.83
11/14/2021 5:15:00 PM 8.23 46.814 0.384 7.76 3.54 10.77
11/14/2021 5:30:00 PM 8.23 46.814 0.384 7.75 3.66 10.74
11/14/2021 5:45:00 PM 8.24 46.832 0.384 7.75 3.71 10.71
11/14/2021 6:00:00 PM 8.23 46.814 0.384 7.74 3.66 10.66
11/14/2021 6:15:00 PM 8.23 46.814 0.385 7.74 3.59 10.64
11/14/2021 6:30:00 PM 8.23 46.814 0.384 7.74 3.66 10.6
11/14/2021 6:45:00 PM 8.22 46.796 0.384 7.74 3.86 10.59
11/14/2021 7:00:00 PM 8.21 46.778 0.385 7.73 3.7 10.57
11/14/2021 7:15:00 PM 8.19 46.742 0.385 7.73 4.21 10.55
11/14/2021 7:30:00 PM 8.17 46.706 0.384 7.73 3.89 10.53
11/14/2021 7:45:00 PM 8.16 46.688 0.384 7.73 3.98 10.5
11/14/2021 8:00:00 PM 8.16 46.688 0.385 7.72 3.8 10.48
11/14/2021 8:15:00 PM 8.16 46.688 0.385 7.72 4.26 10.45
11/14/2021 8:30:00 PM 8.16 46.688 0.385 7.72 3.82 10.43
11/14/2021 8:45:00 PM 8.16 46.688 0.386 7.72 3.56 10.41
11/14/2021 9:00:00 PM 8.16 46.688 0.386 7.71 3.7 10.39
11/14/2021 9:15:00 PM 8.16 46.688 0.385 7.71 3.64 10.37
11/14/2021 9:30:00 PM 8.16 46.688 0.386 7.71 3.8 10.36
11/14/2021 9:45:00 PM 8.16 46.688 0.386 7.71 3.84 10.35
11/14/2021 10:00:00 PM 8.17 46.706 0.386 7.71 3.69 10.33
11/14/2021 10:15:00 PM 8.17 46.706 0.386 7.71 3.74 10.32
11/14/2021 10:30:00 PM 8.18 46.724 0.386 7.7 3.64 10.31
11/14/2021 10:45:00 PM 8.19 46.742 0.386 7.71 3.65 10.3
11/14/2021 11:00:00 PM 8.19 46.742 0.387 7.7 3.82 10.29
11/14/2021 11:15:00 PM 8.19 46.742 0.386 7.7 3.88 10.28
11/14/2021 11:30:00 PM 8.19 46.742 0.385 7.7 3.66 10.27
11/14/2021 11:45:00 PM 8.18 46.724 0.385 7.7 3.79 10.28
11/15/2021 12:00:00 AM 8.16 46.688 0.386 7.7 3.75 10.26
11/15/2021 12:15:00 AM 8.13 46.634 0.386 7.7 3.55 10.26
11/15/2021 12:30:00 AM 8.1 46.58 0.386 7.7 3.63 10.26
11/15/2021 12:45:00 AM 8.07 46.526 0.386 7.7 3.82 10.26
11/15/2021 1:00:00 AM 8.05 46.49 0.386 7.69 3.64 10.26
11/15/2021 1:15:00 AM 8.05 46.49 0.388 7.7 3.47 10.25
11/15/2021 1:30:00 AM 8.05 46.49 0.387 7.7 3.73 10.25
11/15/2021 1:45:00 AM 8.05 46.49 0.387 7.69 3.63 10.25
11/15/2021 2:00:00 AM 8.07 46.526 0.388 7.69 3.39 10.24
11/15/2021 2:15:00 AM 8.07 46.526 0.387 7.69 3.58 10.23
11/15/2021 2:30:00 AM 8.08 46.544 0.388 7.69 3.74 10.23
11/15/2021 2:45:00 AM 8.07 46.526 0.388 7.69 3.55 10.23
11/15/2021 3:00:00 AM 8.07 46.526 0.387 7.69 3.47 10.23
11/15/2021 3:15:00 AM 8.06 46.508 0.388 7.69 3.85 10.22
11/15/2021 3:30:00 AM 8.05 46.49 0.387 7.69 3.59 10.22
11/15/2021 3:45:00 AM 8.04 46.472 0.388 7.69 3.61 10.21
11/15/2021 4:00:00 AM 8.03 46.454 0.388 7.69 3.78 10.22
11/15/2021 4:15:00 AM 8.01 46.418 0.388 7.69 3.65 10.21
11/15/2021 4:30:00 AM 7.99 46.382 0.388 7.69 3.73 10.22
11/15/2021 4:45:00 AM 7.97 46.346 0.389 7.69 4.72 10.22
11/15/2021 5:00:00 AM 7.93 46.274 0.388 7.69 3.98 10.23
11/15/2021 5:15:00 AM 7.89 46.202 0.388 7.69 4.25 10.24
11/15/2021 5:30:00 AM 7.86 46.148 0.389 7.69 3.97 10.24
11/15/2021 5:45:00 AM 7.83 46.094 0.389 7.69 4.77 10.24
11/15/2021 6:00:00 AM 7.82 46.076 0.389 7.69 4.29 10.22
11/15/2021 6:15:00 AM 7.81 46.058 0.389 7.69 4.13 10.24
11/15/2021 6:30:00 AM 7.81 46.058 0.389 7.69 5.8 10.25
11/15/2021 6:45:00 AM 7.82 46.076 0.389 7.69 4.21 10.24
11/15/2021 7:00:00 AM 7.82 46.076 0.39 7.69 4.28 10.23
11/15/2021 7:15:00 AM 7.82 46.076 0.39 7.69 3.99 10.26
11/15/2021 7:30:00 AM 7.82 46.076 0.389 7.7 3.93 10.27
11/15/2021 7:45:00 AM 7.81 46.058 0.39 7.7 3.7 10.28
11/15/2021 8:00:00 AM 7.81 46.058 0.39 7.7 3.83 10.3
11/15/2021 8:15:00 AM 7.82 46.076 0.39 7.7 3.82 10.33
11/15/2021 8:30:00 AM 7.83 46.094 0.39 7.7<